<?xml version='1.0' encoding='UTF-8'?><gpx version="1.1" creator="JPX - https://github.com/jenetics/jpx" xmlns="http://www.topografix.com/GPX/1/1"><trk><trkseg><trkpt lat="45.9227605728963" lon="7.640843461603769"><ele>2460.0</ele><time>2026-03-27T11:52:33.837Z</time></trkpt><trkpt lat="45.92269691600914" lon="7.6409085592024155"><ele>2460.0</ele><time>2026-03-27T11:52:39Z</time></trkpt><trkpt lat="45.922646389798494" lon="7.640965274177308"><ele>2460.0</ele><time>2026-03-27T11:52:43Z</time></trkpt><trkpt lat="45.92258852860038" lon="7.64102307931019"><ele>2460.0</ele><time>2026-03-27T11:52:47Z</time></trkpt><trkpt lat="45.92252820194429" lon="7.641087204678305"><ele>2460.0</ele><time>2026-03-27T11:52:51Z</time></trkpt><trkpt lat="45.92247358326207" lon="7.641167757002521"><ele>2460.0</ele><time>2026-03-27T11:52:55Z</time></trkpt><trkpt lat="45.92241868434605" lon="7.641242201328856"><ele>2460.0</ele><time>2026-03-27T11:53:00Z</time></trkpt><trkpt lat="45.92236391865602" lon="7.641294182284299"><ele>2462.285714285714</ele><time>2026-03-27T11:53:03Z</time></trkpt><trkpt lat="45.92231387558537" lon="7.641354848454653"><ele>2464.571428571429</ele><time>2026-03-27T11:53:07.001Z</time></trkpt><trkpt lat="45.922260115616794" lon="7.641411172119109"><ele>2466.857142857143</ele><time>2026-03-27T11:53:10.001Z</time></trkpt><trkpt lat="45.92218729211043" lon="7.641471496901692"><ele>2469.142857142857</ele><time>2026-03-27T11:53:14.001Z</time></trkpt><trkpt lat="45.92211923268347" lon="7.6414581941777096"><ele>2471.4285714285716</ele><time>2026-03-27T11:53:16.001Z</time></trkpt><trkpt lat="45.92215342117465" lon="7.641362458781166"><ele>2473.714285714286</ele><time>2026-03-27T11:53:20.001Z</time></trkpt><trkpt lat="45.92217536607164" lon="7.6412729919004"><ele>2476.0</ele><time>2026-03-27T11:53:22.001Z</time></trkpt><trkpt lat="45.922175587620984" lon="7.641136809269426"><ele>2474.8333333333335</ele><time>2026-03-27T11:53:24.001Z</time></trkpt><trkpt lat="45.922246999334014" lon="7.641063258383722"><ele>2473.666666666667</ele><time>2026-03-27T11:53:26.001Z</time></trkpt><trkpt lat="45.92231229035334" lon="7.641052162685752"><ele>2472.5</ele><time>2026-03-27T11:53:46.002Z</time></trkpt><trkpt lat="45.922366763177756" lon="7.640966774712115"><ele>2471.3333333333335</ele><time>2026-03-27T11:53:51.002Z</time></trkpt><trkpt lat="45.92240061341408" lon="7.640888700919649"><ele>2470.1666666666665</ele><time>2026-03-27T11:53:53.002Z</time></trkpt><trkpt lat="45.922453228200844" lon="7.640788887712807"><ele>2469.0</ele><time>2026-03-27T11:53:55.002Z</time></trkpt><trkpt lat="45.92254126141313" lon="7.640745825242795"><ele>2467.5</ele><time>2026-03-27T11:53:57.002Z</time></trkpt><trkpt lat="45.92256602854595" lon="7.640660208444917"><ele>2466.0</ele><time>2026-03-27T11:53:58.002Z</time></trkpt><trkpt lat="45.922596397510006" lon="7.640572495208063"><ele>2464.5</ele><time>2026-03-27T11:53:59.002Z</time></trkpt><trkpt lat="45.92266209574975" lon="7.640570819933648"><ele>2463.0</ele><time>2026-03-27T11:54:00.002Z</time></trkpt><trkpt lat="45.92276310045007" lon="7.640478467797735"><ele>2461.5</ele><time>2026-03-27T11:54:02.002Z</time></trkpt><trkpt lat="45.92281449081541" lon="7.640374694295206"><ele>2460.0</ele><time>2026-03-27T11:54:03.002Z</time></trkpt><trkpt lat="45.922909589783245" lon="7.640368295036027"><ele>2460.0</ele><time>2026-03-27T11:54:04.002Z</time></trkpt><trkpt lat="45.923003796811194" lon="7.640389228786184"><ele>2460.0</ele><time>2026-03-27T11:54:05.002Z</time></trkpt><trkpt lat="45.923082217153414" lon="7.640299694105397"><ele>2460.0</ele><time>2026-03-27T11:54:06.002Z</time></trkpt><trkpt lat="45.9230693683064" lon="7.640156350464509"><ele>2460.0</ele><time>2026-03-27T11:54:07.002Z</time></trkpt><trkpt lat="45.923138797210726" lon="7.640044742835751"><ele>2460.0</ele><time>2026-03-27T11:54:08.002Z</time></trkpt><trkpt lat="45.923224328336595" lon="7.640017452058263"><ele>2456.6666666666665</ele><time>2026-03-27T11:54:09.002Z</time></trkpt><trkpt lat="45.92327192487747" lon="7.639932692522873"><ele>2453.3333333333335</ele><time>2026-03-27T11:54:10.002Z</time></trkpt><trkpt lat="45.92323940496488" lon="7.639854071191906"><ele>2450.0</ele><time>2026-03-27T11:54:11.002Z</time></trkpt><trkpt lat="45.92322461269032" lon="7.639730938643405"><ele>2446.666666666667</ele><time>2026-03-27T11:54:13.002Z</time></trkpt><trkpt lat="45.92328350609569" lon="7.639670331081394"><ele>2443.3333333333335</ele><time>2026-03-27T11:54:14.002Z</time></trkpt><trkpt lat="45.92327812995961" lon="7.63957893538278"><ele>2440.0</ele><time>2026-03-27T11:54:15.003Z</time></trkpt><trkpt lat="45.92336203134366" lon="7.6394234260437335"><ele>2434.6</ele><time>2026-03-27T11:54:17.003Z</time></trkpt><trkpt lat="45.92337682055746" lon="7.639296171541992"><ele>2429.2</ele><time>2026-03-27T11:54:18.003Z</time></trkpt><trkpt lat="45.92338658826708" lon="7.639165167239057"><ele>2423.8</ele><time>2026-03-27T11:54:19.003Z</time></trkpt><trkpt lat="45.92347202437382" lon="7.639092256846655"><ele>2418.4</ele><time>2026-03-27T11:54:20.003Z</time></trkpt><trkpt lat="45.9235422018248" lon="7.638966748966907"><ele>2413.0</ele><time>2026-03-27T11:54:21.003Z</time></trkpt><trkpt lat="45.92353693802324" lon="7.638813925515963"><ele>2407.75</ele><time>2026-03-27T11:54:22.003Z</time></trkpt><trkpt lat="45.923553399492356" lon="7.638671343240908"><ele>2402.5</ele><time>2026-03-27T11:54:23.003Z</time></trkpt><trkpt lat="45.92365783433224" lon="7.6386080349793"><ele>2397.25</ele><time>2026-03-27T11:54:24.003Z</time></trkpt><trkpt lat="45.9237597152781" lon="7.638612690330317"><ele>2392.0</ele><time>2026-03-27T11:54:25.003Z</time></trkpt><trkpt lat="45.923889470699464" lon="7.638405719439494"><ele>2385.5</ele><time>2026-03-27T11:54:27.003Z</time></trkpt><trkpt lat="45.92400064470879" lon="7.63836212891692"><ele>2379.0</ele><time>2026-03-27T11:54:28.003Z</time></trkpt><trkpt lat="45.92410701790407" lon="7.638402818057733"><ele>2372.5</ele><time>2026-03-27T11:54:29.003Z</time></trkpt><trkpt lat="45.92420720800185" lon="7.638344623351505"><ele>2366.0</ele><time>2026-03-27T11:54:30.003Z</time></trkpt><trkpt lat="45.924264600706515" lon="7.638196708591875"><ele>2363.0</ele><time>2026-03-27T11:54:31.003Z</time></trkpt><trkpt lat="45.92437198730979" lon="7.638195706414514"><ele>2360.0</ele><time>2026-03-27T11:54:32.003Z</time></trkpt><trkpt lat="45.92445298293052" lon="7.638150449696843"><ele>2357.0</ele><time>2026-03-27T11:54:33.003Z</time></trkpt><trkpt lat="45.92444246290382" lon="7.638007333030356"><ele>2354.0</ele><time>2026-03-27T11:54:34.003Z</time></trkpt><trkpt lat="45.92438771918285" lon="7.637918613172716"><ele>2351.0</ele><time>2026-03-27T11:54:35.003Z</time></trkpt><trkpt lat="45.92431287731356" lon="7.637922868568777"><ele>2351.0</ele><time>2026-03-27T11:54:37.003Z</time></trkpt><trkpt lat="45.92424983062882" lon="7.6378745173219516"><ele>2351.0</ele><time>2026-03-27T11:54:57.001Z</time></trkpt><trkpt lat="45.92418985837084" lon="7.637785721624309"><ele>2351.0</ele><time>2026-03-27T11:54:59.001Z</time></trkpt><trkpt lat="45.924116424798896" lon="7.637727321623471"><ele>2351.0</ele><time>2026-03-27T11:55:01.001Z</time></trkpt><trkpt lat="45.924036417658584" lon="7.637625292649215"><ele>2351.0</ele><time>2026-03-27T11:55:03.001Z</time></trkpt><trkpt lat="45.92393590361425" lon="7.637516220147374"><ele>2349.8</ele><time>2026-03-27T11:55:05.001Z</time></trkpt><trkpt lat="45.92401538164572" lon="7.6374938535469745"><ele>2348.6</ele><time>2026-03-27T11:55:06.001Z</time></trkpt><trkpt lat="45.92406573566941" lon="7.637324340590524"><ele>2347.4</ele><time>2026-03-27T11:55:08.001Z</time></trkpt><trkpt lat="45.924132056609636" lon="7.637223295976352"><ele>2346.2</ele><time>2026-03-27T11:55:09.001Z</time></trkpt><trkpt lat="45.92413839033505" lon="7.637069971761323"><ele>2345.0</ele><time>2026-03-27T11:55:10.001Z</time></trkpt><trkpt lat="45.9242312873502" lon="7.6369882357427885"><ele>2334.0</ele><time>2026-03-27T11:55:11.001Z</time></trkpt><trkpt lat="45.92432289655841" lon="7.636879447876619"><ele>2323.0</ele><time>2026-03-27T11:55:12.001Z</time></trkpt><trkpt lat="45.92438281614899" lon="7.636736232492101"><ele>2312.0</ele><time>2026-03-27T11:55:13.001Z</time></trkpt><trkpt lat="45.924508812840294" lon="7.6366712537798564"><ele>2301.0</ele><time>2026-03-27T11:55:14.001Z</time></trkpt><trkpt lat="45.924547199810675" lon="7.636481537764203"><ele>2301.0</ele><time>2026-03-27T11:55:15.001Z</time></trkpt><trkpt lat="45.924640121407364" lon="7.636349413790645"><ele>2301.0</ele><time>2026-03-27T11:55:16.001Z</time></trkpt><trkpt lat="45.92474812327542" lon="7.636191832533469"><ele>2301.0</ele><time>2026-03-27T11:55:17.001Z</time></trkpt><trkpt lat="45.92476513253849" lon="7.635966283096497"><ele>2301.0</ele><time>2026-03-27T11:55:18.001Z</time></trkpt><trkpt lat="45.92486929900972" lon="7.6357926531115075"><ele>2295.5</ele><time>2026-03-27T11:55:19.001Z</time></trkpt><trkpt lat="45.92498405049798" lon="7.635618940413059"><ele>2290.0</ele><time>2026-03-27T11:55:20.001Z</time></trkpt><trkpt lat="45.924967937246755" lon="7.635380219426627"><ele>2284.5</ele><time>2026-03-27T11:55:21.001Z</time></trkpt><trkpt lat="45.924947127345526" lon="7.635217513418124"><ele>2279.0</ele><time>2026-03-27T11:55:22.001Z</time></trkpt><trkpt lat="45.92502999276973" lon="7.63509398718084"><ele>2271.5</ele><time>2026-03-27T11:55:23.001Z</time></trkpt><trkpt lat="45.92514352186873" lon="7.635020595960477"><ele>2264.0</ele><time>2026-03-27T11:55:24.001Z</time></trkpt><trkpt lat="45.925174609568295" lon="7.6348518887181935"><ele>2256.5</ele><time>2026-03-27T11:55:25.001Z</time></trkpt><trkpt lat="45.92517728842524" lon="7.634684361589674"><ele>2249.0</ele><time>2026-03-27T11:55:26.001Z</time></trkpt><trkpt lat="45.92527294608043" lon="7.634611371276255"><ele>2249.0</ele><time>2026-03-27T11:55:27.001Z</time></trkpt><trkpt lat="45.925381349755185" lon="7.63457678025575"><ele>2249.0</ele><time>2026-03-27T11:55:28.001Z</time></trkpt><trkpt lat="45.925445461600354" lon="7.634426692689422"><ele>2249.0</ele><time>2026-03-27T11:55:29.001Z</time></trkpt><trkpt lat="45.925462416755316" lon="7.634253356409444"><ele>2249.0</ele><time>2026-03-27T11:55:30.001Z</time></trkpt><trkpt lat="45.92556208401269" lon="7.634176569127291"><ele>2247.0</ele><time>2026-03-27T11:55:31.001Z</time></trkpt><trkpt lat="45.9256743499794" lon="7.634213269601792"><ele>2245.0</ele><time>2026-03-27T11:55:32.001Z</time></trkpt><trkpt lat="45.92574461289511" lon="7.634134758823"><ele>2243.0</ele><time>2026-03-27T11:55:33.001Z</time></trkpt><trkpt lat="45.925788333035975" lon="7.634000741546268"><ele>2241.0</ele><time>2026-03-27T11:55:34.001Z</time></trkpt><trkpt lat="45.92587315442214" lon="7.633998547067924"><ele>2239.0</ele><time>2026-03-27T11:55:35.001Z</time></trkpt><trkpt lat="45.92596263954237" lon="7.634034367631535"><ele>2235.4</ele><time>2026-03-27T11:55:36.001Z</time></trkpt><trkpt lat="45.92600989652438" lon="7.633923209498012"><ele>2231.8</ele><time>2026-03-27T11:55:37.001Z</time></trkpt><trkpt lat="45.926086165634686" lon="7.6338569223353865"><ele>2228.2</ele><time>2026-03-27T11:55:38.001Z</time></trkpt><trkpt lat="45.926184373209864" lon="7.633900504070501"><ele>2224.6</ele><time>2026-03-27T11:55:39.001Z</time></trkpt><trkpt lat="45.92626827373832" lon="7.633848812015964"><ele>2221.0</ele><time>2026-03-27T11:55:40.001Z</time></trkpt><trkpt lat="45.92629135355325" lon="7.633740854360678"><ele>2221.0</ele><time>2026-03-27T11:55:41.001Z</time></trkpt><trkpt lat="45.92637502733453" lon="7.633731597505311"><ele>2221.0</ele><time>2026-03-27T11:56:01.001Z</time></trkpt><trkpt lat="45.92645701915044" lon="7.633726567415284"><ele>2221.0</ele><time>2026-03-27T11:56:02.001Z</time></trkpt><trkpt lat="45.926440237996744" lon="7.633639105877195"><ele>2221.0</ele><time>2026-03-27T11:56:09.001Z</time></trkpt><trkpt lat="45.92649852232184" lon="7.633592461865936"><ele>2221.0</ele><time>2026-03-27T11:56:17.001Z</time></trkpt><trkpt lat="45.926564775386524" lon="7.633593835157206"><ele>2221.0</ele><time>2026-03-27T11:56:18.001Z</time></trkpt><trkpt lat="45.92662893805743" lon="7.633616985313335"><ele>2221.0</ele><time>2026-03-27T11:56:19.001Z</time></trkpt><trkpt lat="45.92670569014699" lon="7.63366519638763"><ele>2214.8333333333335</ele><time>2026-03-27T11:56:20.001Z</time></trkpt><trkpt lat="45.92678682498291" lon="7.633632030787884"><ele>2208.666666666667</ele><time>2026-03-27T11:56:21.001Z</time></trkpt><trkpt lat="45.92684662416569" lon="7.6335415910081625"><ele>2202.5</ele><time>2026-03-27T11:56:22.002Z</time></trkpt><trkpt lat="45.92692509169525" lon="7.633533312207964"><ele>2196.3333333333335</ele><time>2026-03-27T11:56:23.002Z</time></trkpt><trkpt lat="45.926991303435514" lon="7.6335562724749595"><ele>2190.1666666666665</ele><time>2026-03-27T11:56:24.002Z</time></trkpt><trkpt lat="45.92706603631832" lon="7.6335530589181255"><ele>2184.0</ele><time>2026-03-27T11:56:25.002Z</time></trkpt><trkpt lat="45.927113012574225" lon="7.633451075936381"><ele>2184.0</ele><time>2026-03-27T11:56:26.002Z</time></trkpt><trkpt lat="45.92722151500781" lon="7.633411707400678"><ele>2184.0</ele><time>2026-03-27T11:56:28.002Z</time></trkpt><trkpt lat="45.92719323532229" lon="7.633305700425348"><ele>2184.0</ele><time>2026-03-27T11:56:30.002Z</time></trkpt><trkpt lat="45.92728768793082" lon="7.633251469422088"><ele>2184.0</ele><time>2026-03-27T11:56:32.002Z</time></trkpt><trkpt lat="45.92736786094168" lon="7.633261365436"><ele>2184.0</ele><time>2026-03-27T11:56:35.002Z</time></trkpt><trkpt lat="45.92733186334529" lon="7.633128770456897"><ele>2184.0</ele><time>2026-03-27T11:56:38.002Z</time></trkpt><trkpt lat="45.92732857778674" lon="7.633019902287632"><ele>2184.0</ele><time>2026-03-27T11:56:39.002Z</time></trkpt><trkpt lat="45.927392161122626" lon="7.632905049518193"><ele>2184.0</ele><time>2026-03-27T11:56:40.002Z</time></trkpt><trkpt lat="45.927480591753344" lon="7.6328963312568865"><ele>2184.0</ele><time>2026-03-27T11:56:41.002Z</time></trkpt><trkpt lat="45.92756495774664" lon="7.6329625522128115"><ele>2184.0</ele><time>2026-03-27T11:56:42.002Z</time></trkpt><trkpt lat="45.92763309206259" lon="7.63299936100281"><ele>2184.0</ele><time>2026-03-27T11:56:43.002Z</time></trkpt><trkpt lat="45.92770225701494" lon="7.632928713380028"><ele>2178.0</ele><time>2026-03-27T11:56:44.002Z</time></trkpt><trkpt lat="45.92777050602524" lon="7.632874331703063"><ele>2172.0</ele><time>2026-03-27T11:56:45.002Z</time></trkpt><trkpt lat="45.92785280771736" lon="7.632901323575347"><ele>2166.0</ele><time>2026-03-27T11:56:46.002Z</time></trkpt><trkpt lat="45.92794433951954" lon="7.632944709179701"><ele>2160.0</ele><time>2026-03-27T11:56:47.002Z</time></trkpt><trkpt lat="45.92803449374231" lon="7.633011626779632"><ele>2154.0</ele><time>2026-03-27T11:56:48.002Z</time></trkpt><trkpt lat="45.92811804936851" lon="7.633058198934944"><ele>2154.0</ele><time>2026-03-27T11:56:49.002Z</time></trkpt><trkpt lat="45.92818655571098" lon="7.632933267505831"><ele>2154.0</ele><time>2026-03-27T11:56:50.002Z</time></trkpt><trkpt lat="45.92825593728697" lon="7.632868765726752"><ele>2154.0</ele><time>2026-03-27T11:56:51.002Z</time></trkpt><trkpt lat="45.928331170176975" lon="7.632970919902733"><ele>2154.0</ele><time>2026-03-27T11:56:52.002Z</time></trkpt><trkpt lat="45.92839075812228" lon="7.633059685011707"><ele>2154.0</ele><time>2026-03-27T11:56:53.002Z</time></trkpt><trkpt lat="45.92846489494549" lon="7.632991595127519"><ele>2147.6</ele><time>2026-03-27T11:56:54.002Z</time></trkpt><trkpt lat="45.928533473217435" lon="7.632873825653319"><ele>2141.2</ele><time>2026-03-27T11:56:55.002Z</time></trkpt><trkpt lat="45.928634343438404" lon="7.632870610610897"><ele>2134.7999999999997</ele><time>2026-03-27T11:56:56.002Z</time></trkpt><trkpt lat="45.92873261939569" lon="7.63295535059169"><ele>2128.4</ele><time>2026-03-27T11:56:57.001Z</time></trkpt><trkpt lat="45.92880584262942" lon="7.633073579005556"><ele>2122.0</ele><time>2026-03-27T11:56:58.001Z</time></trkpt><trkpt lat="45.92891350054329" lon="7.633047065629931"><ele>2122.0</ele><time>2026-03-27T11:56:59.001Z</time></trkpt><trkpt lat="45.92899901017812" lon="7.6329059351225315"><ele>2122.0</ele><time>2026-03-27T11:57:00.001Z</time></trkpt><trkpt lat="45.92911518834945" lon="7.632892258575936"><ele>2122.0</ele><time>2026-03-27T11:57:01.001Z</time></trkpt><trkpt lat="45.929216454661685" lon="7.632889182947667"><ele>2122.0</ele><time>2026-03-27T11:57:02.001Z</time></trkpt><trkpt lat="45.92926978810012" lon="7.632778734066193"><ele>2122.0</ele><time>2026-03-27T11:57:03.001Z</time></trkpt><trkpt lat="45.92927962550815" lon="7.632644576184128"><ele>2121.0</ele><time>2026-03-27T11:57:04.001Z</time></trkpt><trkpt lat="45.929296193306" lon="7.632525545206954"><ele>2120.0</ele><time>2026-03-27T11:57:05.001Z</time></trkpt><trkpt lat="45.92930858236651" lon="7.632409319205142"><ele>2119.0</ele><time>2026-03-27T11:57:06.001Z</time></trkpt><trkpt lat="45.929322786416215" lon="7.632298071637399"><ele>2118.0</ele><time>2026-03-27T11:57:07.001Z</time></trkpt><trkpt lat="45.92931750318988" lon="7.632161393105266"><ele>2117.0</ele><time>2026-03-27T11:57:08.001Z</time></trkpt><trkpt lat="45.92929619889558" lon="7.6320184131595"><ele>2116.0</ele><time>2026-03-27T11:57:09.001Z</time></trkpt><trkpt lat="45.929297548414176" lon="7.6318744027284"><ele>2113.4</ele><time>2026-03-27T11:57:10.001Z</time></trkpt><trkpt lat="45.92931639649626" lon="7.631734877116562"><ele>2110.8</ele><time>2026-03-27T11:57:11.001Z</time></trkpt><trkpt lat="45.92934171410445" lon="7.631595114507278"><ele>2108.2000000000003</ele><time>2026-03-27T11:57:12.001Z</time></trkpt><trkpt lat="45.9294042910841" lon="7.631452966041721"><ele>2105.6</ele><time>2026-03-27T11:57:13.001Z</time></trkpt><trkpt lat="45.92947890498351" lon="7.631342554854073"><ele>2103.0</ele><time>2026-03-27T11:57:14.001Z</time></trkpt><trkpt lat="45.9295677234708" lon="7.631260374891745"><ele>2103.0</ele><time>2026-03-27T11:57:15.001Z</time></trkpt><trkpt lat="45.92965796878801" lon="7.63122044070622"><ele>2103.0</ele><time>2026-03-27T11:57:16.001Z</time></trkpt><trkpt lat="45.929752331846075" lon="7.631221919304565"><ele>2103.0</ele><time>2026-03-27T11:57:17.001Z</time></trkpt><trkpt lat="45.929837517103245" lon="7.631219500731809"><ele>2103.0</ele><time>2026-03-27T11:57:18.001Z</time></trkpt><trkpt lat="45.929913636997306" lon="7.631228018510371"><ele>2103.0</ele><time>2026-03-27T11:57:19.001Z</time></trkpt><trkpt lat="45.929995200628504" lon="7.631240391601826"><ele>2103.0</ele><time>2026-03-27T11:57:20.001Z</time></trkpt><trkpt lat="45.93007035450678" lon="7.631250468715575"><ele>2100.3333333333335</ele><time>2026-03-27T11:57:21.001Z</time></trkpt><trkpt lat="45.93015193767101" lon="7.6312677335175065"><ele>2097.6666666666665</ele><time>2026-03-27T11:57:22.001Z</time></trkpt><trkpt lat="45.930235615644875" lon="7.631293585481778"><ele>2095.0</ele><time>2026-03-27T11:57:23.001Z</time></trkpt><trkpt lat="45.93031970086577" lon="7.631364142366873"><ele>2092.333333333333</ele><time>2026-03-27T11:57:24.001Z</time></trkpt><trkpt lat="45.930408484434004" lon="7.63134915632226"><ele>2089.6666666666665</ele><time>2026-03-27T11:57:25.001Z</time></trkpt><trkpt lat="45.93048973970954" lon="7.63135037799944"><ele>2087.0</ele><time>2026-03-27T11:57:26.001Z</time></trkpt><trkpt lat="45.93056771672371" lon="7.631440931428239"><ele>2087.0</ele><time>2026-03-27T11:57:27.001Z</time></trkpt><trkpt lat="45.9306490497834" lon="7.6314768382452645"><ele>2087.0</ele><time>2026-03-27T11:57:28.001Z</time></trkpt><trkpt lat="45.93074507767009" lon="7.631427606108635"><ele>2087.0</ele><time>2026-03-27T11:57:29.001Z</time></trkpt><trkpt lat="45.93083752462252" lon="7.631383335528257"><ele>2087.0</ele><time>2026-03-27T11:57:30.001Z</time></trkpt><trkpt lat="45.93091398832906" lon="7.631451220594316"><ele>2087.0</ele><time>2026-03-27T11:57:31.001Z</time></trkpt><trkpt lat="45.93096046290927" lon="7.631583731393972"><ele>2081.6</ele><time>2026-03-27T11:57:32.001Z</time></trkpt><trkpt lat="45.931037467177" lon="7.631629975123128"><ele>2076.2</ele><time>2026-03-27T11:57:33.001Z</time></trkpt><trkpt lat="45.93111998515586" lon="7.631663111358944"><ele>2070.8</ele><time>2026-03-27T11:57:34.001Z</time></trkpt><trkpt lat="45.93116842904292" lon="7.6317830842782515"><ele>2065.4</ele><time>2026-03-27T11:57:35.001Z</time></trkpt><trkpt lat="45.931232963654786" lon="7.631878640126623"><ele>2060.0</ele><time>2026-03-27T11:57:36.001Z</time></trkpt><trkpt lat="45.93133701697392" lon="7.6319071685849815"><ele>2059.2</ele><time>2026-03-27T11:57:37.001Z</time></trkpt><trkpt lat="45.93141600794373" lon="7.631993105770907"><ele>2058.4</ele><time>2026-03-27T11:57:38.001Z</time></trkpt><trkpt lat="45.931472250906765" lon="7.632146905220246"><ele>2057.6</ele><time>2026-03-27T11:57:39.001Z</time></trkpt><trkpt lat="45.931575628614844" lon="7.6321955601474984"><ele>2056.8</ele><time>2026-03-27T11:57:40.001Z</time></trkpt><trkpt lat="45.93168211647095" lon="7.632216385925287"><ele>2056.0</ele><time>2026-03-27T11:57:41.001Z</time></trkpt><trkpt lat="45.93176093745269" lon="7.632302338296849"><ele>2056.0</ele><time>2026-03-27T11:57:42.001Z</time></trkpt><trkpt lat="45.93184100162785" lon="7.632259395433639"><ele>2056.0</ele><time>2026-03-27T11:57:43.001Z</time></trkpt><trkpt lat="45.93188857670024" lon="7.632119506147515"><ele>2056.0</ele><time>2026-03-27T11:57:44.001Z</time></trkpt><trkpt lat="45.93194219213899" lon="7.632016730823488"><ele>2056.0</ele><time>2026-03-27T11:57:45.001Z</time></trkpt><trkpt lat="45.932034653597356" lon="7.6320232137476145"><ele>2056.0</ele><time>2026-03-27T11:57:46.001Z</time></trkpt><trkpt lat="45.932119266754384" lon="7.63204216055912"><ele>2056.0</ele><time>2026-03-27T11:57:47.001Z</time></trkpt><trkpt lat="45.9322136836544" lon="7.632020698692788"><ele>2056.0</ele><time>2026-03-27T11:57:48.001Z</time></trkpt><trkpt lat="45.93229332571607" lon="7.63208283106549"><ele>2056.0</ele><time>2026-03-27T11:57:49.001Z</time></trkpt><trkpt lat="45.932354830798495" lon="7.632182957339249"><ele>2056.0</ele><time>2026-03-27T11:57:50.001Z</time></trkpt><trkpt lat="45.932427482088364" lon="7.63221631355715"><ele>2056.0</ele><time>2026-03-27T11:57:51.001Z</time></trkpt><trkpt lat="45.932519641338814" lon="7.632152425133135"><ele>2053.8</ele><time>2026-03-27T11:57:52.001Z</time></trkpt><trkpt lat="45.93264964271285" lon="7.632092016480469"><ele>2051.6</ele><time>2026-03-27T11:57:53.001Z</time></trkpt><trkpt lat="45.93272791461496" lon="7.632048627902114"><ele>2049.4</ele><time>2026-03-27T11:57:54.001Z</time></trkpt><trkpt lat="45.932757489287795" lon="7.631925235596854"><ele>2047.2</ele><time>2026-03-27T11:57:55.001Z</time></trkpt><trkpt lat="45.93285820975233" lon="7.631836658537564"><ele>2045.0</ele><time>2026-03-27T11:57:57.001Z</time></trkpt><trkpt lat="45.93291569916439" lon="7.631720704444966"><ele>2041.8333333333333</ele><time>2026-03-27T11:57:59.001Z</time></trkpt><trkpt lat="45.93296478433431" lon="7.631799569978114"><ele>2038.6666666666665</ele><time>2026-03-27T11:58:01.001Z</time></trkpt><trkpt lat="45.93305043085456" lon="7.631707092857383"><ele>2035.5</ele><time>2026-03-27T11:58:04.001Z</time></trkpt><trkpt lat="45.93316324827558" lon="7.631694136674817"><ele>2032.3333333333335</ele><time>2026-03-27T11:58:06.001Z</time></trkpt><trkpt lat="45.93322670243131" lon="7.631728301793283"><ele>2029.1666666666667</ele><time>2026-03-27T11:58:46.001Z</time></trkpt><trkpt lat="45.93329480528743" lon="7.631754196234659"><ele>2026.0</ele><time>2026-03-27T11:59:00.001Z</time></trkpt><trkpt lat="45.93339569022685" lon="7.631907035273914"><ele>2025.5714285714287</ele><time>2026-03-27T11:59:21.001Z</time></trkpt><trkpt lat="45.93345080486869" lon="7.631973214990181"><ele>2025.1428571428573</ele><time>2026-03-27T11:59:26.001Z</time></trkpt><trkpt lat="45.933517238514156" lon="7.632036784708725"><ele>2024.7142857142858</ele><time>2026-03-27T11:59:31Z</time></trkpt><trkpt lat="45.9335736503134" lon="7.632097650054323"><ele>2024.2857142857142</ele><time>2026-03-27T11:59:37Z</time></trkpt><trkpt lat="45.9336413226627" lon="7.632143583752274"><ele>2023.857142857143</ele><time>2026-03-27T11:59:43Z</time></trkpt><trkpt lat="45.93369568512902" lon="7.632217943032189"><ele>2023.4285714285716</ele><time>2026-03-27T11:59:49Z</time></trkpt><trkpt lat="45.933753463879604" lon="7.632277270776562"><ele>2023.0</ele><time>2026-03-27T11:59:55Z</time></trkpt><trkpt lat="45.93378804908195" lon="7.632353551969617"><ele>2023.5714285714284</ele><time>2026-03-27T12:00:00Z</time></trkpt><trkpt lat="45.93379656441869" lon="7.632447644251076"><ele>2024.142857142857</ele><time>2026-03-27T12:00:05Z</time></trkpt><trkpt lat="45.93379645187893" lon="7.632545451347374"><ele>2024.7142857142858</ele><time>2026-03-27T12:00:10Z</time></trkpt><trkpt lat="45.933833067805374" lon="7.632632110342735"><ele>2025.2857142857142</ele><time>2026-03-27T12:00:16Z</time></trkpt><trkpt lat="45.933850889991305" lon="7.6327260074810885"><ele>2025.8571428571427</ele><time>2026-03-27T12:00:20Z</time></trkpt><trkpt lat="45.933849584130876" lon="7.632821707884193"><ele>2026.4285714285713</ele><time>2026-03-27T12:00:24Z</time></trkpt><trkpt lat="45.93385280937651" lon="7.632930056202501"><ele>2027.0</ele><time>2026-03-27T12:00:29Z</time></trkpt><trkpt lat="45.93385190365823" lon="7.63303637946905"><ele>2027.0</ele><time>2026-03-27T12:00:35Z</time></trkpt><trkpt lat="45.933851267671294" lon="7.633134433544108"><ele>2026.9999999999998</ele><time>2026-03-27T12:00:40Z</time></trkpt><trkpt lat="45.93385607203277" lon="7.6332259914559275"><ele>2026.9999999999998</ele><time>2026-03-27T12:00:46Z</time></trkpt><trkpt lat="45.933890854647004" lon="7.6333163599010625"><ele>2027.0</ele><time>2026-03-27T12:00:51Z</time></trkpt><trkpt lat="45.93406642796938" lon="7.633378824524345"><ele>2027.0</ele><time>2026-03-27T12:01:05.001Z</time></trkpt><trkpt lat="45.934117423820695" lon="7.633317628988526"><ele>2026.9999999999998</ele><time>2026-03-27T12:01:09Z</time></trkpt><trkpt lat="45.93417637609471" lon="7.633248345989684"><ele>2027.0</ele><time>2026-03-27T12:01:14.023Z</time></trkpt><trkpt lat="45.934257122285636" lon="7.6331767277337095"><ele>2027.0</ele><time>2026-03-27T12:01:19Z</time></trkpt><trkpt lat="45.93418279333338" lon="7.633208496030986"><ele>2027.0</ele><time>2026-03-27T12:01:23Z</time></trkpt><trkpt lat="45.93411452972052" lon="7.6332655417360655"><ele>2026.9999999999998</ele><time>2026-03-27T12:01:24Z</time></trkpt><trkpt lat="45.934189629143596" lon="7.633360112630354"><ele>2027.0</ele><time>2026-03-27T12:01:43Z</time></trkpt><trkpt lat="45.93422726680866" lon="7.633437411745879"><ele>2027.0</ele><time>2026-03-27T12:01:45Z</time></trkpt><trkpt lat="45.934179657854266" lon="7.633015335752159"><ele>2027.0</ele><time>2026-03-27T12:02:43Z</time></trkpt><trkpt lat="45.93427242731426" lon="7.633346455987551"><ele>2026.9999999999998</ele><time>2026-03-27T12:03:02.019Z</time></trkpt><trkpt lat="45.93420772363218" lon="7.633382698840146"><ele>2027.0</ele><time>2026-03-27T12:04:48Z</time></trkpt><trkpt lat="45.93415346258415" lon="7.63343686710456"><ele>2027.0</ele><time>2026-03-27T12:04:52Z</time></trkpt><trkpt lat="45.93407148359037" lon="7.633493126503254"><ele>2027.0</ele><time>2026-03-27T12:04:53Z</time></trkpt><trkpt lat="45.934103188292795" lon="7.633575843622395"><ele>2026.9999999999998</ele><time>2026-03-27T12:05:15.022Z</time></trkpt><trkpt lat="45.93410425115993" lon="7.633726800524098"><ele>2027.0</ele><time>2026-03-27T12:05:17Z</time></trkpt><trkpt lat="45.93415419696057" lon="7.6338716831648625"><ele>2027.5</ele><time>2026-03-27T12:05:20Z</time></trkpt><trkpt lat="45.934203104061694" lon="7.633994216911613"><ele>2028.0</ele><time>2026-03-27T12:05:22Z</time></trkpt><trkpt lat="45.93424672433614" lon="7.634101988826002"><ele>2028.5</ele><time>2026-03-27T12:05:24Z</time></trkpt><trkpt lat="45.93444597718578" lon="7.634300087100228"><ele>2029.0</ele><time>2026-03-27T12:05:25Z</time></trkpt><trkpt lat="45.93447996885749" lon="7.634393110260182"><ele>2028.5000000000002</ele><time>2026-03-27T12:05:27Z</time></trkpt><trkpt lat="45.93451507521578" lon="7.634507244061825"><ele>2028.0</ele><time>2026-03-27T12:05:29Z</time></trkpt><trkpt lat="45.93454140765791" lon="7.634589480657024"><ele>2027.5</ele><time>2026-03-27T12:05:31Z</time></trkpt><trkpt lat="45.93458049832382" lon="7.634701058436366"><ele>2027.0</ele><time>2026-03-27T12:05:33Z</time></trkpt><trkpt lat="45.934617216030055" lon="7.634806061762301"><ele>2026.5000000000002</ele><time>2026-03-27T12:05:35Z</time></trkpt><trkpt lat="45.93464551055974" lon="7.634898176309631"><ele>2026.0</ele><time>2026-03-27T12:05:37Z</time></trkpt><trkpt lat="45.93467873452727" lon="7.634992027450988"><ele>2026.0000000000002</ele><time>2026-03-27T12:05:39Z</time></trkpt><trkpt lat="45.93471273570141" lon="7.6351077531936635"><ele>2026.0</ele><time>2026-03-27T12:05:41Z</time></trkpt><trkpt lat="45.934745055868135" lon="7.635208337210633"><ele>2026.0</ele><time>2026-03-27T12:05:43Z</time></trkpt><trkpt lat="45.934773879965476" lon="7.635297356768159"><ele>2026.0</ele><time>2026-03-27T12:05:45Z</time></trkpt><trkpt lat="45.934808305003735" lon="7.635399264261087"><ele>2026.0000000000002</ele><time>2026-03-27T12:05:47Z</time></trkpt><trkpt lat="45.934843609967025" lon="7.635507707293925"><ele>2026.0</ele><time>2026-03-27T12:05:49Z</time></trkpt><trkpt lat="45.934872961918046" lon="7.635596724618619"><ele>2026.8333333333335</ele><time>2026-03-27T12:05:51Z</time></trkpt><trkpt lat="45.93490541442599" lon="7.63570022648813"><ele>2027.6666666666667</ele><time>2026-03-27T12:05:53Z</time></trkpt><trkpt lat="45.934939696701505" lon="7.635805247557941"><ele>2028.5</ele><time>2026-03-27T12:05:55Z</time></trkpt><trkpt lat="45.93496991926856" lon="7.635902599126117"><ele>2029.3333333333335</ele><time>2026-03-27T12:05:57Z</time></trkpt><trkpt lat="45.93499770116752" lon="7.635987040275748"><ele>2030.1666666666667</ele><time>2026-03-27T12:05:59Z</time></trkpt><trkpt lat="45.935031698801865" lon="7.636097232348587"><ele>2031.0</ele><time>2026-03-27T12:06:01Z</time></trkpt><trkpt lat="45.93506562537771" lon="7.6361983932643085"><ele>2033.0</ele><time>2026-03-27T12:06:03Z</time></trkpt><trkpt lat="45.93509448274939" lon="7.636292685044907"><ele>2035.0</ele><time>2026-03-27T12:06:05Z</time></trkpt><trkpt lat="45.935127885316426" lon="7.636394332662632"><ele>2037.0</ele><time>2026-03-27T12:06:07Z</time></trkpt><trkpt lat="45.93516086587775" lon="7.636497913580924"><ele>2039.0</ele><time>2026-03-27T12:06:09Z</time></trkpt><trkpt lat="45.935190914318866" lon="7.636585601653197"><ele>2041.0</ele><time>2026-03-27T12:06:11Z</time></trkpt><trkpt lat="45.93522244025302" lon="7.6366833243286045"><ele>2043.0</ele><time>2026-03-27T12:06:13Z</time></trkpt><trkpt lat="45.93525670070049" lon="7.636783837777127"><ele>2043.0</ele><time>2026-03-27T12:06:15Z</time></trkpt><trkpt lat="45.935287241040854" lon="7.6368823239066534"><ele>2043.0</ele><time>2026-03-27T12:06:17Z</time></trkpt><trkpt lat="45.935319080009286" lon="7.636975865303706"><ele>2043.0</ele><time>2026-03-27T12:06:19Z</time></trkpt><trkpt lat="45.935351792535826" lon="7.637080970616476"><ele>2043.0</ele><time>2026-03-27T12:06:21Z</time></trkpt><trkpt lat="45.935384563813216" lon="7.637177292018185"><ele>2043.0</ele><time>2026-03-27T12:06:23Z</time></trkpt><trkpt lat="45.93541390889691" lon="7.6372689145669534"><ele>2043.0</ele><time>2026-03-27T12:06:25Z</time></trkpt><trkpt lat="45.93544657247755" lon="7.637371539892746"><ele>2043.1666666666667</ele><time>2026-03-27T12:06:27Z</time></trkpt><trkpt lat="45.93547613265654" lon="7.637472881981446"><ele>2043.3333333333335</ele><time>2026-03-27T12:06:29Z</time></trkpt><trkpt lat="45.93550699125115" lon="7.637565295332337"><ele>2043.5</ele><time>2026-03-27T12:06:31Z</time></trkpt><trkpt lat="45.93554023313629" lon="7.637667431576568"><ele>2043.6666666666667</ele><time>2026-03-27T12:06:33Z</time></trkpt><trkpt lat="45.935572850560256" lon="7.637768930046686"><ele>2043.8333333333335</ele><time>2026-03-27T12:06:35Z</time></trkpt><trkpt lat="45.93559773060042" lon="7.637853020105642"><ele>2044.0</ele><time>2026-03-27T12:06:37Z</time></trkpt><trkpt lat="45.935634552967045" lon="7.637959462897499"><ele>2044.4285714285716</ele><time>2026-03-27T12:06:39Z</time></trkpt><trkpt lat="45.935663848164715" lon="7.638062926046603"><ele>2044.857142857143</ele><time>2026-03-27T12:06:41Z</time></trkpt><trkpt lat="45.935693403729715" lon="7.638153231675528"><ele>2045.2857142857142</ele><time>2026-03-27T12:06:43Z</time></trkpt><trkpt lat="45.93572473177131" lon="7.638253178208954"><ele>2045.7142857142858</ele><time>2026-03-27T12:06:45Z</time></trkpt><trkpt lat="45.93575737912317" lon="7.638357566358942"><ele>2046.1428571428573</ele><time>2026-03-27T12:06:47Z</time></trkpt><trkpt lat="45.93578660413922" lon="7.638447085623746"><ele>2046.5714285714287</ele><time>2026-03-27T12:06:49Z</time></trkpt><trkpt lat="45.93581669969927" lon="7.638543248558111"><ele>2047.0</ele><time>2026-03-27T12:06:51Z</time></trkpt><trkpt lat="45.935850821152165" lon="7.63865054049344"><ele>2048.714285714286</ele><time>2026-03-27T12:06:53Z</time></trkpt><trkpt lat="45.93588202131719" lon="7.638742837633251"><ele>2050.4285714285716</ele><time>2026-03-27T12:06:55Z</time></trkpt><trkpt lat="45.935912220995334" lon="7.638837252130664"><ele>2052.1428571428573</ele><time>2026-03-27T12:06:57Z</time></trkpt><trkpt lat="45.93594630009917" lon="7.638945773572356"><ele>2053.857142857143</ele><time>2026-03-27T12:06:59Z</time></trkpt><trkpt lat="45.93597832593723" lon="7.639045577498518"><ele>2055.5714285714284</ele><time>2026-03-27T12:07:01Z</time></trkpt><trkpt lat="45.93600681016723" lon="7.639134920732081"><ele>2057.2857142857147</ele><time>2026-03-27T12:07:03Z</time></trkpt><trkpt lat="45.93603965533899" lon="7.639236652585492"><ele>2059.0</ele><time>2026-03-27T12:07:05Z</time></trkpt><trkpt lat="45.936073952652336" lon="7.639336156054469"><ele>2059.5</ele><time>2026-03-27T12:07:07Z</time></trkpt><trkpt lat="45.93610062455266" lon="7.639423227546561"><ele>2060.0</ele><time>2026-03-27T12:07:09Z</time></trkpt><trkpt lat="45.936131736861945" lon="7.639524004280044"><ele>2060.5</ele><time>2026-03-27T12:07:11Z</time></trkpt><trkpt lat="45.93616591977451" lon="7.639626981675844"><ele>2061.0</ele><time>2026-03-27T12:07:13Z</time></trkpt><trkpt lat="45.936195719040555" lon="7.639721512087387"><ele>2061.5</ele><time>2026-03-27T12:07:15Z</time></trkpt><trkpt lat="45.936223999011986" lon="7.639816928986046"><ele>2062.0</ele><time>2026-03-27T12:07:17Z</time></trkpt><trkpt lat="45.936260112539564" lon="7.639924988773087"><ele>2062.714285714286</ele><time>2026-03-27T12:07:19Z</time></trkpt><trkpt lat="45.93629637018387" lon="7.6400255016829455"><ele>2063.428571428571</ele><time>2026-03-27T12:07:21Z</time></trkpt><trkpt lat="45.93632441591921" lon="7.640111685244411"><ele>2064.142857142857</ele><time>2026-03-27T12:07:23Z</time></trkpt><trkpt lat="45.93636123685523" lon="7.640217975983432"><ele>2064.8571428571427</ele><time>2026-03-27T12:07:25Z</time></trkpt><trkpt lat="45.93639357045798" lon="7.640318670989354"><ele>2065.5714285714284</ele><time>2026-03-27T12:07:27Z</time></trkpt><trkpt lat="45.936421525049326" lon="7.640403804676636"><ele>2066.285714285714</ele><time>2026-03-27T12:07:29Z</time></trkpt><trkpt lat="45.93645645838966" lon="7.640503106067255"><ele>2067.0</ele><time>2026-03-27T12:07:31Z</time></trkpt><trkpt lat="45.936490814724486" lon="7.6406110380649075"><ele>2068.3333333333335</ele><time>2026-03-27T12:07:33Z</time></trkpt><trkpt lat="45.93652474755053" lon="7.640706872858212"><ele>2069.6666666666665</ele><time>2026-03-27T12:07:35Z</time></trkpt><trkpt lat="45.93655210266425" lon="7.6408031267408445"><ele>2071.0</ele><time>2026-03-27T12:07:37Z</time></trkpt><trkpt lat="45.936587928817616" lon="7.6408946730155485"><ele>2072.333333333333</ele><time>2026-03-27T12:07:39Z</time></trkpt><trkpt lat="45.93661269643283" lon="7.640982183814639"><ele>2073.6666666666665</ele><time>2026-03-27T12:07:41Z</time></trkpt><trkpt lat="45.936633123483126" lon="7.641104083648724"><ele>2075.0</ele><time>2026-03-27T12:07:43Z</time></trkpt><trkpt lat="45.93668774332074" lon="7.641215837247883"><ele>2082.0</ele><time>2026-03-27T12:07:46Z</time></trkpt><trkpt lat="45.93672113004924" lon="7.641339281622204"><ele>2089.0</ele><time>2026-03-27T12:07:49Z</time></trkpt><trkpt lat="45.936746775521655" lon="7.641431339587173"><ele>2096.0</ele><time>2026-03-27T12:07:51Z</time></trkpt><trkpt lat="45.93678646742894" lon="7.6415041471646665"><ele>2103.0</ele><time>2026-03-27T12:07:53Z</time></trkpt><trkpt lat="45.93680044958602" lon="7.641609086596086"><ele>2110.0</ele><time>2026-03-27T12:07:55Z</time></trkpt><trkpt lat="45.93681922888883" lon="7.641698510116357"><ele>2117.0</ele><time>2026-03-27T12:07:57Z</time></trkpt><trkpt lat="45.9368510700168" lon="7.641796225747999"><ele>2124.0</ele><time>2026-03-27T12:07:59Z</time></trkpt><trkpt lat="45.93687909951105" lon="7.64188472743074"><ele>2128.3333333333335</ele><time>2026-03-27T12:08:01Z</time></trkpt><trkpt lat="45.93690777732984" lon="7.642028666235917"><ele>2132.6666666666665</ele><time>2026-03-27T12:08:04Z</time></trkpt><trkpt lat="45.93693183869954" lon="7.642123207741164"><ele>2137.0</ele><time>2026-03-27T12:08:06Z</time></trkpt><trkpt lat="45.93697726843734" lon="7.642230595316959"><ele>2141.333333333333</ele><time>2026-03-27T12:08:09Z</time></trkpt><trkpt lat="45.93702253655917" lon="7.642336046451028"><ele>2145.6666666666665</ele><time>2026-03-27T12:08:11Z</time></trkpt><trkpt lat="45.93705072737715" lon="7.642436093425268"><ele>2150.0</ele><time>2026-03-27T12:08:13Z</time></trkpt><trkpt lat="45.93709926310636" lon="7.64253288439549"><ele>2150.0</ele><time>2026-03-27T12:08:16Z</time></trkpt><trkpt lat="45.93713177332794" lon="7.642629360683777"><ele>2150.0</ele><time>2026-03-27T12:08:18Z</time></trkpt><trkpt lat="45.93716380736316" lon="7.642724462969879"><ele>2150.0</ele><time>2026-03-27T12:08:20Z</time></trkpt><trkpt lat="45.937206088720195" lon="7.642855787380704"><ele>2150.0</ele><time>2026-03-27T12:08:23Z</time></trkpt><trkpt lat="45.9372415943031" lon="7.642959698124648"><ele>2150.0</ele><time>2026-03-27T12:08:25Z</time></trkpt><trkpt lat="45.937272274365476" lon="7.643049429305132"><ele>2150.0</ele><time>2026-03-27T12:08:27Z</time></trkpt><trkpt lat="45.93730227266704" lon="7.643135545782469"><ele>2154.0</ele><time>2026-03-27T12:08:29Z</time></trkpt><trkpt lat="45.93734076504125" lon="7.643227579275178"><ele>2158.0</ele><time>2026-03-27T12:08:31Z</time></trkpt><trkpt lat="45.93737278033658" lon="7.643310544221319"><ele>2162.0</ele><time>2026-03-27T12:08:33Z</time></trkpt><trkpt lat="45.93741354916543" lon="7.643418587596139"><ele>2166.0</ele><time>2026-03-27T12:08:36Z</time></trkpt><trkpt lat="45.93744192983764" lon="7.643513443536666"><ele>2170.0</ele><time>2026-03-27T12:08:38Z</time></trkpt><trkpt lat="45.93747153648" lon="7.6436339088302265"><ele>2174.0</ele><time>2026-03-27T12:08:41Z</time></trkpt><trkpt lat="45.93750699441849" lon="7.643713012224888"><ele>2178.1666666666665</ele><time>2026-03-27T12:08:43Z</time></trkpt><trkpt lat="45.93753434805737" lon="7.643818372400318"><ele>2182.333333333333</ele><time>2026-03-27T12:08:45Z</time></trkpt><trkpt lat="45.937576830339054" lon="7.643920310856724"><ele>2186.5</ele><time>2026-03-27T12:08:48Z</time></trkpt><trkpt lat="45.93762413919431" lon="7.644036288872022"><ele>2190.6666666666665</ele><time>2026-03-27T12:08:51Z</time></trkpt><trkpt lat="45.93766374411466" lon="7.644146281413176"><ele>2194.8333333333335</ele><time>2026-03-27T12:08:54Z</time></trkpt><trkpt lat="45.937694286360475" lon="7.644238190548207"><ele>2199.0</ele><time>2026-03-27T12:08:56Z</time></trkpt><trkpt lat="45.93770786011979" lon="7.644341313437542"><ele>2202.6666666666665</ele><time>2026-03-27T12:08:58Z</time></trkpt><trkpt lat="45.9377619130367" lon="7.6444463942119"><ele>2206.3333333333335</ele><time>2026-03-27T12:09:01Z</time></trkpt><trkpt lat="45.93780411357211" lon="7.6445583811218585"><ele>2210.0</ele><time>2026-03-27T12:09:04Z</time></trkpt><trkpt lat="45.93781775859339" lon="7.644656178249063"><ele>2213.666666666667</ele><time>2026-03-27T12:09:06Z</time></trkpt><trkpt lat="45.937855021192604" lon="7.64477497338333"><ele>2217.3333333333335</ele><time>2026-03-27T12:09:09Z</time></trkpt><trkpt lat="45.93786634635013" lon="7.644864500472725"><ele>2221.0</ele><time>2026-03-27T12:09:11Z</time></trkpt><trkpt lat="45.93791130076683" lon="7.645009152935948"><ele>2225.3333333333335</ele><time>2026-03-27T12:09:14Z</time></trkpt><trkpt lat="45.93794815838698" lon="7.645146773592137"><ele>2229.666666666667</ele><time>2026-03-27T12:09:17Z</time></trkpt><trkpt lat="45.937981836831845" lon="7.645282966454729"><ele>2234.0</ele><time>2026-03-27T12:09:20Z</time></trkpt><trkpt lat="45.93800940537456" lon="7.645400200219481"><ele>2238.3333333333335</ele><time>2026-03-27T12:09:22Z</time></trkpt><trkpt lat="45.938033160480074" lon="7.6455121961999515"><ele>2242.6666666666665</ele><time>2026-03-27T12:09:24Z</time></trkpt><trkpt lat="45.93806691398835" lon="7.645600762800086"><ele>2247.0</ele><time>2026-03-27T12:09:26Z</time></trkpt><trkpt lat="45.93810663544189" lon="7.645683063440298"><ele>2250.3333333333335</ele><time>2026-03-27T12:09:28Z</time></trkpt><trkpt lat="45.93813303864423" lon="7.645791855959398"><ele>2253.6666666666665</ele><time>2026-03-27T12:09:30Z</time></trkpt><trkpt lat="45.938171981072955" lon="7.645881102624788"><ele>2257.0</ele><time>2026-03-27T12:09:32Z</time></trkpt><trkpt lat="45.938201117347155" lon="7.645969324398201"><ele>2260.333333333333</ele><time>2026-03-27T12:09:34Z</time></trkpt><trkpt lat="45.938233480117184" lon="7.646071604337373"><ele>2263.6666666666665</ele><time>2026-03-27T12:09:36Z</time></trkpt><trkpt lat="45.93825777238936" lon="7.64620280644054"><ele>2267.0</ele><time>2026-03-27T12:09:38Z</time></trkpt><trkpt lat="45.93830157428374" lon="7.646274205019675"><ele>2268.285714285714</ele><time>2026-03-27T12:09:40Z</time></trkpt><trkpt lat="45.93833853675116" lon="7.646371762096371"><ele>2269.5714285714284</ele><time>2026-03-27T12:09:42Z</time></trkpt><trkpt lat="45.93836896242685" lon="7.646473821590357"><ele>2270.857142857143</ele><time>2026-03-27T12:09:44Z</time></trkpt><trkpt lat="45.93841074777335" lon="7.6465553910677695"><ele>2272.142857142857</ele><time>2026-03-27T12:09:46Z</time></trkpt><trkpt lat="45.938447356325696" lon="7.646654358790006"><ele>2273.4285714285716</ele><time>2026-03-27T12:09:48Z</time></trkpt><trkpt lat="45.93847319691624" lon="7.646754337146938"><ele>2274.714285714286</ele><time>2026-03-27T12:09:50Z</time></trkpt><trkpt lat="45.938500836293954" lon="7.646837741979413"><ele>2276.0</ele><time>2026-03-27T12:09:52Z</time></trkpt><trkpt lat="45.93853311655704" lon="7.64692294759462"><ele>2281.1428571428573</ele><time>2026-03-27T12:09:54Z</time></trkpt><trkpt lat="45.93858145334515" lon="7.647039903407626"><ele>2286.285714285714</ele><time>2026-03-27T12:09:57Z</time></trkpt><trkpt lat="45.938604275028425" lon="7.647131637611672"><ele>2291.4285714285716</ele><time>2026-03-27T12:09:59Z</time></trkpt><trkpt lat="45.93863298750648" lon="7.647220743562695"><ele>2296.5714285714284</ele><time>2026-03-27T12:10:01Z</time></trkpt><trkpt lat="45.93866352499477" lon="7.64732289399613"><ele>2301.714285714286</ele><time>2026-03-27T12:10:03Z</time></trkpt><trkpt lat="45.93868341004172" lon="7.64741198793626"><ele>2306.857142857143</ele><time>2026-03-27T12:10:05Z</time></trkpt><trkpt lat="45.93871241868163" lon="7.64751266501384"><ele>2312.0</ele><time>2026-03-27T12:10:07Z</time></trkpt><trkpt lat="45.9387337363194" lon="7.6476058711974915"><ele>2312.0</ele><time>2026-03-27T12:10:09Z</time></trkpt><trkpt lat="45.938763077151684" lon="7.647696545635803"><ele>2312.0</ele><time>2026-03-27T12:10:11Z</time></trkpt><trkpt lat="45.93880053997668" lon="7.647817375171407"><ele>2312.0</ele><time>2026-03-27T12:10:14Z</time></trkpt><trkpt lat="45.93883078135834" lon="7.647905450091378"><ele>2312.0</ele><time>2026-03-27T12:10:16Z</time></trkpt><trkpt lat="45.93887237175792" lon="7.648025836181933"><ele>2312.0</ele><time>2026-03-27T12:10:19Z</time></trkpt><trkpt lat="45.93889917684587" lon="7.648113221879335"><ele>2312.0</ele><time>2026-03-27T12:10:21Z</time></trkpt><trkpt lat="45.93892887826877" lon="7.648198948515981"><ele>2318.6666666666665</ele><time>2026-03-27T12:10:23Z</time></trkpt><trkpt lat="45.938971626894116" lon="7.64831248819123"><ele>2325.333333333333</ele><time>2026-03-27T12:10:26Z</time></trkpt><trkpt lat="45.93900401304992" lon="7.6484016671280495"><ele>2332.0</ele><time>2026-03-27T12:10:28Z</time></trkpt><trkpt lat="45.93903029034753" lon="7.648488017122745"><ele>2338.6666666666665</ele><time>2026-03-27T12:10:30Z</time></trkpt><trkpt lat="45.93906350676846" lon="7.648606452731004"><ele>2345.3333333333335</ele><time>2026-03-27T12:10:33Z</time></trkpt><trkpt lat="45.9391024447759" lon="7.648733933908548"><ele>2352.0</ele><time>2026-03-27T12:10:36Z</time></trkpt><trkpt lat="45.93912199960222" lon="7.648830816754046"><ele>2357.0</ele><time>2026-03-27T12:10:38Z</time></trkpt><trkpt lat="45.939141514401435" lon="7.648956021544233"><ele>2362.0</ele><time>2026-03-27T12:10:41Z</time></trkpt><trkpt lat="45.939196519819276" lon="7.649081584447394"><ele>2367.0</ele><time>2026-03-27T12:10:44Z</time></trkpt><trkpt lat="45.93924205835834" lon="7.649187619966262"><ele>2372.0</ele><time>2026-03-27T12:10:47Z</time></trkpt><trkpt lat="45.939276580121714" lon="7.6492881852618275"><ele>2377.0</ele><time>2026-03-27T12:10:49Z</time></trkpt><trkpt lat="45.9392911470265" lon="7.649386811085631"><ele>2382.0</ele><time>2026-03-27T12:10:51Z</time></trkpt><trkpt lat="45.9393099206047" lon="7.649482299771722"><ele>2382.1666666666665</ele><time>2026-03-27T12:10:53Z</time></trkpt><trkpt lat="45.93933987745444" lon="7.649588121980266"><ele>2382.3333333333335</ele><time>2026-03-27T12:10:55Z</time></trkpt><trkpt lat="45.93937274422709" lon="7.649688780743772"><ele>2382.5</ele><time>2026-03-27T12:10:57Z</time></trkpt><trkpt lat="45.939410740876774" lon="7.6497952458218785"><ele>2382.666666666667</ele><time>2026-03-27T12:10:59Z</time></trkpt><trkpt lat="45.939441104073715" lon="7.649890479178184"><ele>2382.8333333333335</ele><time>2026-03-27T12:11:01Z</time></trkpt><trkpt lat="45.9394743116641" lon="7.649982448936111"><ele>2383.0</ele><time>2026-03-27T12:11:03Z</time></trkpt><trkpt lat="45.939505771597624" lon="7.650080345436433"><ele>2383.0</ele><time>2026-03-27T12:11:05Z</time></trkpt><trkpt lat="45.9395383969852" lon="7.650178171554133"><ele>2383.0</ele><time>2026-03-27T12:11:07Z</time></trkpt><trkpt lat="45.939572885161894" lon="7.650277645986594"><ele>2383.0</ele><time>2026-03-27T12:11:09Z</time></trkpt><trkpt lat="45.93960525246185" lon="7.6503804703149125"><ele>2383.0</ele><time>2026-03-27T12:11:11Z</time></trkpt><trkpt lat="45.93963511970503" lon="7.650488309559329"><ele>2383.0</ele><time>2026-03-27T12:11:13Z</time></trkpt><trkpt lat="45.93966942662119" lon="7.6505866427970375"><ele>2383.0</ele><time>2026-03-27T12:11:15Z</time></trkpt><trkpt lat="45.93969955345975" lon="7.650674302802836"><ele>2385.4285714285716</ele><time>2026-03-27T12:11:17Z</time></trkpt><trkpt lat="45.9397273403048" lon="7.6507680843800205"><ele>2387.857142857143</ele><time>2026-03-27T12:11:19Z</time></trkpt><trkpt lat="45.93976161526078" lon="7.65086630719749"><ele>2390.285714285714</ele><time>2026-03-27T12:11:21Z</time></trkpt><trkpt lat="45.93979289686612" lon="7.650969882372194"><ele>2392.714285714286</ele><time>2026-03-27T12:11:23Z</time></trkpt><trkpt lat="45.939819571316335" lon="7.651052194732774"><ele>2395.142857142857</ele><time>2026-03-27T12:11:25Z</time></trkpt><trkpt lat="45.93985128217975" lon="7.651142970927023"><ele>2397.5714285714284</ele><time>2026-03-27T12:11:27Z</time></trkpt><trkpt lat="45.93988086615975" lon="7.651254319960812"><ele>2400.0</ele><time>2026-03-27T12:11:29Z</time></trkpt><trkpt lat="45.93991639789858" lon="7.651366474644765"><ele>2402.3333333333335</ele><time>2026-03-27T12:11:31Z</time></trkpt><trkpt lat="45.939952708082146" lon="7.651468245115038"><ele>2404.6666666666665</ele><time>2026-03-27T12:11:33Z</time></trkpt><trkpt lat="45.939975626910844" lon="7.651594150387212"><ele>2407.0</ele><time>2026-03-27T12:11:35Z</time></trkpt><trkpt lat="45.94001225927517" lon="7.6516886654772325"><ele>2409.333333333333</ele><time>2026-03-27T12:11:37Z</time></trkpt><trkpt lat="45.940050134884956" lon="7.651781079486813"><ele>2411.6666666666665</ele><time>2026-03-27T12:11:39Z</time></trkpt><trkpt lat="45.94008382077082" lon="7.651889056190863"><ele>2414.0</ele><time>2026-03-27T12:11:41Z</time></trkpt><trkpt lat="45.94012497247267" lon="7.651978891012464"><ele>2420.285714285714</ele><time>2026-03-27T12:11:43Z</time></trkpt><trkpt lat="45.940164034932764" lon="7.652073489297351"><ele>2426.5714285714284</ele><time>2026-03-27T12:11:45Z</time></trkpt><trkpt lat="45.94019948699673" lon="7.652172562727843"><ele>2432.857142857143</ele><time>2026-03-27T12:11:47Z</time></trkpt><trkpt lat="45.94022110981718" lon="7.6522711716217975"><ele>2439.142857142857</ele><time>2026-03-27T12:11:49Z</time></trkpt><trkpt lat="45.94025562941867" lon="7.652378425358898"><ele>2445.4285714285716</ele><time>2026-03-27T12:11:52Z</time></trkpt><trkpt lat="45.94028861308947" lon="7.652461431922595"><ele>2451.714285714286</ele><time>2026-03-27T12:11:54Z</time></trkpt><trkpt lat="45.94031378683932" lon="7.652550461827276"><ele>2458.0</ele><time>2026-03-27T12:11:56Z</time></trkpt><trkpt lat="45.94033900643144" lon="7.652644572486953"><ele>2458.0</ele><time>2026-03-27T12:11:58Z</time></trkpt><trkpt lat="45.9403675976903" lon="7.652737197359625"><ele>2458.0</ele><time>2026-03-27T12:12:00Z</time></trkpt><trkpt lat="45.94039226459272" lon="7.652847626679414"><ele>2458.0</ele><time>2026-03-27T12:12:03Z</time></trkpt><trkpt lat="45.94044075588111" lon="7.652964424546923"><ele>2458.0</ele><time>2026-03-27T12:12:06Z</time></trkpt><trkpt lat="45.940474520818185" lon="7.653078954804112"><ele>2458.0</ele><time>2026-03-27T12:12:09Z</time></trkpt><trkpt lat="45.940515996139474" lon="7.653198564726976"><ele>2458.0</ele><time>2026-03-27T12:12:12Z</time></trkpt><trkpt lat="45.940533986525146" lon="7.653296444700563"><ele>2464.666666666667</ele><time>2026-03-27T12:12:14Z</time></trkpt><trkpt lat="45.940567136549426" lon="7.653404614267469"><ele>2471.3333333333335</ele><time>2026-03-27T12:12:17Z</time></trkpt><trkpt lat="45.94058537620198" lon="7.653520680655543"><ele>2478.0</ele><time>2026-03-27T12:12:20Z</time></trkpt><trkpt lat="45.94061690663797" lon="7.653607829221868"><ele>2484.6666666666665</ele><time>2026-03-27T12:12:23Z</time></trkpt><trkpt lat="45.94065103715467" lon="7.653714875851195"><ele>2491.333333333333</ele><time>2026-03-27T12:12:26Z</time></trkpt><trkpt lat="45.94068695952792" lon="7.653805628221385"><ele>2498.0</ele><time>2026-03-27T12:12:29Z</time></trkpt><trkpt lat="45.94072380616184" lon="7.653902149994568"><ele>2505.6</ele><time>2026-03-27T12:12:31Z</time></trkpt><trkpt lat="45.94076296713332" lon="7.654102002121469"><ele>2513.2000000000003</ele><time>2026-03-27T12:12:34Z</time></trkpt><trkpt lat="45.94076584007989" lon="7.654205240437254"><ele>2520.8</ele><time>2026-03-27T12:12:36Z</time></trkpt><trkpt lat="45.9408235632697" lon="7.654295842293928"><ele>2528.4</ele><time>2026-03-27T12:12:38Z</time></trkpt><trkpt lat="45.940868477439004" lon="7.654396980285719"><ele>2536.0</ele><time>2026-03-27T12:12:40Z</time></trkpt><trkpt lat="45.94090574235597" lon="7.654493115038586"><ele>2537.5</ele><time>2026-03-27T12:12:43Z</time></trkpt><trkpt lat="45.94094548225957" lon="7.654576901937492"><ele>2539.0</ele><time>2026-03-27T12:12:46Z</time></trkpt><trkpt lat="45.94090939763525" lon="7.6545004576368125"><ele>2540.5</ele><time>2026-03-27T12:12:50Z</time></trkpt><trkpt lat="45.9409018486811" lon="7.654612908598686"><ele>2542.0</ele><time>2026-03-27T12:13:11Z</time></trkpt><trkpt lat="45.94089821554417" lon="7.654715369897737"><ele>2543.5</ele><time>2026-03-27T12:13:14Z</time></trkpt><trkpt lat="45.94091189583686" lon="7.654803886465915"><ele>2545.0</ele><time>2026-03-27T12:13:17Z</time></trkpt><trkpt lat="45.94098120000798" lon="7.654663771398044"><ele>2545.0</ele><time>2026-03-27T12:13:19Z</time></trkpt><trkpt lat="45.94101006571563" lon="7.654916653016751"><ele>2545.0</ele><time>2026-03-27T12:13:29.017Z</time></trkpt><trkpt lat="45.94100123503714" lon="7.65503368187223"><ele>2545.0</ele><time>2026-03-27T12:13:32.018Z</time></trkpt><trkpt lat="45.941054295021424" lon="7.655088130776032"><ele>2545.0</ele><time>2026-03-27T12:13:34.026Z</time></trkpt><trkpt lat="45.941264084777394" lon="7.655148952670994"><ele>2545.0</ele><time>2026-03-27T12:13:37Z</time></trkpt><trkpt lat="45.941266043878734" lon="7.65503068138167"><ele>2545.0</ele><time>2026-03-27T12:13:38Z</time></trkpt><trkpt lat="45.94119682968195" lon="7.654976070030807"><ele>2545.0</ele><time>2026-03-27T12:13:40Z</time></trkpt><trkpt lat="45.941182012472" lon="7.655074509118445"><ele>2545.0</ele><time>2026-03-27T12:13:57Z</time></trkpt><trkpt lat="45.94125658717862" lon="7.655069348468231"><ele>2545.0</ele><time>2026-03-27T12:14:03Z</time></trkpt><trkpt lat="45.941306969476024" lon="7.655131115565849"><ele>2545.0</ele><time>2026-03-27T12:14:16Z</time></trkpt><trkpt lat="45.94136419400372" lon="7.655210768539224"><ele>2545.0</ele><time>2026-03-27T12:14:39Z</time></trkpt><trkpt lat="45.94140813226566" lon="7.655278906637683"><ele>2545.0</ele><time>2026-03-27T12:15:22Z</time></trkpt><trkpt lat="45.94144077149341" lon="7.655370800129353"><ele>2545.0</ele><time>2026-03-27T12:15:27Z</time></trkpt><trkpt lat="45.94146503717862" lon="7.655460994564314"><ele>2545.0</ele><time>2026-03-27T12:15:32Z</time></trkpt><trkpt lat="45.94149318198421" lon="7.655543633666077"><ele>2545.0</ele><time>2026-03-27T12:15:38Z</time></trkpt><trkpt lat="45.94153301055431" lon="7.65562406537038"><ele>2545.0</ele><time>2026-03-27T12:15:45Z</time></trkpt><trkpt lat="45.94156926759028" lon="7.655710561146442"><ele>2545.0</ele><time>2026-03-27T12:15:55Z</time></trkpt><trkpt lat="45.9416024454879" lon="7.655805655545317"><ele>2545.166666666667</ele><time>2026-03-27T12:16:01Z</time></trkpt><trkpt lat="45.94156888583024" lon="7.655720737813535"><ele>2545.3333333333335</ele><time>2026-03-27T12:18:21Z</time></trkpt><trkpt lat="45.94157001143062" lon="7.655622291450197"><ele>2545.5</ele><time>2026-03-27T12:18:31Z</time></trkpt><trkpt lat="45.94161168139419" lon="7.655535502296157"><ele>2545.6666666666665</ele><time>2026-03-27T12:18:34Z</time></trkpt><trkpt lat="45.94167968646223" lon="7.655449158612456"><ele>2545.833333333333</ele><time>2026-03-27T12:18:37Z</time></trkpt><trkpt lat="45.94174259957575" lon="7.655379449470199"><ele>2546.0</ele><time>2026-03-27T12:18:39Z</time></trkpt><trkpt lat="45.94182064012834" lon="7.65532964844717"><ele>2544.0</ele><time>2026-03-27T12:18:41Z</time></trkpt><trkpt lat="45.94188965162672" lon="7.655296988094322"><ele>2542.0</ele><time>2026-03-27T12:18:43Z</time></trkpt><trkpt lat="45.94196751661284" lon="7.655250016459523"><ele>2540.0</ele><time>2026-03-27T12:18:45Z</time></trkpt><trkpt lat="45.942060818115586" lon="7.655250801716853"><ele>2538.0</ele><time>2026-03-27T12:18:47Z</time></trkpt><trkpt lat="45.94212993870761" lon="7.65529253431505"><ele>2536.0</ele><time>2026-03-27T12:18:49Z</time></trkpt><trkpt lat="45.94222965139551" lon="7.655278556886009"><ele>2534.0</ele><time>2026-03-27T12:18:51Z</time></trkpt><trkpt lat="45.94233931301892" lon="7.65523239111473"><ele>2534.0</ele><time>2026-03-27T12:18:53Z</time></trkpt><trkpt lat="45.94246821030009" lon="7.655245554033131"><ele>2534.0</ele><time>2026-03-27T12:18:55Z</time></trkpt><trkpt lat="45.94254752133801" lon="7.655269291404798"><ele>2534.0</ele><time>2026-03-27T12:18:56Z</time></trkpt><trkpt lat="45.942641322658346" lon="7.655260729777745"><ele>2534.0</ele><time>2026-03-27T12:18:57Z</time></trkpt><trkpt lat="45.94274732214136" lon="7.655262106605953"><ele>2534.0</ele><time>2026-03-27T12:18:58Z</time></trkpt><trkpt lat="45.94287053996537" lon="7.655290113904695"><ele>2532.6666666666665</ele><time>2026-03-27T12:18:59Z</time></trkpt><trkpt lat="45.94297585145816" lon="7.655323682978565"><ele>2531.333333333333</ele><time>2026-03-27T12:19:00Z</time></trkpt><trkpt lat="45.94306387579287" lon="7.655360479241849"><ele>2530.0</ele><time>2026-03-27T12:19:01Z</time></trkpt><trkpt lat="45.94314739597897" lon="7.655389911182001"><ele>2528.6666666666665</ele><time>2026-03-27T12:19:02Z</time></trkpt><trkpt lat="45.94322728257054" lon="7.655416197378581"><ele>2527.3333333333335</ele><time>2026-03-27T12:19:03Z</time></trkpt><trkpt lat="45.943309042043346" lon="7.655417289664818"><ele>2526.0</ele><time>2026-03-27T12:19:04Z</time></trkpt><trkpt lat="45.94337133651182" lon="7.65539136395726"><ele>2524.8</ele><time>2026-03-27T12:19:05Z</time></trkpt><trkpt lat="45.943477019046924" lon="7.655376323800347"><ele>2523.6</ele><time>2026-03-27T12:19:07Z</time></trkpt><trkpt lat="45.94357124920703" lon="7.655299139047833"><ele>2522.4</ele><time>2026-03-27T12:19:09Z</time></trkpt><trkpt lat="45.94366104550532" lon="7.655205815740561"><ele>2521.2</ele><time>2026-03-27T12:19:11Z</time></trkpt><trkpt lat="45.94371298493653" lon="7.655154406044072"><ele>2520.0</ele><time>2026-03-27T12:19:12Z</time></trkpt><trkpt lat="45.94376404316618" lon="7.655089274467454"><ele>2520.0</ele><time>2026-03-27T12:19:13Z</time></trkpt><trkpt lat="45.943815655050784" lon="7.655024115219172"><ele>2520.0</ele><time>2026-03-27T12:19:14Z</time></trkpt><trkpt lat="45.94386722088725" lon="7.654956310914304"><ele>2520.0</ele><time>2026-03-27T12:19:15Z</time></trkpt><trkpt lat="45.94391928208246" lon="7.654880931114724"><ele>2520.0</ele><time>2026-03-27T12:19:16Z</time></trkpt><trkpt lat="45.94397275380283" lon="7.6548074322522535"><ele>2520.0</ele><time>2026-03-27T12:19:17Z</time></trkpt><trkpt lat="45.94402870011152" lon="7.654716488911134"><ele>2520.0</ele><time>2026-03-27T12:19:18Z</time></trkpt><trkpt lat="45.94408589077893" lon="7.6546268352676075"><ele>2520.0</ele><time>2026-03-27T12:19:19Z</time></trkpt><trkpt lat="45.944143602900034" lon="7.654527916203012"><ele>2520.0</ele><time>2026-03-27T12:19:20Z</time></trkpt><trkpt lat="45.944196322198295" lon="7.6544140831404"><ele>2520.0</ele><time>2026-03-27T12:19:21Z</time></trkpt><trkpt lat="45.94425653897564" lon="7.654296078776004"><ele>2520.0</ele><time>2026-03-27T12:19:22Z</time></trkpt><trkpt lat="45.9443240630711" lon="7.65416648518321"><ele>2520.0</ele><time>2026-03-27T12:19:23Z</time></trkpt><trkpt lat="45.944398649206065" lon="7.65402572153059"><ele>2517.5</ele><time>2026-03-27T12:19:24Z</time></trkpt><trkpt lat="45.94447117935766" lon="7.6538794441634534"><ele>2515.0</ele><time>2026-03-27T12:19:25Z</time></trkpt><trkpt lat="45.94453731199399" lon="7.653733002825715"><ele>2512.5</ele><time>2026-03-27T12:19:26Z</time></trkpt><trkpt lat="45.9445949426114" lon="7.6535824559740355"><ele>2510.0</ele><time>2026-03-27T12:19:27Z</time></trkpt><trkpt lat="45.94465572427505" lon="7.6534287790779185"><ele>2506.5</ele><time>2026-03-27T12:19:28Z</time></trkpt><trkpt lat="45.944730129421146" lon="7.653262217167934"><ele>2503.0</ele><time>2026-03-27T12:19:29Z</time></trkpt><trkpt lat="45.94481116822492" lon="7.653086937372335"><ele>2499.5</ele><time>2026-03-27T12:19:30Z</time></trkpt><trkpt lat="45.94490085396565" lon="7.6529192439614375"><ele>2496.0</ele><time>2026-03-27T12:19:31Z</time></trkpt><trkpt lat="45.94497677145718" lon="7.65274366991754"><ele>2495.0</ele><time>2026-03-27T12:19:32Z</time></trkpt><trkpt lat="45.94503651990994" lon="7.652559657998519"><ele>2494.0</ele><time>2026-03-27T12:19:33Z</time></trkpt><trkpt lat="45.945081130355724" lon="7.65237981603767"><ele>2493.0</ele><time>2026-03-27T12:19:34Z</time></trkpt><trkpt lat="45.94510552599177" lon="7.652191499217585"><ele>2492.0</ele><time>2026-03-27T12:19:35Z</time></trkpt><trkpt lat="45.94511960843455" lon="7.652032215220079"><ele>2490.25</ele><time>2026-03-27T12:19:36Z</time></trkpt><trkpt lat="45.94512706576198" lon="7.6518611280673845"><ele>2488.5</ele><time>2026-03-27T12:19:37Z</time></trkpt><trkpt lat="45.9451339805764" lon="7.651696949950625"><ele>2486.75</ele><time>2026-03-27T12:19:38Z</time></trkpt><trkpt lat="45.94514087562984" lon="7.651529108460607"><ele>2485.0</ele><time>2026-03-27T12:19:39Z</time></trkpt><trkpt lat="45.945144987967794" lon="7.651360198942233"><ele>2485.0</ele><time>2026-03-27T12:19:40Z</time></trkpt><trkpt lat="45.94515193194289" lon="7.651188549372372"><ele>2485.0</ele><time>2026-03-27T12:19:41Z</time></trkpt><trkpt lat="45.94516414971301" lon="7.651027903016729"><ele>2485.0</ele><time>2026-03-27T12:19:42Z</time></trkpt><trkpt lat="45.94517295370612" lon="7.650873088730175"><ele>2485.0</ele><time>2026-03-27T12:19:43Z</time></trkpt><trkpt lat="45.94518027325176" lon="7.6507167085512835"><ele>2485.0</ele><time>2026-03-27T12:19:44Z</time></trkpt><trkpt lat="45.945189207460174" lon="7.6505607213847675"><ele>2484.0</ele><time>2026-03-27T12:19:45Z</time></trkpt><trkpt lat="45.94520033224308" lon="7.650410691827989"><ele>2483.0</ele><time>2026-03-27T12:19:46Z</time></trkpt><trkpt lat="45.94519581661167" lon="7.650267667789124"><ele>2482.0</ele><time>2026-03-27T12:19:47Z</time></trkpt><trkpt lat="45.94518694456509" lon="7.650130562845961"><ele>2481.0</ele><time>2026-03-27T12:19:48Z</time></trkpt><trkpt lat="45.94518256344147" lon="7.650001166172896"><ele>2480.0</ele><time>2026-03-27T12:19:49Z</time></trkpt><trkpt lat="45.94517976619189" lon="7.6498696116125275"><ele>2479.0</ele><time>2026-03-27T12:19:50Z</time></trkpt><trkpt lat="45.945176981270514" lon="7.649741486627258"><ele>2478.0</ele><time>2026-03-27T12:19:51Z</time></trkpt><trkpt lat="45.945166794143695" lon="7.649613772584245"><ele>2477.0</ele><time>2026-03-27T12:19:52Z</time></trkpt><trkpt lat="45.94515383981577" lon="7.649504128355165"><ele>2476.0</ele><time>2026-03-27T12:19:53Z</time></trkpt><trkpt lat="45.945145427179405" lon="7.649400573354754"><ele>2475.0</ele><time>2026-03-27T12:19:54Z</time></trkpt><trkpt lat="45.945139618296025" lon="7.649306891597917"><ele>2474.0</ele><time>2026-03-27T12:19:55Z</time></trkpt><trkpt lat="45.94512394165403" lon="7.6491366609176"><ele>2472.8</ele><time>2026-03-27T12:19:57Z</time></trkpt><trkpt lat="45.94507932511749" lon="7.6489910666455785"><ele>2471.6000000000004</ele><time>2026-03-27T12:19:59Z</time></trkpt><trkpt lat="45.945035418379334" lon="7.648888830390591"><ele>2470.4</ele><time>2026-03-27T12:20:01Z</time></trkpt><trkpt lat="45.94499820854846" lon="7.6488000209596425"><ele>2469.2000000000003</ele><time>2026-03-27T12:20:03Z</time></trkpt><trkpt lat="45.94498019728046" lon="7.648675904340637"><ele>2468.0</ele><time>2026-03-27T12:20:05Z</time></trkpt><trkpt lat="45.945004940037755" lon="7.648530856599998"><ele>2467.0</ele><time>2026-03-27T12:20:07Z</time></trkpt><trkpt lat="45.94498532506496" lon="7.648441763261505"><ele>2466.0</ele><time>2026-03-27T12:20:08Z</time></trkpt><trkpt lat="45.94517139147821" lon="7.648383140145381"><ele>2465.0</ele><time>2026-03-27T12:20:10Z</time></trkpt><trkpt lat="45.94520929308351" lon="7.648265933162153"><ele>2464.0</ele><time>2026-03-27T12:20:12Z</time></trkpt><trkpt lat="45.94520765104517" lon="7.64836746335193"><ele>2463.0</ele><time>2026-03-27T12:20:13Z</time></trkpt><trkpt lat="45.945092677028256" lon="7.647995419378546"><ele>2462.4</ele><time>2026-03-27T12:20:18Z</time></trkpt><trkpt lat="45.94513854880076" lon="7.647865819902389"><ele>2461.8</ele><time>2026-03-27T12:20:20Z</time></trkpt><trkpt lat="45.94515817727477" lon="7.647724223166504"><ele>2461.2</ele><time>2026-03-27T12:20:22Z</time></trkpt><trkpt lat="45.94518714495627" lon="7.647596682558302"><ele>2460.6</ele><time>2026-03-27T12:20:24Z</time></trkpt><trkpt lat="45.94513255907312" lon="7.6475012294717395"><ele>2460.0</ele><time>2026-03-27T12:20:25Z</time></trkpt><trkpt lat="45.94506858071456" lon="7.647402051009886"><ele>2457.0</ele><time>2026-03-27T12:20:26Z</time></trkpt><trkpt lat="45.94504212847417" lon="7.647259708959391"><ele>2454.0</ele><time>2026-03-27T12:20:27Z</time></trkpt><trkpt lat="45.945020186792995" lon="7.647115148864368"><ele>2451.0</ele><time>2026-03-27T12:20:28Z</time></trkpt><trkpt lat="45.94497392618995" lon="7.6469792609778775"><ele>2448.0</ele><time>2026-03-27T12:20:29Z</time></trkpt><trkpt lat="45.944978377006784" lon="7.6468077724335854"><ele>2445.0</ele><time>2026-03-27T12:20:30Z</time></trkpt><trkpt lat="45.94495602808203" lon="7.646644045803995"><ele>2441.6666666666665</ele><time>2026-03-27T12:20:31Z</time></trkpt><trkpt lat="45.94488663369354" lon="7.646552362474279"><ele>2438.3333333333335</ele><time>2026-03-27T12:20:32Z</time></trkpt><trkpt lat="45.94486112048325" lon="7.646425900895389"><ele>2435.0</ele><time>2026-03-27T12:20:33Z</time></trkpt><trkpt lat="45.94481676103789" lon="7.646336439857026"><ele>2431.666666666667</ele><time>2026-03-27T12:20:34Z</time></trkpt><trkpt lat="45.94478801366722" lon="7.646229440956768"><ele>2428.3333333333335</ele><time>2026-03-27T12:20:35Z</time></trkpt><trkpt lat="45.94480170783493" lon="7.646120842005878"><ele>2425.0</ele><time>2026-03-27T12:20:36Z</time></trkpt><trkpt lat="45.94476603675723" lon="7.646037531826649"><ele>2421.5</ele><time>2026-03-27T12:20:37Z</time></trkpt><trkpt lat="45.94477863201747" lon="7.6459452551636105"><ele>2418.0</ele><time>2026-03-27T12:20:38Z</time></trkpt><trkpt lat="45.94479952312628" lon="7.645828548337271"><ele>2414.5</ele><time>2026-03-27T12:20:39Z</time></trkpt><trkpt lat="45.94484702229765" lon="7.6457115667371705"><ele>2411.0</ele><time>2026-03-27T12:20:40Z</time></trkpt><trkpt lat="45.94485079281726" lon="7.645580927568312"><ele>2407.5</ele><time>2026-03-27T12:20:41Z</time></trkpt><trkpt lat="45.9448483216451" lon="7.645426720568239"><ele>2404.0</ele><time>2026-03-27T12:20:42Z</time></trkpt><trkpt lat="45.94493574910913" lon="7.645313904481553"><ele>2399.0</ele><time>2026-03-27T12:20:43Z</time></trkpt><trkpt lat="45.94500826815357" lon="7.645187944572083"><ele>2394.0</ele><time>2026-03-27T12:20:44Z</time></trkpt><trkpt lat="45.94500346190091" lon="7.64502744151846"><ele>2389.0</ele><time>2026-03-27T12:20:45Z</time></trkpt><trkpt lat="45.94506375921977" lon="7.644892549799708"><ele>2384.0</ele><time>2026-03-27T12:20:46Z</time></trkpt><trkpt lat="45.94517678140462" lon="7.644859509716499"><ele>2381.4</ele><time>2026-03-27T12:20:47Z</time></trkpt><trkpt lat="45.94522384530612" lon="7.644732274889629"><ele>2378.8</ele><time>2026-03-27T12:20:48Z</time></trkpt><trkpt lat="45.945247920104606" lon="7.644576118542976"><ele>2376.2</ele><time>2026-03-27T12:20:49Z</time></trkpt><trkpt lat="45.94533603309464" lon="7.644490028998692"><ele>2373.6</ele><time>2026-03-27T12:20:50Z</time></trkpt><trkpt lat="45.94542304151648" lon="7.6444232305154065"><ele>2371.0</ele><time>2026-03-27T12:20:51Z</time></trkpt><trkpt lat="45.9454396462487" lon="7.644266210400713"><ele>2367.4</ele><time>2026-03-27T12:20:52Z</time></trkpt><trkpt lat="45.9454747673952" lon="7.644122040546733"><ele>2363.8</ele><time>2026-03-27T12:20:53Z</time></trkpt><trkpt lat="45.94557285019885" lon="7.644057419953319"><ele>2360.2000000000003</ele><time>2026-03-27T12:20:54Z</time></trkpt><trkpt lat="45.94562561960836" lon="7.643951947840698"><ele>2356.6</ele><time>2026-03-27T12:20:55Z</time></trkpt><trkpt lat="45.94563297354039" lon="7.6437860915059215"><ele>2353.0</ele><time>2026-03-27T12:20:56Z</time></trkpt><trkpt lat="45.94563803230082" lon="7.643641775675363"><ele>2349.25</ele><time>2026-03-27T12:20:57Z</time></trkpt><trkpt lat="45.94567147962885" lon="7.6434749911058875"><ele>2345.5</ele><time>2026-03-27T12:20:58Z</time></trkpt><trkpt lat="45.94572060499025" lon="7.643297781540359"><ele>2341.75</ele><time>2026-03-27T12:20:59Z</time></trkpt><trkpt lat="45.94569766010652" lon="7.643145980284456"><ele>2338.0</ele><time>2026-03-27T12:21:00Z</time></trkpt><trkpt lat="45.94560717661938" lon="7.643036890393329"><ele>2338.0</ele><time>2026-03-27T12:21:01Z</time></trkpt><trkpt lat="45.94559315193798" lon="7.642903109611127"><ele>2338.0</ele><time>2026-03-27T12:21:02Z</time></trkpt><trkpt lat="45.94557159256881" lon="7.642791315665847"><ele>2338.0</ele><time>2026-03-27T12:21:03Z</time></trkpt><trkpt lat="45.94549050984556" lon="7.642728704065142"><ele>2338.0</ele><time>2026-03-27T12:21:04Z</time></trkpt><trkpt lat="45.94540860273497" lon="7.642680143916481"><ele>2338.0</ele><time>2026-03-27T12:21:05Z</time></trkpt><trkpt lat="45.94537875364624" lon="7.642591945351229"><ele>2338.0</ele><time>2026-03-27T12:21:06Z</time></trkpt><trkpt lat="45.945365768540476" lon="7.6424717395790225"><ele>2334.6</ele><time>2026-03-27T12:21:07Z</time></trkpt><trkpt lat="45.94534790065699" lon="7.642332856628287"><ele>2331.2000000000003</ele><time>2026-03-27T12:21:08Z</time></trkpt><trkpt lat="45.945319053333925" lon="7.642211609454701"><ele>2327.8</ele><time>2026-03-27T12:21:09Z</time></trkpt><trkpt lat="45.945255105242595" lon="7.642090920602338"><ele>2324.4</ele><time>2026-03-27T12:21:10Z</time></trkpt><trkpt lat="45.94520225268905" lon="7.64197085848755"><ele>2321.0</ele><time>2026-03-27T12:21:11Z</time></trkpt><trkpt lat="45.94518441389972" lon="7.641832778607836"><ele>2320.2</ele><time>2026-03-27T12:21:12Z</time></trkpt><trkpt lat="45.945122850444285" lon="7.64175668658056"><ele>2319.3999999999996</ele><time>2026-03-27T12:21:13Z</time></trkpt><trkpt lat="45.9450214093477" lon="7.641671560634935"><ele>2318.6</ele><time>2026-03-27T12:21:14Z</time></trkpt><trkpt lat="45.94493402795973" lon="7.641608165999009"><ele>2317.7999999999997</ele><time>2026-03-27T12:21:15Z</time></trkpt><trkpt lat="45.944873154039264" lon="7.6415176716509094"><ele>2317.0</ele><time>2026-03-27T12:21:16Z</time></trkpt><trkpt lat="45.944847629768766" lon="7.64138387454236"><ele>2317.0</ele><time>2026-03-27T12:21:17Z</time></trkpt><trkpt lat="45.94482746572265" lon="7.641245762356187"><ele>2317.0</ele><time>2026-03-27T12:21:18Z</time></trkpt><trkpt lat="45.944753568676134" lon="7.641139295114692"><ele>2317.0</ele><time>2026-03-27T12:21:19Z</time></trkpt><trkpt lat="45.94471318679715" lon="7.641022653323346"><ele>2317.0</ele><time>2026-03-27T12:21:20Z</time></trkpt><trkpt lat="45.94469447969835" lon="7.640899374341219"><ele>2317.0</ele><time>2026-03-27T12:21:21Z</time></trkpt><trkpt lat="45.94464254236526" lon="7.640756988556167"><ele>2313.0</ele><time>2026-03-27T12:21:22Z</time></trkpt><trkpt lat="45.94454724543685" lon="7.6406522415369444"><ele>2309.0</ele><time>2026-03-27T12:21:23Z</time></trkpt><trkpt lat="45.944500407288416" lon="7.6405111889753865"><ele>2305.0</ele><time>2026-03-27T12:21:24Z</time></trkpt><trkpt lat="45.9444492147876" lon="7.640370152414534"><ele>2301.0</ele><time>2026-03-27T12:21:25Z</time></trkpt><trkpt lat="45.94435230020094" lon="7.6403114551649685"><ele>2297.0</ele><time>2026-03-27T12:21:26Z</time></trkpt><trkpt lat="45.944304042355135" lon="7.640201099832769"><ele>2294.6666666666665</ele><time>2026-03-27T12:21:27Z</time></trkpt><trkpt lat="45.94428937220144" lon="7.6400924058562865"><ele>2292.333333333333</ele><time>2026-03-27T12:21:28Z</time></trkpt><trkpt lat="45.94424071393893" lon="7.640027074981773"><ele>2290.0</ele><time>2026-03-27T12:21:29Z</time></trkpt><trkpt lat="45.944176281249234" lon="7.640052467933681"><ele>2287.6666666666665</ele><time>2026-03-27T12:21:30Z</time></trkpt><trkpt lat="45.944087662252706" lon="7.6400833915218245"><ele>2285.3333333333335</ele><time>2026-03-27T12:21:31Z</time></trkpt><trkpt lat="45.944012243196134" lon="7.640041505938546"><ele>2283.0</ele><time>2026-03-27T12:21:32Z</time></trkpt><trkpt lat="45.94394337208309" lon="7.63996532534656"><ele>2283.0</ele><time>2026-03-27T12:21:34Z</time></trkpt><trkpt lat="45.94388087812635" lon="7.640020894307892"><ele>2283.0</ele><time>2026-03-27T12:21:36Z</time></trkpt><trkpt lat="45.94381409490271" lon="7.640097566259832"><ele>2283.0</ele><time>2026-03-27T12:21:47Z</time></trkpt><trkpt lat="45.943726971985235" lon="7.640049007274191"><ele>2283.0</ele><time>2026-03-27T12:21:50Z</time></trkpt><trkpt lat="45.94361411113422" lon="7.639992627607366"><ele>2283.0</ele><time>2026-03-27T12:21:52Z</time></trkpt><trkpt lat="45.943547667222106" lon="7.6399473848508475"><ele>2283.0</ele><time>2026-03-27T12:21:53Z</time></trkpt><trkpt lat="45.94347593777347" lon="7.63995642911668"><ele>2283.0</ele><time>2026-03-27T12:21:54Z</time></trkpt><trkpt lat="45.94339760278892" lon="7.639945477065551"><ele>2283.0</ele><time>2026-03-27T12:21:55Z</time></trkpt><trkpt lat="45.943324452540196" lon="7.639891047045431"><ele>2283.0</ele><time>2026-03-27T12:21:56Z</time></trkpt><trkpt lat="45.9432544864732" lon="7.639890339018494"><ele>2283.0</ele><time>2026-03-27T12:21:57Z</time></trkpt><trkpt lat="45.94317757652849" lon="7.639877879832213"><ele>2283.0</ele><time>2026-03-27T12:21:58Z</time></trkpt><trkpt lat="45.94311804358763" lon="7.639812709598145"><ele>2283.0</ele><time>2026-03-27T12:21:59Z</time></trkpt><trkpt lat="45.9430215331864" lon="7.639797005988355"><ele>2280.8</ele><time>2026-03-27T12:22:00Z</time></trkpt><trkpt lat="45.942935565673075" lon="7.63974043372339"><ele>2278.6000000000004</ele><time>2026-03-27T12:22:01Z</time></trkpt><trkpt lat="45.94286413333899" lon="7.639666812535685"><ele>2276.3999999999996</ele><time>2026-03-27T12:22:02Z</time></trkpt><trkpt lat="45.942776976574166" lon="7.639638454705274"><ele>2274.2</ele><time>2026-03-27T12:22:03Z</time></trkpt><trkpt lat="45.942703056324135" lon="7.639564589562678"><ele>2272.0</ele><time>2026-03-27T12:22:04Z</time></trkpt><trkpt lat="45.942608653443095" lon="7.639567850192942"><ele>2270.4</ele><time>2026-03-27T12:22:05Z</time></trkpt><trkpt lat="45.9425263728465" lon="7.639492947146432"><ele>2268.7999999999997</ele><time>2026-03-27T12:22:06Z</time></trkpt><trkpt lat="45.94243422830452" lon="7.639434638348362"><ele>2267.2</ele><time>2026-03-27T12:22:07Z</time></trkpt><trkpt lat="45.94233205395882" lon="7.639445570054352"><ele>2265.6</ele><time>2026-03-27T12:22:08Z</time></trkpt><trkpt lat="45.94223667556455" lon="7.639397573690634"><ele>2264.0</ele><time>2026-03-27T12:22:09Z</time></trkpt><trkpt lat="45.942152301175" lon="7.639412120529745"><ele>2264.0</ele><time>2026-03-27T12:22:10Z</time></trkpt><trkpt lat="45.94206161266585" lon="7.6394798486460225"><ele>2264.0</ele><time>2026-03-27T12:22:11Z</time></trkpt><trkpt lat="45.941965975303795" lon="7.639475994919713"><ele>2264.0</ele><time>2026-03-27T12:22:12Z</time></trkpt><trkpt lat="45.94186488343381" lon="7.639399566513459"><ele>2264.0</ele><time>2026-03-27T12:22:13Z</time></trkpt><trkpt lat="45.94175747344245" lon="7.639356702099197"><ele>2264.0</ele><time>2026-03-27T12:22:14Z</time></trkpt><trkpt lat="45.94164042136869" lon="7.639317812740684"><ele>2255.5</ele><time>2026-03-27T12:22:15Z</time></trkpt><trkpt lat="45.94154867663578" lon="7.639182538549863"><ele>2247.0</ele><time>2026-03-27T12:22:16Z</time></trkpt><trkpt lat="45.94148507005672" lon="7.639011043094274"><ele>2238.5</ele><time>2026-03-27T12:22:17Z</time></trkpt><trkpt lat="45.94141612816174" lon="7.6388408420908664"><ele>2230.0</ele><time>2026-03-27T12:22:18Z</time></trkpt><trkpt lat="45.94133887908868" lon="7.638665180648059"><ele>2225.25</ele><time>2026-03-27T12:22:19Z</time></trkpt><trkpt lat="45.941238326025115" lon="7.638524155587358"><ele>2220.5</ele><time>2026-03-27T12:22:20Z</time></trkpt><trkpt lat="45.94114213831679" lon="7.638376279656906"><ele>2215.75</ele><time>2026-03-27T12:22:21Z</time></trkpt><trkpt lat="45.94102193051707" lon="7.638297419579942"><ele>2211.0</ele><time>2026-03-27T12:22:22Z</time></trkpt><trkpt lat="45.94090948647029" lon="7.638263232484554"><ele>2210.6</ele><time>2026-03-27T12:22:23Z</time></trkpt><trkpt lat="45.940832125599364" lon="7.6381583113376985"><ele>2210.2</ele><time>2026-03-27T12:22:24Z</time></trkpt><trkpt lat="45.94073614412462" lon="7.638132043579507"><ele>2209.8</ele><time>2026-03-27T12:22:25Z</time></trkpt><trkpt lat="45.94064699852483" lon="7.6381932486546535"><ele>2209.4</ele><time>2026-03-27T12:22:26Z</time></trkpt><trkpt lat="45.94058092201991" lon="7.6382118796067955"><ele>2209.0</ele><time>2026-03-27T12:22:27Z</time></trkpt><trkpt lat="45.94046369540571" lon="7.6381433551823195"><ele>2209.0</ele><time>2026-03-27T12:22:29Z</time></trkpt><trkpt lat="45.94040107782185" lon="7.638048852123914"><ele>2209.0</ele><time>2026-03-27T12:22:48Z</time></trkpt><trkpt lat="45.940409900753885" lon="7.637957256203607"><ele>2209.0</ele><time>2026-03-27T12:22:58Z</time></trkpt><trkpt lat="45.940391887093384" lon="7.63785899688767"><ele>2209.0</ele><time>2026-03-27T12:23:05Z</time></trkpt><trkpt lat="45.94040264988319" lon="7.63769901433421"><ele>2209.0</ele><time>2026-03-27T12:23:08Z</time></trkpt><trkpt lat="45.94031469537355" lon="7.637544434116094"><ele>2205.6</ele><time>2026-03-27T12:23:10Z</time></trkpt><trkpt lat="45.940294455401414" lon="7.637447224227143"><ele>2202.2</ele><time>2026-03-27T12:23:11Z</time></trkpt><trkpt lat="45.94026377368586" lon="7.63730657260926"><ele>2198.7999999999997</ele><time>2026-03-27T12:23:12Z</time></trkpt><trkpt lat="45.94017436464245" lon="7.637254064407532"><ele>2195.4</ele><time>2026-03-27T12:23:13Z</time></trkpt><trkpt lat="45.940064417939055" lon="7.637233570624448"><ele>2192.0</ele><time>2026-03-27T12:23:14Z</time></trkpt><trkpt lat="45.94001072756044" lon="7.637102178402094"><ele>2190.0</ele><time>2026-03-27T12:23:15Z</time></trkpt><trkpt lat="45.93994655935977" lon="7.636971189020425"><ele>2188.0</ele><time>2026-03-27T12:23:16Z</time></trkpt><trkpt lat="45.93983053132362" lon="7.6369543688486115"><ele>2186.0</ele><time>2026-03-27T12:23:17Z</time></trkpt><trkpt lat="45.939721318970165" lon="7.636918658660699"><ele>2184.0</ele><time>2026-03-27T12:23:18Z</time></trkpt><trkpt lat="45.93963952826581" lon="7.636773579547906"><ele>2177.5</ele><time>2026-03-27T12:23:19Z</time></trkpt><trkpt lat="45.9395158209236" lon="7.636737719214228"><ele>2171.0</ele><time>2026-03-27T12:23:20Z</time></trkpt><trkpt lat="45.939391775943406" lon="7.636743424687121"><ele>2164.5</ele><time>2026-03-27T12:23:21Z</time></trkpt><trkpt lat="45.93933185997703" lon="7.636589751204144"><ele>2158.0</ele><time>2026-03-27T12:23:22Z</time></trkpt><trkpt lat="45.939307837122165" lon="7.636446274596215"><ele>2158.0</ele><time>2026-03-27T12:23:23Z</time></trkpt><trkpt lat="45.93922265750154" lon="7.636425757231491"><ele>2158.0</ele><time>2026-03-27T12:23:24Z</time></trkpt><trkpt lat="45.939196469721026" lon="7.6361737957503415"><ele>2158.0</ele><time>2026-03-27T12:23:25Z</time></trkpt><trkpt lat="45.93911095865656" lon="7.636081402650308"><ele>2158.0</ele><time>2026-03-27T12:23:27Z</time></trkpt><trkpt lat="45.938983599392564" lon="7.63607313510822"><ele>2151.2000000000003</ele><time>2026-03-27T12:23:28Z</time></trkpt><trkpt lat="45.9388873478293" lon="7.636032338613714"><ele>2144.4</ele><time>2026-03-27T12:23:29Z</time></trkpt><trkpt lat="45.93887685627786" lon="7.635889536490583"><ele>2137.6000000000004</ele><time>2026-03-27T12:23:30Z</time></trkpt><trkpt lat="45.938909250390644" lon="7.6357429502985195"><ele>2130.8</ele><time>2026-03-27T12:23:31Z</time></trkpt><trkpt lat="45.938856338784824" lon="7.635634539185649"><ele>2124.0</ele><time>2026-03-27T12:23:32Z</time></trkpt><trkpt lat="45.93877805013861" lon="7.635529965020643"><ele>2124.0</ele><time>2026-03-27T12:23:33Z</time></trkpt><trkpt lat="45.938791184991636" lon="7.635378472224274"><ele>2124.0</ele><time>2026-03-27T12:23:34Z</time></trkpt><trkpt lat="45.938828086070636" lon="7.635238551062296"><ele>2124.0</ele><time>2026-03-27T12:23:35Z</time></trkpt><trkpt lat="45.938781326937026" lon="7.635088245145697"><ele>2124.0</ele><time>2026-03-27T12:23:36Z</time></trkpt><trkpt lat="45.93878009788534" lon="7.634947671032985"><ele>2124.0</ele><time>2026-03-27T12:23:37Z</time></trkpt><trkpt lat="45.93884047199005" lon="7.6348442184696"><ele>2119.0</ele><time>2026-03-27T12:23:38Z</time></trkpt><trkpt lat="45.93882536315899" lon="7.634656732047557"><ele>2114.0</ele><time>2026-03-27T12:23:40Z</time></trkpt><trkpt lat="45.938782812154564" lon="7.634479848037932"><ele>2109.0</ele><time>2026-03-27T12:23:42Z</time></trkpt><trkpt lat="45.93877480296343" lon="7.634289083435942"><ele>2104.0</ele><time>2026-03-27T12:23:44Z</time></trkpt><trkpt lat="45.93872623026504" lon="7.634177386037933"><ele>2100.6</ele><time>2026-03-27T12:23:45Z</time></trkpt><trkpt lat="45.93874665409707" lon="7.634035756975605"><ele>2097.2</ele><time>2026-03-27T12:23:46Z</time></trkpt><trkpt lat="45.93873902490379" lon="7.633892506030656"><ele>2093.7999999999997</ele><time>2026-03-27T12:23:47Z</time></trkpt><trkpt lat="45.938655307261165" lon="7.633776035614067"><ele>2090.4</ele><time>2026-03-27T12:23:48Z</time></trkpt><trkpt lat="45.93861460081451" lon="7.633646826745962"><ele>2087.0</ele><time>2026-03-27T12:23:49Z</time></trkpt><trkpt lat="45.93860350098085" lon="7.633491836718951"><ele>2082.75</ele><time>2026-03-27T12:23:50Z</time></trkpt><trkpt lat="45.93851699611781" lon="7.63338672203116"><ele>2078.5</ele><time>2026-03-27T12:23:51Z</time></trkpt><trkpt lat="45.93844284121481" lon="7.633251425469624"><ele>2074.25</ele><time>2026-03-27T12:23:52Z</time></trkpt><trkpt lat="45.93844136463476" lon="7.633067394626325"><ele>2070.0</ele><time>2026-03-27T12:23:53Z</time></trkpt><trkpt lat="45.93842555446718" lon="7.632904509662823"><ele>2063.0</ele><time>2026-03-27T12:23:54Z</time></trkpt><trkpt lat="45.938333388784116" lon="7.6327912426308195"><ele>2056.0</ele><time>2026-03-27T12:23:55Z</time></trkpt><trkpt lat="45.93830690644063" lon="7.632627395454125"><ele>2049.0</ele><time>2026-03-27T12:23:56Z</time></trkpt><trkpt lat="45.93829192913624" lon="7.6324666371326035"><ele>2042.0</ele><time>2026-03-27T12:23:57Z</time></trkpt><trkpt lat="45.9382024781605" lon="7.632363839921063"><ele>2042.0</ele><time>2026-03-27T12:23:58Z</time></trkpt><trkpt lat="45.93814872210532" lon="7.632243023114426"><ele>2041.9999999999998</ele><time>2026-03-27T12:23:59Z</time></trkpt><trkpt lat="45.93809102870544" lon="7.632120673952083"><ele>2041.9999999999998</ele><time>2026-03-27T12:24:00Z</time></trkpt><trkpt lat="45.93799858169184" lon="7.63204306003408"><ele>2042.0</ele><time>2026-03-27T12:24:01Z</time></trkpt><trkpt lat="45.93796840129186" lon="7.63194026465076"><ele>2042.0</ele><time>2026-03-27T12:24:02Z</time></trkpt><trkpt lat="45.937961728485526" lon="7.631821329081283"><ele>2040.0</ele><time>2026-03-27T12:24:03Z</time></trkpt><trkpt lat="45.93789249041982" lon="7.631747643413432"><ele>2037.9999999999998</ele><time>2026-03-27T12:24:04Z</time></trkpt><trkpt lat="45.937855958983064" lon="7.631636809904829"><ele>2035.9999999999998</ele><time>2026-03-27T12:24:05Z</time></trkpt><trkpt lat="45.937816664407585" lon="7.631523314403269"><ele>2034.0</ele><time>2026-03-27T12:24:06Z</time></trkpt><trkpt lat="45.93772446682837" lon="7.63148426272684"><ele>2032.0</ele><time>2026-03-27T12:24:07Z</time></trkpt><trkpt lat="45.93762852047371" lon="7.631447402544291"><ele>2032.0000000000002</ele><time>2026-03-27T12:24:08Z</time></trkpt><trkpt lat="45.93758683532367" lon="7.631340105248309"><ele>2032.0</ele><time>2026-03-27T12:24:09Z</time></trkpt><trkpt lat="45.9375296573554" lon="7.631259343067393"><ele>2032.0</ele><time>2026-03-27T12:24:11Z</time></trkpt><trkpt lat="45.93745983234457" lon="7.631286310619479"><ele>2032.0</ele><time>2026-03-27T12:24:12Z</time></trkpt><trkpt lat="45.937395097841055" lon="7.631202348016586"><ele>2032.0000000000002</ele><time>2026-03-27T12:24:14Z</time></trkpt><trkpt lat="45.93734361962837" lon="7.631138390402833"><ele>2032.0</ele><time>2026-03-27T12:24:17Z</time></trkpt><trkpt lat="45.93726863758801" lon="7.6311025605051"><ele>2028.3999999999999</ele><time>2026-03-27T12:24:21Z</time></trkpt><trkpt lat="45.937178700609934" lon="7.631067330589319"><ele>2024.7999999999997</ele><time>2026-03-27T12:24:24Z</time></trkpt><trkpt lat="45.93709484599986" lon="7.631044907047532"><ele>2021.2</ele><time>2026-03-27T12:24:26Z</time></trkpt><trkpt lat="45.93700219291667" lon="7.631044794631775"><ele>2017.6</ele><time>2026-03-27T12:24:28Z</time></trkpt><trkpt lat="45.93692130804061" lon="7.631051800882219"><ele>2014.0</ele><time>2026-03-27T12:24:30Z</time></trkpt><trkpt lat="45.93682674225938" lon="7.6309931687168735"><ele>2014.0</ele><time>2026-03-27T12:24:32Z</time></trkpt><trkpt lat="45.936734841772214" lon="7.630944447510614"><ele>2014.0</ele><time>2026-03-27T12:24:34Z</time></trkpt><trkpt lat="45.93662586481109" lon="7.630923257279953"><ele>2014.0</ele><time>2026-03-27T12:24:36Z</time></trkpt><trkpt lat="45.93653148709356" lon="7.630923193709753"><ele>2014.0</ele><time>2026-03-27T12:24:38Z</time></trkpt><trkpt lat="45.93642945322267" lon="7.630932433275437"><ele>2014.0</ele><time>2026-03-27T12:24:40Z</time></trkpt><trkpt lat="45.93633913072306" lon="7.63093366448884"><ele>2013.0</ele><time>2026-03-27T12:24:42Z</time></trkpt><trkpt lat="45.93622767832366" lon="7.630919365011656"><ele>2012.0</ele><time>2026-03-27T12:24:44Z</time></trkpt><trkpt lat="45.93613008817479" lon="7.630914841621095"><ele>2011.0</ele><time>2026-03-27T12:24:46Z</time></trkpt><trkpt lat="45.936047628509215" lon="7.630936661635873"><ele>2010.0</ele><time>2026-03-27T12:24:48Z</time></trkpt><trkpt lat="45.93594822446219" lon="7.630944157253129"><ele>2009.0</ele><time>2026-03-27T12:24:50Z</time></trkpt><trkpt lat="45.93585215994592" lon="7.630942601448566"><ele>2008.4999999999998</ele><time>2026-03-27T12:24:52Z</time></trkpt><trkpt lat="45.935770027375824" lon="7.630936695267801"><ele>2008.0</ele><time>2026-03-27T12:24:54Z</time></trkpt><trkpt lat="45.93569524882298" lon="7.630901086940944"><ele>2007.5</ele><time>2026-03-27T12:24:56Z</time></trkpt><trkpt lat="45.93562771337784" lon="7.630806373614111"><ele>2007.0</ele><time>2026-03-27T12:24:59Z</time></trkpt><trkpt lat="45.93559893462887" lon="7.630705436638934"><ele>2006.4999999999998</ele><time>2026-03-27T12:25:02Z</time></trkpt><trkpt lat="45.93555807510029" lon="7.630631175056837"><ele>2006.0</ele><time>2026-03-27T12:25:06Z</time></trkpt><trkpt lat="45.93554792546801" lon="7.630539829977155"><ele>2005.9999999999998</ele><time>2026-03-27T12:25:22Z</time></trkpt><trkpt lat="45.93556125832251" lon="7.630441270699946"><ele>2006.0</ele><time>2026-03-27T12:25:28Z</time></trkpt><trkpt lat="45.93561247431528" lon="7.630360392644039"><ele>2006.0</ele><time>2026-03-27T12:25:35Z</time></trkpt><trkpt lat="45.935555780081806" lon="7.6303039531072745"><ele>2006.0</ele><time>2026-03-27T12:25:41Z</time></trkpt><trkpt lat="45.93548621774243" lon="7.6304129485002745"><ele>2005.9999999999998</ele><time>2026-03-27T12:25:51Z</time></trkpt><trkpt lat="45.93555110320503" lon="7.6304456451335465"><ele>2006.0</ele><time>2026-03-27T12:27:36Z</time></trkpt><trkpt lat="45.93560789676068" lon="7.630488274434522"><ele>2006.0</ele><time>2026-03-27T12:27:41Z</time></trkpt><trkpt lat="45.93566149404418" lon="7.630547377122608"><ele>2005.9999999999998</ele><time>2026-03-27T12:27:45Z</time></trkpt><trkpt lat="45.93568447999459" lon="7.630634624917074"><ele>2006.0</ele><time>2026-03-27T12:27:50Z</time></trkpt><trkpt lat="45.93574214040325" lon="7.630692035846724"><ele>2006.0</ele><time>2026-03-27T12:27:55Z</time></trkpt><trkpt lat="45.93579621844889" lon="7.630757675814175"><ele>2005.9999999999998</ele><time>2026-03-27T12:28:00Z</time></trkpt><trkpt lat="45.93586037538299" lon="7.630758671325747"><ele>2006.0</ele><time>2026-03-27T12:28:04Z</time></trkpt><trkpt lat="45.93593627095575" lon="7.630769417966669"><ele>2006.0</ele><time>2026-03-27T12:28:09Z</time></trkpt><trkpt lat="45.93601529782385" lon="7.630764908009877"><ele>2006.4285714285713</ele><time>2026-03-27T12:28:14Z</time></trkpt><trkpt lat="45.93608477216187" lon="7.630763481097295"><ele>2006.8571428571427</ele><time>2026-03-27T12:28:19Z</time></trkpt><trkpt lat="45.936163266184685" lon="7.630746196327259"><ele>2007.2857142857142</ele><time>2026-03-27T12:28:25Z</time></trkpt><trkpt lat="45.93622865889866" lon="7.630748977867393"><ele>2007.7142857142858</ele><time>2026-03-27T12:28:30Z</time></trkpt><trkpt lat="45.9362893360667" lon="7.6307210471386355"><ele>2008.142857142857</ele><time>2026-03-27T12:28:34Z</time></trkpt><trkpt lat="45.936361696540395" lon="7.630738315078363"><ele>2008.5714285714284</ele><time>2026-03-27T12:28:39Z</time></trkpt><trkpt lat="45.93643221590025" lon="7.630730980420014"><ele>2009.0</ele><time>2026-03-27T12:28:45Z</time></trkpt><trkpt lat="45.93648907148427" lon="7.630688545199525"><ele>2009.0</ele><time>2026-03-27T12:28:49Z</time></trkpt><trkpt lat="45.936560934461596" lon="7.630681402735484"><ele>2009.0</ele><time>2026-03-27T12:28:53Z</time></trkpt><trkpt lat="45.93662974384469" lon="7.630682686303677"><ele>2009.0</ele><time>2026-03-27T12:28:58Z</time></trkpt><trkpt lat="45.93670709899746" lon="7.630670907341433"><ele>2009.0</ele><time>2026-03-27T12:29:04Z</time></trkpt><trkpt lat="45.93677427701163" lon="7.630675089404943"><ele>2009.0</ele><time>2026-03-27T12:29:09Z</time></trkpt><trkpt lat="45.936853364816166" lon="7.6306729051258495"><ele>2009.0</ele><time>2026-03-27T12:29:14Z</time></trkpt><trkpt lat="45.936915346317946" lon="7.630654388424588"><ele>2009.0</ele><time>2026-03-27T12:29:18Z</time></trkpt><trkpt lat="45.936997490041485" lon="7.630658597950426"><ele>2009.7142857142858</ele><time>2026-03-27T12:29:23Z</time></trkpt><trkpt lat="45.93699577546703" lon="7.630772400012825"><ele>2010.4285714285716</ele><time>2026-03-27T12:29:26Z</time></trkpt><trkpt lat="45.93701448525143" lon="7.630895255978619"><ele>2011.142857142857</ele><time>2026-03-27T12:29:32Z</time></trkpt><trkpt lat="45.93703952415547" lon="7.63098525454581"><ele>2011.857142857143</ele><time>2026-03-27T12:29:37Z</time></trkpt><trkpt lat="45.93710453653639" lon="7.631043226781328"><ele>2012.5714285714287</ele><time>2026-03-27T12:29:42Z</time></trkpt><trkpt lat="45.93716461178136" lon="7.631092047406044"><ele>2013.2857142857142</ele><time>2026-03-27T12:30:00Z</time></trkpt><trkpt lat="45.93722694756557" lon="7.631133886791978"><ele>2014.0</ele><time>2026-03-27T12:30:05Z</time></trkpt><trkpt lat="45.93719591714184" lon="7.631219082147385"><ele>2014.8571428571427</ele><time>2026-03-27T12:31:47Z</time></trkpt><trkpt lat="45.93715476883361" lon="7.631290517263991"><ele>2015.7142857142858</ele><time>2026-03-27T12:32:24Z</time></trkpt><trkpt lat="45.93709896009795" lon="7.63134162698388"><ele>2016.5714285714284</ele><time>2026-03-27T12:32:44Z</time></trkpt><trkpt lat="45.93713371013275" lon="7.631445130510475"><ele>2017.4285714285713</ele><time>2026-03-27T12:32:52Z</time></trkpt><trkpt lat="45.93718426785866" lon="7.631508184936221"><ele>2018.2857142857142</ele><time>2026-03-27T12:32:54Z</time></trkpt><trkpt lat="45.937238489782715" lon="7.631597177133711"><ele>2019.142857142857</ele><time>2026-03-27T12:32:56Z</time></trkpt><trkpt lat="45.93727769326311" lon="7.631697882988308"><ele>2020.0</ele><time>2026-03-27T12:32:58Z</time></trkpt><trkpt lat="45.93731345759542" lon="7.631782488700506"><ele>2020.0</ele><time>2026-03-27T12:33:00Z</time></trkpt><trkpt lat="45.93734816777788" lon="7.631858099370118"><ele>2019.9999999999998</ele><time>2026-03-27T12:33:02Z</time></trkpt><trkpt lat="45.937387052955884" lon="7.631939540505399"><ele>2020.0</ele><time>2026-03-27T12:33:04Z</time></trkpt><trkpt lat="45.93742571829123" lon="7.632023364943072"><ele>2020.0</ele><time>2026-03-27T12:33:06Z</time></trkpt><trkpt lat="45.93746251233737" lon="7.6320980192286285"><ele>2019.9999999999998</ele><time>2026-03-27T12:33:08Z</time></trkpt><trkpt lat="45.93750696070454" lon="7.632205366949594"><ele>2020.0</ele><time>2026-03-27T12:33:11Z</time></trkpt><trkpt lat="45.93755681616379" lon="7.632291577197515"><ele>2020.0</ele><time>2026-03-27T12:33:13Z</time></trkpt><trkpt lat="45.93760342109796" lon="7.632391332130995"><ele>2023.6666666666667</ele><time>2026-03-27T12:33:15Z</time></trkpt><trkpt lat="45.937644095821774" lon="7.632474428199037"><ele>2027.3333333333335</ele><time>2026-03-27T12:33:17Z</time></trkpt><trkpt lat="45.93766409035158" lon="7.632579191153199"><ele>2031.0</ele><time>2026-03-27T12:33:19Z</time></trkpt><trkpt lat="45.93771688718303" lon="7.632635799808153"><ele>2034.6666666666665</ele><time>2026-03-27T12:33:21Z</time></trkpt><trkpt lat="45.937753120696534" lon="7.632733341871372"><ele>2038.3333333333333</ele><time>2026-03-27T12:33:23Z</time></trkpt><trkpt lat="45.937776226090996" lon="7.632818488545737"><ele>2042.0</ele><time>2026-03-27T12:33:25Z</time></trkpt><trkpt lat="45.93787758655888" lon="7.632908963286343"><ele>2044.9999999999998</ele><time>2026-03-27T12:33:28Z</time></trkpt><trkpt lat="45.937913973554664" lon="7.6330113635697305"><ele>2048.0</ele><time>2026-03-27T12:33:30Z</time></trkpt><trkpt lat="45.937951918415564" lon="7.633097776702098"><ele>2051.0</ele><time>2026-03-27T12:33:32Z</time></trkpt><trkpt lat="45.93801373079915" lon="7.633203813894741"><ele>2054.0</ele><time>2026-03-27T12:33:35Z</time></trkpt><trkpt lat="45.93806844223094" lon="7.633278987108952"><ele>2057.0</ele><time>2026-03-27T12:33:37Z</time></trkpt><trkpt lat="45.9381042074812" lon="7.633380739136962"><ele>2060.0</ele><time>2026-03-27T12:33:39Z</time></trkpt><trkpt lat="45.93814772519207" lon="7.633467275117402"><ele>2060.0</ele><time>2026-03-27T12:33:41Z</time></trkpt><trkpt lat="45.938187219732335" lon="7.633559188686885"><ele>2060.0</ele><time>2026-03-27T12:33:43Z</time></trkpt><trkpt lat="45.938231112639436" lon="7.633649375926671"><ele>2060.0</ele><time>2026-03-27T12:33:45Z</time></trkpt><trkpt lat="45.938270606077424" lon="7.633745223951024"><ele>2060.0</ele><time>2026-03-27T12:33:47Z</time></trkpt><trkpt lat="45.938314378645366" lon="7.633832667366596"><ele>2060.0</ele><time>2026-03-27T12:33:49Z</time></trkpt><trkpt lat="45.938459156491334" lon="7.634120849446585"><ele>2063.857142857143</ele><time>2026-03-27T12:33:56Z</time></trkpt><trkpt lat="45.938504441762184" lon="7.634199624602573"><ele>2067.714285714286</ele><time>2026-03-27T12:33:58Z</time></trkpt><trkpt lat="45.93854446576573" lon="7.63428231945621"><ele>2071.5714285714284</ele><time>2026-03-27T12:34:00Z</time></trkpt><trkpt lat="45.938589960013886" lon="7.634362956779362"><ele>2075.4285714285716</ele><time>2026-03-27T12:34:02Z</time></trkpt><trkpt lat="45.93863103330266" lon="7.634445382503026"><ele>2079.285714285714</ele><time>2026-03-27T12:34:04Z</time></trkpt><trkpt lat="45.938674911291834" lon="7.634526812881223"><ele>2083.1428571428573</ele><time>2026-03-27T12:34:06Z</time></trkpt><trkpt lat="45.93871885897481" lon="7.634622118009145"><ele>2087.0</ele><time>2026-03-27T12:34:08Z</time></trkpt><trkpt lat="45.93879447802528" lon="7.63478465383444"><ele>2089.833333333333</ele><time>2026-03-27T12:34:12Z</time></trkpt><trkpt lat="45.938852985710305" lon="7.634914196732349"><ele>2092.6666666666665</ele><time>2026-03-27T12:34:14Z</time></trkpt><trkpt lat="45.93890466173261" lon="7.635005496736566"><ele>2095.5</ele><time>2026-03-27T12:34:17Z</time></trkpt><trkpt lat="45.938946247030785" lon="7.635089791619313"><ele>2098.3333333333335</ele><time>2026-03-27T12:34:19Z</time></trkpt><trkpt lat="45.93898897685011" lon="7.635186746692507"><ele>2101.166666666667</ele><time>2026-03-27T12:35:22Z</time></trkpt><trkpt lat="45.93900323216882" lon="7.635287975119364"><ele>2104.0</ele><time>2026-03-27T12:35:26Z</time></trkpt><trkpt lat="45.93906095889638" lon="7.6353321070890425"><ele>2107.3333333333335</ele><time>2026-03-27T12:35:28Z</time></trkpt><trkpt lat="45.93910154984651" lon="7.6354037041192875"><ele>2110.666666666667</ele><time>2026-03-27T12:35:31Z</time></trkpt><trkpt lat="45.93914277537809" lon="7.6354824118501"><ele>2114.0</ele><time>2026-03-27T12:35:34Z</time></trkpt><trkpt lat="45.93919074004925" lon="7.635584473864429"><ele>2117.3333333333335</ele><time>2026-03-27T12:35:37.999Z</time></trkpt><trkpt lat="45.939280564083184" lon="7.6355797476770135"><ele>2120.6666666666665</ele><time>2026-03-27T12:35:40.999Z</time></trkpt><trkpt lat="45.939279508861645" lon="7.6356774531588085"><ele>2124.0</ele><time>2026-03-27T12:35:42.999Z</time></trkpt><trkpt lat="45.93932316407624" lon="7.635794191300937"><ele>2124.3333333333335</ele><time>2026-03-27T12:35:46.999Z</time></trkpt><trkpt lat="45.93936988518286" lon="7.63590180675296"><ele>2124.6666666666665</ele><time>2026-03-27T12:35:49.999Z</time></trkpt><trkpt lat="45.939420698851684" lon="7.636009066457116"><ele>2125.0</ele><time>2026-03-27T12:35:52.999Z</time></trkpt><trkpt lat="45.93946017572622" lon="7.636082666155871"><ele>2125.333333333333</ele><time>2026-03-27T12:35:54.999Z</time></trkpt><trkpt lat="45.93949529095039" lon="7.636186766783739"><ele>2125.6666666666665</ele><time>2026-03-27T12:35:56.999Z</time></trkpt><trkpt lat="45.93952622035434" lon="7.636271003193365"><ele>2126.0</ele><time>2026-03-27T12:35:58.999Z</time></trkpt><trkpt lat="45.939570815677044" lon="7.6363479900049"><ele>2130.5714285714284</ele><time>2026-03-27T12:36:00.999Z</time></trkpt><trkpt lat="45.93960935298057" lon="7.6364286675574045"><ele>2135.1428571428573</ele><time>2026-03-27T12:36:02.999Z</time></trkpt><trkpt lat="45.939650822201735" lon="7.6365068340563615"><ele>2139.714285714286</ele><time>2026-03-27T12:36:04.999Z</time></trkpt><trkpt lat="45.9396970693066" lon="7.636587686058369"><ele>2144.285714285714</ele><time>2026-03-27T12:36:06.999Z</time></trkpt><trkpt lat="45.93973687894203" lon="7.636673132912427"><ele>2148.8571428571427</ele><time>2026-03-27T12:36:08.999Z</time></trkpt><trkpt lat="45.93977858955894" lon="7.63675146029939"><ele>2153.4285714285716</ele><time>2026-03-27T12:36:10.999Z</time></trkpt><trkpt lat="45.93982003288666" lon="7.636831376344849"><ele>2158.0</ele><time>2026-03-27T12:36:12.999Z</time></trkpt><trkpt lat="45.93986355291056" lon="7.636919136283858"><ele>2161.714285714286</ele><time>2026-03-27T12:36:14.999Z</time></trkpt><trkpt lat="45.93990433825358" lon="7.63700046696391"><ele>2165.4285714285716</ele><time>2026-03-27T12:36:16.999Z</time></trkpt><trkpt lat="45.93994534969118" lon="7.637085600305393"><ele>2169.142857142857</ele><time>2026-03-27T12:36:18.999Z</time></trkpt><trkpt lat="45.93998580750288" lon="7.637161327116313"><ele>2172.857142857143</ele><time>2026-03-27T12:36:20.999Z</time></trkpt><trkpt lat="45.94001915591378" lon="7.637243020807236"><ele>2176.5714285714284</ele><time>2026-03-27T12:36:22.999Z</time></trkpt><trkpt lat="45.94006656200749" lon="7.637335513398187"><ele>2180.285714285714</ele><time>2026-03-27T12:36:24.999Z</time></trkpt><trkpt lat="45.9401059900789" lon="7.63741999969008"><ele>2184.0</ele><time>2026-03-27T12:36:26.999Z</time></trkpt><trkpt lat="45.94014625386375" lon="7.637503028084685"><ele>2185.1428571428573</ele><time>2026-03-27T12:36:28.999Z</time></trkpt><trkpt lat="45.94018570875014" lon="7.637584343263004"><ele>2186.285714285714</ele><time>2026-03-27T12:36:30.999Z</time></trkpt><trkpt lat="45.94022622696963" lon="7.637665533680806"><ele>2187.4285714285716</ele><time>2026-03-27T12:36:32.999Z</time></trkpt><trkpt lat="45.94026736486412" lon="7.6377458686262525"><ele>2188.5714285714284</ele><time>2026-03-27T12:36:34.999Z</time></trkpt><trkpt lat="45.94031479252058" lon="7.637839426275119"><ele>2189.714285714286</ele><time>2026-03-27T12:36:36.999Z</time></trkpt><trkpt lat="45.94035455211189" lon="7.637924775217636"><ele>2190.857142857143</ele><time>2026-03-27T12:36:38.999Z</time></trkpt><trkpt lat="45.94040091029083" lon="7.638010473176494"><ele>2192.0</ele><time>2026-03-27T12:36:40.999Z</time></trkpt><trkpt lat="45.94044293735378" lon="7.638097626734218"><ele>2194.4285714285716</ele><time>2026-03-27T12:36:42.999Z</time></trkpt><trkpt lat="45.94048723791477" lon="7.638181692676755"><ele>2196.857142857143</ele><time>2026-03-27T12:36:44.999Z</time></trkpt><trkpt lat="45.94053260267477" lon="7.638269792914552"><ele>2199.285714285714</ele><time>2026-03-27T12:36:46.999Z</time></trkpt><trkpt lat="45.94057381102628" lon="7.6383548286692875"><ele>2201.714285714286</ele><time>2026-03-27T12:36:48.999Z</time></trkpt><trkpt lat="45.94061574913346" lon="7.638441019528814"><ele>2204.142857142857</ele><time>2026-03-27T12:36:50.999Z</time></trkpt><trkpt lat="45.94065928363084" lon="7.638525833707986"><ele>2206.5714285714284</ele><time>2026-03-27T12:36:52.999Z</time></trkpt><trkpt lat="45.940703137899035" lon="7.638613556577453"><ele>2209.0</ele><time>2026-03-27T12:36:54.999Z</time></trkpt><trkpt lat="45.94074538017772" lon="7.63870037905748"><ele>2210.285714285714</ele><time>2026-03-27T12:36:56.999Z</time></trkpt><trkpt lat="45.94078702422605" lon="7.638789075057602"><ele>2211.5714285714284</ele><time>2026-03-27T12:36:58.999Z</time></trkpt><trkpt lat="45.940831148570936" lon="7.63887456131008"><ele>2212.8571428571427</ele><time>2026-03-27T12:37:00.999Z</time></trkpt><trkpt lat="45.940875286453085" lon="7.6389616012838575"><ele>2214.142857142857</ele><time>2026-03-27T12:37:02.999Z</time></trkpt><trkpt lat="45.9409172761075" lon="7.639047450559298"><ele>2215.4285714285716</ele><time>2026-03-27T12:37:04.999Z</time></trkpt><trkpt lat="45.9409627517142" lon="7.639132092110988"><ele>2216.7142857142853</ele><time>2026-03-27T12:37:06.999Z</time></trkpt><trkpt lat="45.94100483726366" lon="7.639217032252375"><ele>2218.0</ele><time>2026-03-27T12:37:08.999Z</time></trkpt><trkpt lat="45.94104950807878" lon="7.639304941352407"><ele>2219.7142857142853</ele><time>2026-03-27T12:37:10.999Z</time></trkpt><trkpt lat="45.94108722553323" lon="7.639392476834832"><ele>2221.4285714285716</ele><time>2026-03-27T12:37:12.999Z</time></trkpt><trkpt lat="45.9411326437189" lon="7.639482064499865"><ele>2223.142857142857</ele><time>2026-03-27T12:37:14.999Z</time></trkpt><trkpt lat="45.94117752052585" lon="7.6395678773801725"><ele>2224.8571428571427</ele><time>2026-03-27T12:37:16.999Z</time></trkpt><trkpt lat="45.9412219977058" lon="7.639651575273348"><ele>2226.5714285714284</ele><time>2026-03-27T12:37:18.999Z</time></trkpt><trkpt lat="45.941260731731525" lon="7.639736919436578"><ele>2228.285714285714</ele><time>2026-03-27T12:37:20.999Z</time></trkpt><trkpt lat="45.941306294463956" lon="7.639813510123945"><ele>2230.0</ele><time>2026-03-27T12:37:23Z</time></trkpt><trkpt lat="45.94134107052205" lon="7.639890592244279"><ele>2234.166666666667</ele><time>2026-03-27T12:37:25Z</time></trkpt><trkpt lat="45.941394505902444" lon="7.640000256555022"><ele>2238.3333333333335</ele><time>2026-03-27T12:37:28Z</time></trkpt><trkpt lat="45.94143258423472" lon="7.640075802522405"><ele>2242.5</ele><time>2026-03-27T12:37:30Z</time></trkpt><trkpt lat="45.94149070474254" lon="7.640181784031801"><ele>2246.6666666666665</ele><time>2026-03-27T12:37:33Z</time></trkpt><trkpt lat="45.94154551987407" lon="7.640290911051435"><ele>2250.833333333333</ele><time>2026-03-27T12:37:36Z</time></trkpt><trkpt lat="45.941599797872016" lon="7.6404014061884205"><ele>2255.0</ele><time>2026-03-27T12:37:39Z</time></trkpt><trkpt lat="45.94165409949149" lon="7.64051188882234"><ele>2261.8</ele><time>2026-03-27T12:37:42Z</time></trkpt><trkpt lat="45.941707884386354" lon="7.640618204205753"><ele>2268.6</ele><time>2026-03-27T12:37:45Z</time></trkpt><trkpt lat="45.941756603423066" lon="7.640727869142614"><ele>2275.4</ele><time>2026-03-27T12:37:48Z</time></trkpt><trkpt lat="45.94180716544419" lon="7.640837506925718"><ele>2282.2</ele><time>2026-03-27T12:37:51Z</time></trkpt><trkpt lat="45.941862672095326" lon="7.640942983712956"><ele>2289.0</ele><time>2026-03-27T12:37:54Z</time></trkpt><trkpt lat="45.94192140313482" lon="7.6410510019895215"><ele>2295.5714285714284</ele><time>2026-03-27T12:37:57Z</time></trkpt><trkpt lat="45.94196520153073" lon="7.641141997632996"><ele>2302.142857142857</ele><time>2026-03-27T12:37:59Z</time></trkpt><trkpt lat="45.94200075373226" lon="7.6412176992339464"><ele>2308.714285714286</ele><time>2026-03-27T12:38:01Z</time></trkpt><trkpt lat="45.942042886268595" lon="7.641299176851879"><ele>2315.285714285714</ele><time>2026-03-27T12:38:03Z</time></trkpt><trkpt lat="45.942082054399116" lon="7.641377975629097"><ele>2321.8571428571427</ele><time>2026-03-27T12:38:05Z</time></trkpt><trkpt lat="45.942121132760235" lon="7.641457249314801"><ele>2328.4285714285716</ele><time>2026-03-27T12:38:07Z</time></trkpt><trkpt lat="45.9421584579715" lon="7.6415343316778195"><ele>2335.0</ele><time>2026-03-27T12:38:09Z</time></trkpt><trkpt lat="45.942198798796696" lon="7.64161308979591"><ele>2335.0</ele><time>2026-03-27T12:38:11Z</time></trkpt><trkpt lat="45.94223662274315" lon="7.641690182112998"><ele>2335.0</ele><time>2026-03-27T12:38:13Z</time></trkpt><trkpt lat="45.94227432381164" lon="7.641770754467463"><ele>2335.0</ele><time>2026-03-27T12:38:15Z</time></trkpt><trkpt lat="45.94231476721621" lon="7.641862207130894"><ele>2335.0</ele><time>2026-03-27T12:38:17Z</time></trkpt><trkpt lat="45.942361324617615" lon="7.6419413116237775"><ele>2335.0</ele><time>2026-03-27T12:38:19Z</time></trkpt><trkpt lat="45.942405987911116" lon="7.64202343610458"><ele>2335.0</ele><time>2026-03-27T12:38:21Z</time></trkpt><trkpt lat="45.94244977558809" lon="7.642107836272501"><ele>2335.0</ele><time>2026-03-27T12:38:23Z</time></trkpt><trkpt lat="45.942491255170545" lon="7.642191135368677"><ele>2337.5714285714284</ele><time>2026-03-27T12:38:25Z</time></trkpt><trkpt lat="45.94253216504275" lon="7.642276580648433"><ele>2340.142857142857</ele><time>2026-03-27T12:38:27Z</time></trkpt><trkpt lat="45.94257307583912" lon="7.642360412066855"><ele>2342.714285714286</ele><time>2026-03-27T12:38:29Z</time></trkpt><trkpt lat="45.942622339642185" lon="7.642447544039627"><ele>2345.285714285714</ele><time>2026-03-27T12:38:31Z</time></trkpt><trkpt lat="45.942666666064454" lon="7.642533761628717"><ele>2347.857142857143</ele><time>2026-03-27T12:38:33Z</time></trkpt><trkpt lat="45.942710242537046" lon="7.642621556130517"><ele>2350.4285714285716</ele><time>2026-03-27T12:38:35Z</time></trkpt><trkpt lat="45.94275236014822" lon="7.642713630993693"><ele>2353.0</ele><time>2026-03-27T12:38:37Z</time></trkpt><trkpt lat="45.942795904331014" lon="7.642795092557563"><ele>2356.0</ele><time>2026-03-27T12:38:39Z</time></trkpt><trkpt lat="45.94284256144609" lon="7.64288349737556"><ele>2359.0</ele><time>2026-03-27T12:38:41Z</time></trkpt><trkpt lat="45.94288189208757" lon="7.642971590938102"><ele>2362.0</ele><time>2026-03-27T12:38:43Z</time></trkpt><trkpt lat="45.94292451550749" lon="7.643059856657256"><ele>2365.0</ele><time>2026-03-27T12:38:45Z</time></trkpt><trkpt lat="45.94296653484366" lon="7.643146010212831"><ele>2368.0</ele><time>2026-03-27T12:38:47Z</time></trkpt><trkpt lat="45.94301322286435" lon="7.643235106783516"><ele>2371.0</ele><time>2026-03-27T12:38:49Z</time></trkpt><trkpt lat="45.94305579669386" lon="7.643323673621865"><ele>2371.0</ele><time>2026-03-27T12:38:51Z</time></trkpt><trkpt lat="45.94309687017934" lon="7.643414076388563"><ele>2371.0</ele><time>2026-03-27T12:38:53Z</time></trkpt><trkpt lat="45.94314387736712" lon="7.643501483122206"><ele>2371.0</ele><time>2026-03-27T12:38:55Z</time></trkpt><trkpt lat="45.943185739297604" lon="7.643590434598738"><ele>2371.0</ele><time>2026-03-27T12:38:57Z</time></trkpt><trkpt lat="45.94323174143712" lon="7.64367663937854"><ele>2371.0</ele><time>2026-03-27T12:38:59Z</time></trkpt><trkpt lat="45.94327187230855" lon="7.643763372824392"><ele>2371.0</ele><time>2026-03-27T12:39:01Z</time></trkpt><trkpt lat="45.94331526800857" lon="7.643849655183681"><ele>2371.0</ele><time>2026-03-27T12:39:03Z</time></trkpt><trkpt lat="45.94335696793546" lon="7.643937727777073"><ele>2372.0</ele><time>2026-03-27T12:39:05Z</time></trkpt><trkpt lat="45.943401328603414" lon="7.6440238698051965"><ele>2373.0</ele><time>2026-03-27T12:39:07Z</time></trkpt><trkpt lat="45.94344241132391" lon="7.6441101945893735"><ele>2374.0</ele><time>2026-03-27T12:39:09Z</time></trkpt><trkpt lat="45.943492579090055" lon="7.644196010216713"><ele>2375.0</ele><time>2026-03-27T12:39:11Z</time></trkpt><trkpt lat="45.94353284907026" lon="7.644284899075873"><ele>2376.0</ele><time>2026-03-27T12:39:13Z</time></trkpt><trkpt lat="45.943579195126674" lon="7.644373927762535"><ele>2377.0</ele><time>2026-03-27T12:39:15Z</time></trkpt><trkpt lat="45.943623554648454" lon="7.644459035304009"><ele>2379.666666666667</ele><time>2026-03-27T12:39:17Z</time></trkpt><trkpt lat="45.943670086598395" lon="7.6445447863304254"><ele>2382.3333333333335</ele><time>2026-03-27T12:39:19Z</time></trkpt><trkpt lat="45.94371212553768" lon="7.644636114832276"><ele>2385.0</ele><time>2026-03-27T12:39:21Z</time></trkpt><trkpt lat="45.94375607592737" lon="7.644724955373711"><ele>2387.6666666666665</ele><time>2026-03-27T12:39:23Z</time></trkpt><trkpt lat="45.94379958451926" lon="7.644814085595755"><ele>2390.333333333333</ele><time>2026-03-27T12:39:25Z</time></trkpt><trkpt lat="45.943844783118344" lon="7.644900053148778"><ele>2393.0</ele><time>2026-03-27T12:39:27Z</time></trkpt><trkpt lat="45.943886401227" lon="7.644986180382481"><ele>2392.9999999999995</ele><time>2026-03-27T12:39:29Z</time></trkpt><trkpt lat="45.9439296415949" lon="7.645075862973875"><ele>2393.0</ele><time>2026-03-27T12:39:31Z</time></trkpt><trkpt lat="45.94397156420339" lon="7.645162758665052"><ele>2393.0</ele><time>2026-03-27T12:39:33Z</time></trkpt><trkpt lat="45.944013286198945" lon="7.645250610338028"><ele>2393.0</ele><time>2026-03-27T12:39:35Z</time></trkpt><trkpt lat="45.94405492630845" lon="7.645338387795347"><ele>2393.0</ele><time>2026-03-27T12:39:37Z</time></trkpt><trkpt lat="45.944093520748964" lon="7.645424431850163"><ele>2392.9999999999995</ele><time>2026-03-27T12:39:39Z</time></trkpt><trkpt lat="45.94413740168476" lon="7.645513245278118"><ele>2393.0</ele><time>2026-03-27T12:39:41Z</time></trkpt><trkpt lat="45.94417943766791" lon="7.64559841246931"><ele>2394.833333333333</ele><time>2026-03-27T12:39:43Z</time></trkpt><trkpt lat="45.94422294335144" lon="7.645687799977963"><ele>2396.6666666666665</ele><time>2026-03-27T12:39:45Z</time></trkpt><trkpt lat="45.94426468538757" lon="7.645777230986847"><ele>2398.5</ele><time>2026-03-27T12:39:47Z</time></trkpt><trkpt lat="45.944308128060726" lon="7.645866798328806"><ele>2400.3333333333335</ele><time>2026-03-27T12:39:49Z</time></trkpt><trkpt lat="45.944351277231036" lon="7.645953208499967"><ele>2402.166666666667</ele><time>2026-03-27T12:39:51Z</time></trkpt><trkpt lat="45.94439565383239" lon="7.646039815930529"><ele>2404.0</ele><time>2026-03-27T12:39:53Z</time></trkpt><trkpt lat="45.94444007130051" lon="7.64612918165518"><ele>2407.0</ele><time>2026-03-27T12:39:55Z</time></trkpt><trkpt lat="45.94448310176072" lon="7.6462167398552685"><ele>2410.0</ele><time>2026-03-27T12:39:57Z</time></trkpt><trkpt lat="45.94452300049788" lon="7.646302197735147"><ele>2413.0</ele><time>2026-03-27T12:39:59Z</time></trkpt><trkpt lat="45.944566533492015" lon="7.646387048374226"><ele>2416.0</ele><time>2026-03-27T12:40:01Z</time></trkpt><trkpt lat="45.944605599628844" lon="7.646472839784838"><ele>2419.0</ele><time>2026-03-27T12:40:03Z</time></trkpt><trkpt lat="45.944648882290885" lon="7.646562161271189"><ele>2422.0</ele><time>2026-03-27T12:40:05Z</time></trkpt><trkpt lat="45.944691913823206" lon="7.646647114886261"><ele>2425.0</ele><time>2026-03-27T12:40:07Z</time></trkpt><trkpt lat="45.94473418843934" lon="7.646728328327072"><ele>2425.0</ele><time>2026-03-27T12:40:09Z</time></trkpt><trkpt lat="45.944756346840414" lon="7.64683515463094"><ele>2425.0</ele><time>2026-03-27T12:40:11Z</time></trkpt><trkpt lat="45.94481770587814" lon="7.646954052516869"><ele>2425.0</ele><time>2026-03-27T12:40:14Z</time></trkpt><trkpt lat="45.94486546715283" lon="7.64705035979529"><ele>2425.0</ele><time>2026-03-27T12:40:16Z</time></trkpt><trkpt lat="45.944905345487065" lon="7.647137178738303"><ele>2425.0</ele><time>2026-03-27T12:40:18Z</time></trkpt><trkpt lat="45.94495162489276" lon="7.647223589702813"><ele>2425.0</ele><time>2026-03-27T12:40:20Z</time></trkpt><trkpt lat="45.94499598505817" lon="7.647315547007655"><ele>2426.285714285714</ele><time>2026-03-27T12:40:22Z</time></trkpt><trkpt lat="45.945037780635076" lon="7.647393340011478"><ele>2427.571428571429</ele><time>2026-03-27T12:40:24Z</time></trkpt><trkpt lat="45.945078487098186" lon="7.647473725124775"><ele>2428.857142857143</ele><time>2026-03-27T12:40:26Z</time></trkpt><trkpt lat="45.94512250815626" lon="7.64756288207867"><ele>2430.142857142857</ele><time>2026-03-27T12:40:28Z</time></trkpt><trkpt lat="45.94516724270639" lon="7.647645140924628"><ele>2431.4285714285716</ele><time>2026-03-27T12:40:30Z</time></trkpt><trkpt lat="45.94520593716015" lon="7.647720311266308"><ele>2432.714285714286</ele><time>2026-03-27T12:40:32Z</time></trkpt><trkpt lat="45.94525025422335" lon="7.647809343519288"><ele>2434.0</ele><time>2026-03-27T12:40:34Z</time></trkpt><trkpt lat="45.94529830934693" lon="7.647904125749246"><ele>2438.3333333333335</ele><time>2026-03-27T12:40:36Z</time></trkpt><trkpt lat="45.94534282752761" lon="7.647989219055446"><ele>2442.666666666667</ele><time>2026-03-27T12:40:38Z</time></trkpt><trkpt lat="45.945389028421424" lon="7.64807802506986"><ele>2447.0</ele><time>2026-03-27T12:40:40Z</time></trkpt><trkpt lat="45.945431558336175" lon="7.648163640629216"><ele>2451.3333333333335</ele><time>2026-03-27T12:40:42Z</time></trkpt><trkpt lat="45.94548044897778" lon="7.648234862813056"><ele>2455.6666666666665</ele><time>2026-03-27T12:40:44Z</time></trkpt><trkpt lat="45.945519503108606" lon="7.648340812336701"><ele>2460.0</ele><time>2026-03-27T12:40:46Z</time></trkpt><trkpt lat="45.945561341463254" lon="7.648430825372533"><ele>2460.0</ele><time>2026-03-27T12:40:48Z</time></trkpt><trkpt lat="45.945603047544104" lon="7.648519296229338"><ele>2460.0</ele><time>2026-03-27T12:40:50Z</time></trkpt><trkpt lat="45.94564141715971" lon="7.648621802589933"><ele>2460.0</ele><time>2026-03-27T12:40:52Z</time></trkpt><trkpt lat="45.94565041765751" lon="7.648721747395084"><ele>2460.0</ele><time>2026-03-27T12:40:58Z</time></trkpt><trkpt lat="45.945693720146515" lon="7.648800489253429"><ele>2460.0</ele><time>2026-03-27T12:41:00Z</time></trkpt><trkpt lat="45.945632697582134" lon="7.648869714652687"><ele>2460.0</ele><time>2026-03-27T12:41:02Z</time></trkpt><trkpt lat="45.94556496917279" lon="7.648881943223958"><ele>2460.0</ele><time>2026-03-27T12:41:05Z</time></trkpt><trkpt lat="45.9454985107867" lon="7.648876425976647"><ele>2460.0</ele><time>2026-03-27T12:41:07Z</time></trkpt><trkpt lat="45.94542630428913" lon="7.648850767293871"><ele>2460.0</ele><time>2026-03-27T12:41:09Z</time></trkpt><trkpt lat="45.945360075049145" lon="7.6488326175180665"><ele>2460.0</ele><time>2026-03-27T12:41:11Z</time></trkpt><trkpt lat="45.945289103085685" lon="7.648799482924516"><ele>2460.0</ele><time>2026-03-27T12:41:14Z</time></trkpt><trkpt lat="45.94522004958761" lon="7.648731595069482"><ele>2460.0</ele><time>2026-03-27T12:41:17Z</time></trkpt><trkpt lat="45.945156449509916" lon="7.64865394282258"><ele>2460.0</ele><time>2026-03-27T12:41:20Z</time></trkpt><trkpt lat="45.945100654199486" lon="7.648610528843178"><ele>2460.0</ele><time>2026-03-27T12:41:22Z</time></trkpt><trkpt lat="45.94503473580152" lon="7.648520918067703"><ele>2460.6</ele><time>2026-03-27T12:41:24Z</time></trkpt><trkpt lat="45.94500757440348" lon="7.648426280880826"><ele>2461.2</ele><time>2026-03-27T12:41:26Z</time></trkpt><trkpt lat="45.94504548736102" lon="7.648304907077781"><ele>2461.8</ele><time>2026-03-27T12:41:28Z</time></trkpt><trkpt lat="45.944992077274485" lon="7.64816128677406"><ele>2462.4</ele><time>2026-03-27T12:41:30Z</time></trkpt><trkpt lat="45.94504499648987" lon="7.648019179443686"><ele>2463.0</ele><time>2026-03-27T12:41:32Z</time></trkpt><trkpt lat="45.94501950020876" lon="7.647865594381183"><ele>2459.4</ele><time>2026-03-27T12:41:34Z</time></trkpt><trkpt lat="45.94502334744533" lon="7.6477080574155565"><ele>2455.8</ele><time>2026-03-27T12:41:36Z</time></trkpt><trkpt lat="45.94504091283129" lon="7.647585380427585"><ele>2452.2</ele><time>2026-03-27T12:41:37Z</time></trkpt><trkpt lat="45.94503498581148" lon="7.647479794936063"><ele>2448.6</ele><time>2026-03-27T12:41:38Z</time></trkpt><trkpt lat="45.94499255914551" lon="7.647364130670229"><ele>2445.0</ele><time>2026-03-27T12:41:39Z</time></trkpt><trkpt lat="45.945007713289726" lon="7.647230988697503"><ele>2445.0</ele><time>2026-03-27T12:41:40Z</time></trkpt><trkpt lat="45.945027261673154" lon="7.647093071452001"><ele>2445.0</ele><time>2026-03-27T12:41:41Z</time></trkpt><trkpt lat="45.944966279875196" lon="7.6469596969196205"><ele>2445.0</ele><time>2026-03-27T12:41:42Z</time></trkpt><trkpt lat="45.94492328027818" lon="7.646814961936288"><ele>2445.0</ele><time>2026-03-27T12:41:43Z</time></trkpt><trkpt lat="45.94496288320822" lon="7.646666280321096"><ele>2445.0</ele><time>2026-03-27T12:41:44Z</time></trkpt><trkpt lat="45.944941511764846" lon="7.646547084313779"><ele>2441.6666666666665</ele><time>2026-03-27T12:41:45Z</time></trkpt><trkpt lat="45.94486598330017" lon="7.64645720186984"><ele>2438.3333333333335</ele><time>2026-03-27T12:41:46Z</time></trkpt><trkpt lat="45.944836696984176" lon="7.6463427770477574"><ele>2435.0</ele><time>2026-03-27T12:41:47Z</time></trkpt><trkpt lat="45.94479987426478" lon="7.646245561206653"><ele>2431.666666666667</ele><time>2026-03-27T12:41:48Z</time></trkpt><trkpt lat="45.944763581536606" lon="7.646158665709198"><ele>2428.3333333333335</ele><time>2026-03-27T12:41:49Z</time></trkpt><trkpt lat="45.94479773657244" lon="7.646068347550474"><ele>2425.0</ele><time>2026-03-27T12:41:50Z</time></trkpt><trkpt lat="45.94479543798542" lon="7.6459310190459595"><ele>2420.8</ele><time>2026-03-27T12:41:52Z</time></trkpt><trkpt lat="45.94484851711375" lon="7.645782493807108"><ele>2416.6</ele><time>2026-03-27T12:41:54Z</time></trkpt><trkpt lat="45.94479853710523" lon="7.645609564219472"><ele>2412.4</ele><time>2026-03-27T12:41:56Z</time></trkpt><trkpt lat="45.94482904156105" lon="7.645518438283612"><ele>2408.2</ele><time>2026-03-27T12:41:57Z</time></trkpt><trkpt lat="45.94489800003629" lon="7.6454489419233935"><ele>2404.0</ele><time>2026-03-27T12:41:58Z</time></trkpt><trkpt lat="45.944934007572414" lon="7.645339009837724"><ele>2400.666666666667</ele><time>2026-03-27T12:41:59Z</time></trkpt><trkpt lat="45.94497795461475" lon="7.645239306985259"><ele>2397.3333333333335</ele><time>2026-03-27T12:42:00Z</time></trkpt><trkpt lat="45.944991914916486" lon="7.6451056815808025"><ele>2394.0</ele><time>2026-03-27T12:42:01Z</time></trkpt><trkpt lat="45.94499230860344" lon="7.644984145448858"><ele>2390.6666666666665</ele><time>2026-03-27T12:42:02Z</time></trkpt><trkpt lat="45.94506765179464" lon="7.6449030496963495"><ele>2387.333333333333</ele><time>2026-03-27T12:42:03Z</time></trkpt><trkpt lat="45.945124460288625" lon="7.644826293515904"><ele>2384.0</ele><time>2026-03-27T12:42:04Z</time></trkpt><trkpt lat="45.94514834448908" lon="7.644705698092232"><ele>2381.833333333333</ele><time>2026-03-27T12:42:05Z</time></trkpt><trkpt lat="45.94522987451095" lon="7.644635732623776"><ele>2379.6666666666665</ele><time>2026-03-27T12:42:06Z</time></trkpt><trkpt lat="45.94526990140163" lon="7.644515873208249"><ele>2377.5</ele><time>2026-03-27T12:42:07Z</time></trkpt><trkpt lat="45.945307658534524" lon="7.644420601160247"><ele>2375.3333333333335</ele><time>2026-03-27T12:42:08Z</time></trkpt><trkpt lat="45.94539338335594" lon="7.644363209591125"><ele>2373.166666666667</ele><time>2026-03-27T12:42:09Z</time></trkpt><trkpt lat="45.94543339255339" lon="7.64425145190882"><ele>2371.0</ele><time>2026-03-27T12:42:10Z</time></trkpt><trkpt lat="45.945506120589336" lon="7.644187764093673"><ele>2367.4</ele><time>2026-03-27T12:42:11Z</time></trkpt><trkpt lat="45.94557294418786" lon="7.644103418366511"><ele>2363.8</ele><time>2026-03-27T12:42:12Z</time></trkpt><trkpt lat="45.94560519408862" lon="7.643971551007321"><ele>2360.2000000000003</ele><time>2026-03-27T12:42:13Z</time></trkpt><trkpt lat="45.945667748975" lon="7.643845851191365"><ele>2356.6</ele><time>2026-03-27T12:42:14Z</time></trkpt><trkpt lat="45.94567060215953" lon="7.643685333554698"><ele>2353.0</ele><time>2026-03-27T12:42:15Z</time></trkpt><trkpt lat="45.94566228933261" lon="7.643517982243132"><ele>2350.0</ele><time>2026-03-27T12:42:16Z</time></trkpt><trkpt lat="45.94568152989692" lon="7.64334218990791"><ele>2347.0</ele><time>2026-03-27T12:42:17Z</time></trkpt><trkpt lat="45.945675306033166" lon="7.643173268239818"><ele>2344.0</ele><time>2026-03-27T12:42:18Z</time></trkpt><trkpt lat="45.94563055484269" lon="7.643040004870368"><ele>2341.0</ele><time>2026-03-27T12:42:19Z</time></trkpt><trkpt lat="45.94556725288899" lon="7.642945677044136"><ele>2338.0</ele><time>2026-03-27T12:42:20Z</time></trkpt><trkpt lat="45.945588294525066" lon="7.642788313006209"><ele>2334.6</ele><time>2026-03-27T12:42:21Z</time></trkpt><trkpt lat="45.94554734510047" lon="7.642698226646473"><ele>2331.2000000000003</ele><time>2026-03-27T12:42:22Z</time></trkpt><trkpt lat="45.94551637007875" lon="7.642603499279654"><ele>2327.8</ele><time>2026-03-27T12:42:23Z</time></trkpt><trkpt lat="45.945480419199534" lon="7.642396567952627"><ele>2324.4</ele><time>2026-03-27T12:42:25Z</time></trkpt><trkpt lat="45.94545166371985" lon="7.642276132771734"><ele>2321.0</ele><time>2026-03-27T12:42:26Z</time></trkpt><trkpt lat="45.94541548348799" lon="7.642138557925508"><ele>2321.0</ele><time>2026-03-27T12:42:27Z</time></trkpt><trkpt lat="45.94536595941374" lon="7.642007967228054"><ele>2321.0</ele><time>2026-03-27T12:42:28Z</time></trkpt><trkpt lat="45.94530962147603" lon="7.641895453319143"><ele>2321.0</ele><time>2026-03-27T12:42:29Z</time></trkpt><trkpt lat="45.94523656721825" lon="7.64178244251208"><ele>2321.0</ele><time>2026-03-27T12:42:30Z</time></trkpt><trkpt lat="45.94518409664687" lon="7.641687102990901"><ele>2321.0</ele><time>2026-03-27T12:42:31Z</time></trkpt><trkpt lat="45.945146634990095" lon="7.6416025160838865"><ele>2320.333333333333</ele><time>2026-03-27T12:42:32Z</time></trkpt><trkpt lat="45.945100371653105" lon="7.641492108331637"><ele>2319.6666666666665</ele><time>2026-03-27T12:42:33Z</time></trkpt><trkpt lat="45.945050596997014" lon="7.641374351847963"><ele>2319.0</ele><time>2026-03-27T12:42:34Z</time></trkpt><trkpt lat="45.94500769346763" lon="7.641270348632297"><ele>2318.3333333333335</ele><time>2026-03-27T12:42:35Z</time></trkpt><trkpt lat="45.944964881242655" lon="7.641166519224663"><ele>2317.666666666667</ele><time>2026-03-27T12:42:36Z</time></trkpt><trkpt lat="45.94491312026206" lon="7.64105339440999"><ele>2317.0</ele><time>2026-03-27T12:42:37Z</time></trkpt><trkpt lat="45.94484977639091" lon="7.6409464247212595"><ele>2313.666666666667</ele><time>2026-03-27T12:42:38Z</time></trkpt><trkpt lat="45.944785672574014" lon="7.640858021247624"><ele>2310.3333333333335</ele><time>2026-03-27T12:42:39Z</time></trkpt><trkpt lat="45.9447154055989" lon="7.640790689639252"><ele>2307.0</ele><time>2026-03-27T12:42:40Z</time></trkpt><trkpt lat="45.9446628682554" lon="7.6406880834611774"><ele>2303.6666666666665</ele><time>2026-03-27T12:42:41Z</time></trkpt><trkpt lat="45.94461115842554" lon="7.640596768402661"><ele>2300.333333333333</ele><time>2026-03-27T12:42:42Z</time></trkpt><trkpt lat="45.94458288178538" lon="7.64048809109792"><ele>2297.0</ele><time>2026-03-27T12:42:43Z</time></trkpt><trkpt lat="45.94453273886696" lon="7.640388065932328"><ele>2294.6666666666665</ele><time>2026-03-27T12:42:44Z</time></trkpt><trkpt lat="45.94446748771776" lon="7.640295283085729"><ele>2292.333333333333</ele><time>2026-03-27T12:42:45Z</time></trkpt><trkpt lat="45.9444108360732" lon="7.640234554447193"><ele>2290.0</ele><time>2026-03-27T12:42:46Z</time></trkpt><trkpt lat="45.94434530067165" lon="7.640175112386465"><ele>2287.6666666666665</ele><time>2026-03-27T12:42:47Z</time></trkpt><trkpt lat="45.94428266652188" lon="7.640125927171202"><ele>2285.3333333333335</ele><time>2026-03-27T12:42:48Z</time></trkpt><trkpt lat="45.9441782670778" lon="7.640064482845535"><ele>2283.0</ele><time>2026-03-27T12:42:50Z</time></trkpt><trkpt lat="45.94411605348136" lon="7.640037025089174"><ele>2283.0</ele><time>2026-03-27T12:42:51Z</time></trkpt><trkpt lat="45.944015611124904" lon="7.640002008286302"><ele>2283.0</ele><time>2026-03-27T12:42:53Z</time></trkpt><trkpt lat="45.94392972394369" lon="7.639978281191613"><ele>2283.0</ele><time>2026-03-27T12:42:55Z</time></trkpt><trkpt lat="45.94381258665739" lon="7.639937223257467"><ele>2283.0</ele><time>2026-03-27T12:42:57Z</time></trkpt><trkpt lat="45.94373578166151" lon="7.6399314517385655"><ele>2283.0</ele><time>2026-03-27T12:42:58Z</time></trkpt><trkpt lat="45.94364477064409" lon="7.639927128616168"><ele>2283.0</ele><time>2026-03-27T12:42:59Z</time></trkpt><trkpt lat="45.94354370806664" lon="7.639919786319747"><ele>2283.0</ele><time>2026-03-27T12:43:00Z</time></trkpt><trkpt lat="45.9434642733446" lon="7.639901389082708"><ele>2283.0</ele><time>2026-03-27T12:43:01Z</time></trkpt><trkpt lat="45.94337134370585" lon="7.639879415338952"><ele>2283.0</ele><time>2026-03-27T12:43:02Z</time></trkpt><trkpt lat="45.94330069002331" lon="7.639862056440739"><ele>2283.0</ele><time>2026-03-27T12:43:03Z</time></trkpt><trkpt lat="45.943224016122635" lon="7.6398334042626015"><ele>2283.0</ele><time>2026-03-27T12:43:05Z</time></trkpt><trkpt lat="45.94313876474827" lon="7.63981565217287"><ele>2280.8</ele><time>2026-03-27T12:43:06Z</time></trkpt><trkpt lat="45.94304720157858" lon="7.639783519533289"><ele>2278.6000000000004</ele><time>2026-03-27T12:43:07Z</time></trkpt><trkpt lat="45.94297181538104" lon="7.639750883693173"><ele>2276.3999999999996</ele><time>2026-03-27T12:43:08Z</time></trkpt><trkpt lat="45.94297886571207" lon="7.639448299142387"><ele>2274.2</ele><time>2026-03-27T12:43:09Z</time></trkpt><trkpt lat="45.942944592457884" lon="7.639369011510021"><ele>2272.0</ele><time>2026-03-27T12:43:10Z</time></trkpt><trkpt lat="45.94293273985016" lon="7.639257362982353"><ele>2268.0</ele><time>2026-03-27T12:43:11Z</time></trkpt><trkpt lat="45.94293481439002" lon="7.639146333963699"><ele>2264.0</ele><time>2026-03-27T12:43:12Z</time></trkpt><trkpt lat="45.94287446965258" lon="7.639045343255308"><ele>2260.0</ele><time>2026-03-27T12:43:13Z</time></trkpt><trkpt lat="45.942797467536984" lon="7.639061680725309"><ele>2256.0</ele><time>2026-03-27T12:43:14Z</time></trkpt><trkpt lat="45.942723896222" lon="7.639088801990459"><ele>2252.0</ele><time>2026-03-27T12:43:15Z</time></trkpt><trkpt lat="45.94265927802209" lon="7.6390754290174705"><ele>2248.0</ele><time>2026-03-27T12:43:16Z</time></trkpt><trkpt lat="45.942644739603516" lon="7.638973116453743"><ele>2248.0</ele><time>2026-03-27T12:43:17Z</time></trkpt><trkpt lat="45.9426435457367" lon="7.6388763436142835"><ele>2248.0</ele><time>2026-03-27T12:43:18Z</time></trkpt><trkpt lat="45.94257221406775" lon="7.638823274912298"><ele>2248.0</ele><time>2026-03-27T12:43:19Z</time></trkpt><trkpt lat="45.94248462412231" lon="7.638839813032455"><ele>2248.0</ele><time>2026-03-27T12:43:20Z</time></trkpt><trkpt lat="45.942413058878266" lon="7.638857495370624"><ele>2248.0</ele><time>2026-03-27T12:43:21Z</time></trkpt><trkpt lat="45.94236202363259" lon="7.638791484386427"><ele>2248.0</ele><time>2026-03-27T12:43:22Z</time></trkpt><trkpt lat="45.942313301952076" lon="7.638688073520126"><ele>2246.666666666667</ele><time>2026-03-27T12:43:23Z</time></trkpt><trkpt lat="45.94223501116918" lon="7.638625717632227"><ele>2245.3333333333335</ele><time>2026-03-27T12:43:24Z</time></trkpt><trkpt lat="45.9421493213042" lon="7.638631009139639"><ele>2244.0</ele><time>2026-03-27T12:43:25Z</time></trkpt><trkpt lat="45.94207401732679" lon="7.63864356134641"><ele>2242.6666666666665</ele><time>2026-03-27T12:43:26Z</time></trkpt><trkpt lat="45.94200008666841" lon="7.638650154529483"><ele>2241.333333333333</ele><time>2026-03-27T12:43:27Z</time></trkpt><trkpt lat="45.94192202297191" lon="7.638652411552442"><ele>2240.0</ele><time>2026-03-27T12:43:28Z</time></trkpt><trkpt lat="45.9418366004801" lon="7.638654457275316"><ele>2235.8</ele><time>2026-03-27T12:43:29Z</time></trkpt><trkpt lat="45.94174749355064" lon="7.638625765660914"><ele>2231.6</ele><time>2026-03-27T12:43:30Z</time></trkpt><trkpt lat="45.94166794019534" lon="7.638553168021879"><ele>2227.4</ele><time>2026-03-27T12:43:31Z</time></trkpt><trkpt lat="45.941593606072395" lon="7.638470364088643"><ele>2223.2</ele><time>2026-03-27T12:43:32Z</time></trkpt><trkpt lat="45.94151740488818" lon="7.638414932919996"><ele>2219.0</ele><time>2026-03-27T12:43:33Z</time></trkpt><trkpt lat="45.94143140619733" lon="7.638373741921175"><ele>2217.6666666666665</ele><time>2026-03-27T12:43:34Z</time></trkpt><trkpt lat="45.941352073180546" lon="7.638342358074719"><ele>2216.333333333333</ele><time>2026-03-27T12:43:35Z</time></trkpt><trkpt lat="45.94126752959907" lon="7.638321411173758"><ele>2215.0</ele><time>2026-03-27T12:43:36Z</time></trkpt><trkpt lat="45.941191350679546" lon="7.638297307530158"><ele>2213.6666666666665</ele><time>2026-03-27T12:43:37Z</time></trkpt><trkpt lat="45.941112495574394" lon="7.638265089811454"><ele>2212.3333333333335</ele><time>2026-03-27T12:43:38Z</time></trkpt><trkpt lat="45.94103673183985" lon="7.63823400170566"><ele>2211.0</ele><time>2026-03-27T12:43:39Z</time></trkpt><trkpt lat="45.940959948412356" lon="7.638196333282063"><ele>2211.0</ele><time>2026-03-27T12:43:40Z</time></trkpt><trkpt lat="45.94088489322628" lon="7.638161341983474"><ele>2211.0</ele><time>2026-03-27T12:43:41Z</time></trkpt><trkpt lat="45.94081010837113" lon="7.6381244463449764"><ele>2211.0</ele><time>2026-03-27T12:43:42Z</time></trkpt><trkpt lat="45.94073434277148" lon="7.638084569583662"><ele>2211.0</ele><time>2026-03-27T12:43:43Z</time></trkpt><trkpt lat="45.94067392481345" lon="7.6379762648903755"><ele>2211.0</ele><time>2026-03-27T12:43:44Z</time></trkpt><trkpt lat="45.94059358115574" lon="7.637940124924481"><ele>2211.0</ele><time>2026-03-27T12:43:45Z</time></trkpt><trkpt lat="45.940511864742255" lon="7.637915320291574"><ele>2210.6</ele><time>2026-03-27T12:43:46Z</time></trkpt><trkpt lat="45.94043105805082" lon="7.637908785748353"><ele>2210.2</ele><time>2026-03-27T12:43:47Z</time></trkpt><trkpt lat="45.94031106435762" lon="7.637916827312659"><ele>2209.8</ele><time>2026-03-27T12:43:49Z</time></trkpt><trkpt lat="45.94024984799774" lon="7.638012985560501"><ele>2209.4</ele><time>2026-03-27T12:43:50Z</time></trkpt><trkpt lat="45.940123154613154" lon="7.637957572503255"><ele>2209.0</ele><time>2026-03-27T12:43:52Z</time></trkpt><trkpt lat="45.94005533158584" lon="7.637932962851778"><ele>2206.166666666667</ele><time>2026-03-27T12:43:53Z</time></trkpt><trkpt lat="45.94000194194462" lon="7.637868414489469"><ele>2203.3333333333335</ele><time>2026-03-27T12:43:54Z</time></trkpt><trkpt lat="45.93988221282669" lon="7.637846544192852"><ele>2200.5</ele><time>2026-03-27T12:43:56Z</time></trkpt><trkpt lat="45.93978421264189" lon="7.6378279097307"><ele>2197.6666666666665</ele><time>2026-03-27T12:43:58Z</time></trkpt><trkpt lat="45.93972070441402" lon="7.637817795001182"><ele>2194.833333333333</ele><time>2026-03-27T12:43:59Z</time></trkpt><trkpt lat="45.93964863897153" lon="7.637806317530437"><ele>2192.0</ele><time>2026-03-27T12:44:00Z</time></trkpt><trkpt lat="45.939545190555876" lon="7.637794979578527"><ele>2192.0</ele><time>2026-03-27T12:44:02Z</time></trkpt><trkpt lat="45.939456532102916" lon="7.637789138719592"><ele>2192.0</ele><time>2026-03-27T12:44:03Z</time></trkpt><trkpt lat="45.93938744030625" lon="7.6377845869414225"><ele>2192.0</ele><time>2026-03-27T12:44:04Z</time></trkpt><trkpt lat="45.93929585352157" lon="7.637807186558481"><ele>2192.0</ele><time>2026-03-27T12:44:06Z</time></trkpt><trkpt lat="45.93921056569186" lon="7.637792776594066"><ele>2192.0</ele><time>2026-03-27T12:44:07Z</time></trkpt><trkpt lat="45.93920215408214" lon="7.63855943224457"><ele>2184.6666666666665</ele><time>2026-03-27T12:44:09Z</time></trkpt><trkpt lat="45.93919537232602" lon="7.638652613035129"><ele>2177.333333333333</ele><time>2026-03-27T12:44:10Z</time></trkpt><trkpt lat="45.93911121248413" lon="7.638688925643865"><ele>2170.0</ele><time>2026-03-27T12:44:11Z</time></trkpt><trkpt lat="45.93907029782636" lon="7.638785778512439"><ele>2162.6666666666665</ele><time>2026-03-27T12:44:12Z</time></trkpt><trkpt lat="45.93906886322707" lon="7.638907929746499"><ele>2155.3333333333335</ele><time>2026-03-27T12:44:13Z</time></trkpt><trkpt lat="45.93899781694029" lon="7.638979215140696"><ele>2148.0</ele><time>2026-03-27T12:44:14Z</time></trkpt><trkpt lat="45.93892108638674" lon="7.639049420136628"><ele>2148.0</ele><time>2026-03-27T12:44:15Z</time></trkpt><trkpt lat="45.93891730218491" lon="7.639173158718713"><ele>2148.0</ele><time>2026-03-27T12:44:16Z</time></trkpt><trkpt lat="45.938921493258704" lon="7.639277953905779"><ele>2148.0</ele><time>2026-03-27T12:44:17Z</time></trkpt><trkpt lat="45.93884446018681" lon="7.639298933721075"><ele>2148.0</ele><time>2026-03-27T12:44:18Z</time></trkpt><trkpt lat="45.93875495279627" lon="7.6393218366630045"><ele>2148.0</ele><time>2026-03-27T12:44:19Z</time></trkpt><trkpt lat="45.938702702135224" lon="7.639444345188266"><ele>2148.0</ele><time>2026-03-27T12:44:20Z</time></trkpt><trkpt lat="45.93862558090973" lon="7.639492474446841"><ele>2147.6666666666665</ele><time>2026-03-27T12:44:21Z</time></trkpt><trkpt lat="45.93855370900172" lon="7.6395172492871435"><ele>2147.3333333333335</ele><time>2026-03-27T12:44:22Z</time></trkpt><trkpt lat="45.93849857804129" lon="7.639599468571472"><ele>2147.0</ele><time>2026-03-27T12:44:23Z</time></trkpt><trkpt lat="45.938414522043075" lon="7.639612959262468"><ele>2146.666666666667</ele><time>2026-03-27T12:44:24Z</time></trkpt><trkpt lat="45.93834214855769" lon="7.639688271861897"><ele>2146.3333333333335</ele><time>2026-03-27T12:44:25Z</time></trkpt><trkpt lat="45.93825328580042" lon="7.639687295766996"><ele>2146.0</ele><time>2026-03-27T12:44:26Z</time></trkpt><trkpt lat="45.938162210147574" lon="7.6397131875855315"><ele>2140.5</ele><time>2026-03-27T12:44:27Z</time></trkpt><trkpt lat="45.9380809911218" lon="7.639746038743678"><ele>2135.0</ele><time>2026-03-27T12:44:28Z</time></trkpt><trkpt lat="45.93800968438984" lon="7.639706618247132"><ele>2129.5</ele><time>2026-03-27T12:44:29Z</time></trkpt><trkpt lat="45.93792957068181" lon="7.639765472703602"><ele>2124.0</ele><time>2026-03-27T12:44:30Z</time></trkpt><trkpt lat="45.93784542570369" lon="7.6398388490245255"><ele>2118.5</ele><time>2026-03-27T12:44:31Z</time></trkpt><trkpt lat="45.937750400792424" lon="7.639827692291642"><ele>2113.0</ele><time>2026-03-27T12:44:32Z</time></trkpt><trkpt lat="45.93765458993926" lon="7.639886716479227"><ele>2105.75</ele><time>2026-03-27T12:44:33Z</time></trkpt><trkpt lat="45.937546085041866" lon="7.63987704344514"><ele>2098.5</ele><time>2026-03-27T12:44:34Z</time></trkpt><trkpt lat="45.93741430585067" lon="7.639861237024899"><ele>2091.25</ele><time>2026-03-27T12:44:35Z</time></trkpt><trkpt lat="45.93730667893706" lon="7.639838373959288"><ele>2084.0</ele><time>2026-03-27T12:44:36Z</time></trkpt><trkpt lat="45.93720477452666" lon="7.639752459940818"><ele>2084.0</ele><time>2026-03-27T12:44:37Z</time></trkpt><trkpt lat="45.937108535234536" lon="7.639734587094474"><ele>2084.0</ele><time>2026-03-27T12:44:38Z</time></trkpt><trkpt lat="45.93702149337542" lon="7.639677322256067"><ele>2084.0</ele><time>2026-03-27T12:44:39Z</time></trkpt><trkpt lat="45.93691181239477" lon="7.639623142980449"><ele>2084.0</ele><time>2026-03-27T12:44:40Z</time></trkpt><trkpt lat="45.936809740592665" lon="7.63955555071592"><ele>2084.0</ele><time>2026-03-27T12:44:41Z</time></trkpt><trkpt lat="45.9367325838097" lon="7.639440227269249"><ele>2078.5</ele><time>2026-03-27T12:44:42Z</time></trkpt><trkpt lat="45.936651411942755" lon="7.6393279834176795"><ele>2073.0</ele><time>2026-03-27T12:44:43Z</time></trkpt><trkpt lat="45.93655270033601" lon="7.639257931441732"><ele>2067.5</ele><time>2026-03-27T12:44:44Z</time></trkpt><trkpt lat="45.9364314415465" lon="7.639216779109303"><ele>2062.0</ele><time>2026-03-27T12:44:45Z</time></trkpt><trkpt lat="45.93630421939974" lon="7.639144153567509"><ele>2062.0</ele><time>2026-03-27T12:44:46Z</time></trkpt><trkpt lat="45.936194063907" lon="7.639058448149467"><ele>2062.0</ele><time>2026-03-27T12:44:47Z</time></trkpt><trkpt lat="45.9360877283273" lon="7.63894629862002"><ele>2062.0</ele><time>2026-03-27T12:44:48Z</time></trkpt><trkpt lat="45.93597113344799" lon="7.638813584161293"><ele>2062.0</ele><time>2026-03-27T12:44:49Z</time></trkpt><trkpt lat="45.935854600443626" lon="7.63867789460411"><ele>2058.25</ele><time>2026-03-27T12:44:50Z</time></trkpt><trkpt lat="45.935745386841134" lon="7.638532428788121"><ele>2054.5</ele><time>2026-03-27T12:44:51Z</time></trkpt><trkpt lat="45.93566204417038" lon="7.638395090202871"><ele>2050.75</ele><time>2026-03-27T12:44:52Z</time></trkpt><trkpt lat="45.93559809832338" lon="7.638269841233704"><ele>2047.0</ele><time>2026-03-27T12:44:53Z</time></trkpt><trkpt lat="45.9355410926065" lon="7.638142028596537"><ele>2047.0000000000002</ele><time>2026-03-27T12:44:54Z</time></trkpt><trkpt lat="45.93549574048518" lon="7.638030184875797"><ele>2047.0</ele><time>2026-03-27T12:44:55Z</time></trkpt><trkpt lat="45.93544788526947" lon="7.637924062382266"><ele>2047.0</ele><time>2026-03-27T12:44:56Z</time></trkpt><trkpt lat="45.93539907755297" lon="7.6378293094406535"><ele>2047.0</ele><time>2026-03-27T12:44:57Z</time></trkpt><trkpt lat="45.93534389528199" lon="7.637748173458806"><ele>2047.0000000000002</ele><time>2026-03-27T12:44:58Z</time></trkpt><trkpt lat="45.93529400947079" lon="7.637684316942994"><ele>2047.0</ele><time>2026-03-27T12:44:59Z</time></trkpt><trkpt lat="45.93524368828554" lon="7.637608780343208"><ele>2046.5000000000002</ele><time>2026-03-27T12:45:00Z</time></trkpt><trkpt lat="45.93518947136878" lon="7.637546760154632"><ele>2046.0</ele><time>2026-03-27T12:45:01Z</time></trkpt><trkpt lat="45.9351271633112" lon="7.637488660113995"><ele>2045.5</ele><time>2026-03-27T12:45:02Z</time></trkpt><trkpt lat="45.93507066984799" lon="7.637443701081962"><ele>2045.0</ele><time>2026-03-27T12:45:03Z</time></trkpt><trkpt lat="45.93499964802026" lon="7.637356782010192"><ele>2044.5000000000002</ele><time>2026-03-27T12:45:05Z</time></trkpt><trkpt lat="45.9349331685286" lon="7.637249999416278"><ele>2044.0</ele><time>2026-03-27T12:45:07Z</time></trkpt><trkpt lat="45.93487730407519" lon="7.6371441165568"><ele>2043.2</ele><time>2026-03-27T12:45:09Z</time></trkpt><trkpt lat="45.934811233314" lon="7.636999801888484"><ele>2042.4</ele><time>2026-03-27T12:45:11Z</time></trkpt><trkpt lat="45.934771052350605" lon="7.6369161104156245"><ele>2041.6</ele><time>2026-03-27T12:45:12Z</time></trkpt><trkpt lat="45.934722539441786" lon="7.636818542134476"><ele>2040.8</ele><time>2026-03-27T12:45:13Z</time></trkpt><trkpt lat="45.93465084405168" lon="7.636686642777177"><ele>2040.0</ele><time>2026-03-27T12:45:15Z</time></trkpt><trkpt lat="45.93460008033889" lon="7.636524055543734"><ele>2039.0</ele><time>2026-03-27T12:45:17Z</time></trkpt><trkpt lat="45.93456506865622" lon="7.636375479525506"><ele>2038.0</ele><time>2026-03-27T12:45:19Z</time></trkpt><trkpt lat="45.93453906659347" lon="7.636231838179891"><ele>2037.0</ele><time>2026-03-27T12:45:21Z</time></trkpt><trkpt lat="45.9345844753854" lon="7.636163485420296"><ele>2036.0</ele><time>2026-03-27T12:45:22Z</time></trkpt><trkpt lat="45.934510865946805" lon="7.635997028772001"><ele>2035.0</ele><time>2026-03-27T12:45:24Z</time></trkpt><trkpt lat="45.93450264179005" lon="7.635842747116097"><ele>2034.2</ele><time>2026-03-27T12:45:26Z</time></trkpt><trkpt lat="45.93449502042013" lon="7.635677531996752"><ele>2033.4</ele><time>2026-03-27T12:45:28Z</time></trkpt><trkpt lat="45.93448916611371" lon="7.635582662316914"><ele>2032.6</ele><time>2026-03-27T12:45:29Z</time></trkpt><trkpt lat="45.934485433265976" lon="7.635465717321902"><ele>2031.8</ele><time>2026-03-27T12:45:30Z</time></trkpt><trkpt lat="45.93447826402012" lon="7.635371362301325"><ele>2031.0</ele><time>2026-03-27T12:45:31Z</time></trkpt><trkpt lat="45.93463372537129" lon="7.635178544058141"><ele>2030.0</ele><time>2026-03-27T12:45:32Z</time></trkpt><trkpt lat="45.93460855585619" lon="7.6350953814529845"><ele>2029.0</ele><time>2026-03-27T12:45:33Z</time></trkpt><trkpt lat="45.93456604466694" lon="7.634994520194689"><ele>2028.0</ele><time>2026-03-27T12:45:35Z</time></trkpt><trkpt lat="45.93455552108608" lon="7.634894624619857"><ele>2027.0</ele><time>2026-03-27T12:45:36Z</time></trkpt><trkpt lat="45.93453732285056" lon="7.634721878475912"><ele>2026.0</ele><time>2026-03-27T12:45:38Z</time></trkpt><trkpt lat="45.93451093978426" lon="7.634543201072389"><ele>2025.8</ele><time>2026-03-27T12:45:40Z</time></trkpt><trkpt lat="45.93447965039388" lon="7.634411974882801"><ele>2025.6</ele><time>2026-03-27T12:45:42Z</time></trkpt><trkpt lat="45.93440771973205" lon="7.6343190588745315"><ele>2025.4</ele><time>2026-03-27T12:45:43Z</time></trkpt><trkpt lat="45.9343512888392" lon="7.634269783713584"><ele>2025.2</ele><time>2026-03-27T12:45:50Z</time></trkpt><trkpt lat="45.93441951085983" lon="7.6343460211455705"><ele>2025.0</ele><time>2026-03-27T12:45:57Z</time></trkpt><trkpt lat="45.93430991754518" lon="7.634319970391349"><ele>2025.0</ele><time>2026-03-27T12:46:02Z</time></trkpt><trkpt lat="45.9342443297874" lon="7.634302443558926"><ele>2025.0</ele><time>2026-03-27T12:46:11Z</time></trkpt><trkpt lat="45.934182416822296" lon="7.634234851565282"><ele>2025.0</ele><time>2026-03-27T12:46:16Z</time></trkpt><trkpt lat="45.934204896532364" lon="7.63412929226423"><ele>2025.0</ele><time>2026-03-27T12:46:20Z</time></trkpt><trkpt lat="45.9342187081182" lon="7.63404092312572"><ele>2025.0</ele><time>2026-03-27T12:46:27Z</time></trkpt><trkpt lat="45.93420116834395" lon="7.633938556179265"><ele>2025.0</ele><time>2026-03-27T12:46:47Z</time></trkpt><trkpt lat="45.934195973393344" lon="7.633830606392239"><ele>2025.0</ele><time>2026-03-27T12:46:52Z</time></trkpt><trkpt lat="45.93418256852215" lon="7.633717861357169"><ele>2025.3333333333333</ele><time>2026-03-27T12:46:57Z</time></trkpt><trkpt lat="45.93415162269248" lon="7.633624533775941"><ele>2025.6666666666665</ele><time>2026-03-27T12:47:03Z</time></trkpt><trkpt lat="45.93408083097363" lon="7.633428322402459"><ele>2026.0</ele><time>2026-03-27T12:47:16Z</time></trkpt><trkpt lat="45.93412244127632" lon="7.633520438841836"><ele>2026.3333333333333</ele><time>2026-03-27T12:47:31Z</time></trkpt><trkpt lat="45.93417366642966" lon="7.63357562859093"><ele>2026.6666666666665</ele><time>2026-03-27T12:47:44Z</time></trkpt><trkpt lat="45.93414510871153" lon="7.633669142913594"><ele>2027.0</ele><time>2026-03-27T12:47:54Z</time></trkpt><trkpt lat="45.934174690822644" lon="7.633814639139439"><ele>2027.6666666666665</ele><time>2026-03-27T12:47:57Z</time></trkpt><trkpt lat="45.934181836497594" lon="7.633930857566952"><ele>2028.3333333333335</ele><time>2026-03-27T12:48:00Z</time></trkpt><trkpt lat="45.934182686010445" lon="7.634037394576739"><ele>2029.0</ele><time>2026-03-27T12:48:03Z</time></trkpt><trkpt lat="45.93472551340479" lon="7.63179527541043"><ele>2029.0</ele><time>2026-03-27T12:48:04Z</time></trkpt><trkpt lat="45.933980747043876" lon="7.6339008365912076"><ele>2029.0</ele><time>2026-03-27T12:48:05Z</time></trkpt><trkpt lat="45.93392028959944" lon="7.633874930558263"><ele>2029.0</ele><time>2026-03-27T12:48:06Z</time></trkpt><trkpt lat="45.93399410134855" lon="7.633685743966314"><ele>2029.0</ele><time>2026-03-27T12:48:08Z</time></trkpt><trkpt lat="45.93402223339993" lon="7.633541740380517"><ele>2029.0</ele><time>2026-03-27T12:48:17Z</time></trkpt><trkpt lat="45.93409182286811" lon="7.6334630814120805"><ele>2029.0</ele><time>2026-03-27T12:48:20Z</time></trkpt><trkpt lat="45.93403763965226" lon="7.633725980577521"><ele>2029.0000000000002</ele><time>2026-03-27T12:48:27Z</time></trkpt><trkpt lat="45.934064650578634" lon="7.6336439818942345"><ele>2029.0</ele><time>2026-03-27T12:48:28Z</time></trkpt><trkpt lat="45.93412420615408" lon="7.633467377391996"><ele>2029.0</ele><time>2026-03-27T12:48:29Z</time></trkpt><trkpt lat="45.9341719485613" lon="7.63339130747977"><ele>2029.0</ele><time>2026-03-27T12:48:30Z</time></trkpt><trkpt lat="45.934180619567314" lon="7.63348160843514"><ele>2029.0000000000002</ele><time>2026-03-27T12:48:46Z</time></trkpt><trkpt lat="45.934120588740385" lon="7.633578836808618"><ele>2029.0</ele><time>2026-03-27T12:48:59Z</time></trkpt><trkpt lat="45.93412066554084" lon="7.63373901725577"><ele>2029.0</ele><time>2026-03-27T12:49:40Z</time></trkpt><trkpt lat="45.93418531783545" lon="7.633764247356116"><ele>2029.0</ele><time>2026-03-27T12:49:46Z</time></trkpt><trkpt lat="45.93422115054752" lon="7.633888725246023"><ele>2029.0</ele><time>2026-03-27T12:49:47Z</time></trkpt><trkpt lat="45.93430109716869" lon="7.634059618355898"><ele>2029.0</ele><time>2026-03-27T12:49:48Z</time></trkpt><trkpt lat="45.93441452013559" lon="7.6340806311144895"><ele>2029.0</ele><time>2026-03-27T12:50:02Z</time></trkpt><trkpt lat="45.934437626191816" lon="7.6341891068032135"><ele>2028.5000000000002</ele><time>2026-03-27T12:50:04Z</time></trkpt><trkpt lat="45.934461798622586" lon="7.634275707760171"><ele>2028.0</ele><time>2026-03-27T12:50:06Z</time></trkpt><trkpt lat="45.93449559601866" lon="7.634371113347709"><ele>2027.5</ele><time>2026-03-27T12:50:08Z</time></trkpt><trkpt lat="45.93452757894753" lon="7.634482547204494"><ele>2027.0</ele><time>2026-03-27T12:50:10Z</time></trkpt><trkpt lat="45.93455987744779" lon="7.634576621875345"><ele>2026.5000000000002</ele><time>2026-03-27T12:50:12Z</time></trkpt><trkpt lat="45.93458782404722" lon="7.634673808603486"><ele>2026.0</ele><time>2026-03-27T12:50:14Z</time></trkpt><trkpt lat="45.93462144573991" lon="7.634780553802838"><ele>2026.0</ele><time>2026-03-27T12:50:16Z</time></trkpt><trkpt lat="45.9346498432288" lon="7.634877884227727"><ele>2026.0000000000002</ele><time>2026-03-27T12:50:18Z</time></trkpt><trkpt lat="45.93468257184053" lon="7.634970076582973"><ele>2026.0</ele><time>2026-03-27T12:50:20Z</time></trkpt><trkpt lat="45.93471208441282" lon="7.635074931278087"><ele>2026.0</ele><time>2026-03-27T12:50:22Z</time></trkpt><trkpt lat="45.934746078360135" lon="7.635176538620011"><ele>2026.0000000000002</ele><time>2026-03-27T12:50:24Z</time></trkpt><trkpt lat="45.93477408053438" lon="7.635269993148351"><ele>2026.0</ele><time>2026-03-27T12:50:26Z</time></trkpt><trkpt lat="45.9348042825665" lon="7.6353668498614375"><ele>2026.0</ele><time>2026-03-27T12:50:28Z</time></trkpt><trkpt lat="45.93484036181825" lon="7.635474891833973"><ele>2026.8333333333335</ele><time>2026-03-27T12:50:30Z</time></trkpt><trkpt lat="45.9348673336335" lon="7.635565573419697"><ele>2027.6666666666667</ele><time>2026-03-27T12:50:32Z</time></trkpt><trkpt lat="45.93489725686193" lon="7.635652593297549"><ele>2028.5</ele><time>2026-03-27T12:50:34Z</time></trkpt><trkpt lat="45.93493321603521" lon="7.635769765284622"><ele>2029.3333333333335</ele><time>2026-03-27T12:50:36Z</time></trkpt><trkpt lat="45.93496476117365" lon="7.635866252687938"><ele>2030.1666666666667</ele><time>2026-03-27T12:50:38Z</time></trkpt><trkpt lat="45.93499133291216" lon="7.635957100593751"><ele>2031.0</ele><time>2026-03-27T12:50:40Z</time></trkpt><trkpt lat="45.93502858014318" lon="7.636061956591007"><ele>2032.714285714286</ele><time>2026-03-27T12:50:42Z</time></trkpt><trkpt lat="45.93506049156174" lon="7.6361627974012745"><ele>2034.4285714285716</ele><time>2026-03-27T12:50:44Z</time></trkpt><trkpt lat="45.935090459406446" lon="7.636257665314537"><ele>2036.142857142857</ele><time>2026-03-27T12:50:46Z</time></trkpt><trkpt lat="45.93512283200814" lon="7.6363599789999785"><ele>2037.857142857143</ele><time>2026-03-27T12:50:48Z</time></trkpt><trkpt lat="45.93515538319448" lon="7.636460243642373"><ele>2039.5714285714284</ele><time>2026-03-27T12:50:50Z</time></trkpt><trkpt lat="45.935183396288174" lon="7.636551073586369"><ele>2041.285714285714</ele><time>2026-03-27T12:50:52Z</time></trkpt><trkpt lat="45.93522026856164" lon="7.636644086763217"><ele>2042.9999999999998</ele><time>2026-03-27T12:50:54Z</time></trkpt><trkpt lat="45.935249730949735" lon="7.636752114514361"><ele>2043.0</ele><time>2026-03-27T12:50:56Z</time></trkpt><trkpt lat="45.93527914046843" lon="7.636841606306742"><ele>2043.0</ele><time>2026-03-27T12:50:58Z</time></trkpt><trkpt lat="45.93530967334113" lon="7.636942636373521"><ele>2043.0</ele><time>2026-03-27T12:51:00Z</time></trkpt><trkpt lat="45.93534566406622" lon="7.637048929803461"><ele>2043.0</ele><time>2026-03-27T12:51:02Z</time></trkpt><trkpt lat="45.93537663392841" lon="7.637147638425592"><ele>2043.0</ele><time>2026-03-27T12:51:04Z</time></trkpt><trkpt lat="45.935403790794744" lon="7.637240800898955"><ele>2043.0</ele><time>2026-03-27T12:51:06Z</time></trkpt><trkpt lat="45.93543743011393" lon="7.637344637299803"><ele>2043.1428571428569</ele><time>2026-03-27T12:51:08Z</time></trkpt><trkpt lat="45.935469270448856" lon="7.63744836658669"><ele>2043.2857142857142</ele><time>2026-03-27T12:51:10Z</time></trkpt><trkpt lat="45.93550254206019" lon="7.637540268687578"><ele>2043.4285714285713</ele><time>2026-03-27T12:51:12Z</time></trkpt><trkpt lat="45.93553209836729" lon="7.637641936442666"><ele>2043.5714285714284</ele><time>2026-03-27T12:51:14Z</time></trkpt><trkpt lat="45.93556596601985" lon="7.6377447222993675"><ele>2043.7142857142858</ele><time>2026-03-27T12:51:16Z</time></trkpt><trkpt lat="45.93559321491318" lon="7.637830031717983"><ele>2043.857142857143</ele><time>2026-03-27T12:51:18Z</time></trkpt><trkpt lat="45.93562768959014" lon="7.637929965803558"><ele>2044.0</ele><time>2026-03-27T12:51:20Z</time></trkpt><trkpt lat="45.93566102246379" lon="7.6380378022245194"><ele>2044.5000000000002</ele><time>2026-03-27T12:51:22Z</time></trkpt><trkpt lat="45.935688919047784" lon="7.638132132972626"><ele>2045.0</ele><time>2026-03-27T12:51:24Z</time></trkpt><trkpt lat="45.93572083454941" lon="7.638228326394202"><ele>2045.5</ele><time>2026-03-27T12:51:26Z</time></trkpt><trkpt lat="45.935757140332605" lon="7.638331422132219"><ele>2046.0</ele><time>2026-03-27T12:51:28Z</time></trkpt><trkpt lat="45.935787386789904" lon="7.638431784374046"><ele>2046.5000000000002</ele><time>2026-03-27T12:51:30Z</time></trkpt><trkpt lat="45.93581646747934" lon="7.638524634778363"><ele>2047.0</ele><time>2026-03-27T12:51:32Z</time></trkpt><trkpt lat="45.935852101880315" lon="7.638629083686302"><ele>2048.714285714286</ele><time>2026-03-27T12:51:34Z</time></trkpt><trkpt lat="45.935881961457305" lon="7.638729241516639"><ele>2050.4285714285716</ele><time>2026-03-27T12:51:36Z</time></trkpt><trkpt lat="45.93591118515818" lon="7.638823525774161"><ele>2052.1428571428573</ele><time>2026-03-27T12:51:38Z</time></trkpt><trkpt lat="45.935943228786805" lon="7.638925111462887"><ele>2053.857142857143</ele><time>2026-03-27T12:51:40Z</time></trkpt><trkpt lat="45.935975960843756" lon="7.63903069248625"><ele>2055.5714285714284</ele><time>2026-03-27T12:51:42Z</time></trkpt><trkpt lat="45.93600597457042" lon="7.6391217879568245"><ele>2057.2857142857147</ele><time>2026-03-27T12:51:44Z</time></trkpt><trkpt lat="45.93603485289688" lon="7.639219330538378"><ele>2059.0</ele><time>2026-03-27T12:51:46Z</time></trkpt><trkpt lat="45.936068251829866" lon="7.639326046950754"><ele>2059.5</ele><time>2026-03-27T12:51:48Z</time></trkpt><trkpt lat="45.93609770437976" lon="7.6394200169675965"><ele>2060.0</ele><time>2026-03-27T12:51:50Z</time></trkpt><trkpt lat="45.93613078093811" lon="7.6395194770944475"><ele>2060.5</ele><time>2026-03-27T12:51:52Z</time></trkpt><trkpt lat="45.93616525719733" lon="7.639623081345034"><ele>2061.0</ele><time>2026-03-27T12:51:54Z</time></trkpt><trkpt lat="45.93619618020597" lon="7.63972455418592"><ele>2061.5</ele><time>2026-03-27T12:51:56Z</time></trkpt><trkpt lat="45.93622650956717" lon="7.6398105085285115"><ele>2062.0</ele><time>2026-03-27T12:51:58Z</time></trkpt><trkpt lat="45.936259953713375" lon="7.639913563909801"><ele>2062.714285714286</ele><time>2026-03-27T12:52:00Z</time></trkpt><trkpt lat="45.93629299456394" lon="7.640017929199651"><ele>2063.428571428571</ele><time>2026-03-27T12:52:02Z</time></trkpt><trkpt lat="45.936322139059186" lon="7.640108304672543"><ele>2064.142857142857</ele><time>2026-03-27T12:52:04Z</time></trkpt><trkpt lat="45.93635232983752" lon="7.640207909829513"><ele>2064.8571428571427</ele><time>2026-03-27T12:52:06Z</time></trkpt><trkpt lat="45.93638769502266" lon="7.64030852177419"><ele>2065.5714285714284</ele><time>2026-03-27T12:52:08Z</time></trkpt><trkpt lat="45.93641426144619" lon="7.640401472236921"><ele>2066.285714285714</ele><time>2026-03-27T12:52:10Z</time></trkpt><trkpt lat="45.93644534277367" lon="7.640492234831558"><ele>2067.0</ele><time>2026-03-27T12:52:12Z</time></trkpt><trkpt lat="45.93647981474291" lon="7.640604550983545"><ele>2068.1428571428573</ele><time>2026-03-27T12:52:14Z</time></trkpt><trkpt lat="45.936511751734216" lon="7.640700771674374"><ele>2069.285714285714</ele><time>2026-03-27T12:52:16Z</time></trkpt><trkpt lat="45.93654190515518" lon="7.64079407548837"><ele>2070.4285714285716</ele><time>2026-03-27T12:52:18Z</time></trkpt><trkpt lat="45.93657639547347" lon="7.640896127325622"><ele>2071.5714285714284</ele><time>2026-03-27T12:52:20Z</time></trkpt><trkpt lat="45.93660165506985" lon="7.640988784086765"><ele>2072.714285714286</ele><time>2026-03-27T12:52:22Z</time></trkpt><trkpt lat="45.936631518114744" lon="7.641070553068957"><ele>2073.857142857143</ele><time>2026-03-27T12:52:24Z</time></trkpt><trkpt lat="45.93666136021445" lon="7.641159414942886"><ele>2075.0</ele><time>2026-03-27T12:52:26Z</time></trkpt><trkpt lat="45.936691262693635" lon="7.641249062302651"><ele>2083.1666666666665</ele><time>2026-03-27T12:52:28Z</time></trkpt><trkpt lat="45.93672523290156" lon="7.641367144573093"><ele>2091.333333333333</ele><time>2026-03-27T12:52:31Z</time></trkpt><trkpt lat="45.93675137945921" lon="7.641453162952327"><ele>2099.5</ele><time>2026-03-27T12:52:33Z</time></trkpt><trkpt lat="45.936783684229226" lon="7.641555828272349"><ele>2107.6666666666665</ele><time>2026-03-27T12:52:35Z</time></trkpt><trkpt lat="45.93682258116359" lon="7.64167538963243"><ele>2115.8333333333335</ele><time>2026-03-27T12:52:38Z</time></trkpt><trkpt lat="45.93685144012628" lon="7.641767084402916"><ele>2124.0</ele><time>2026-03-27T12:52:40Z</time></trkpt><trkpt lat="45.93687564199746" lon="7.641858187540039"><ele>2128.3333333333335</ele><time>2026-03-27T12:52:42Z</time></trkpt><trkpt lat="45.93691494526649" lon="7.641987428180661"><ele>2132.6666666666665</ele><time>2026-03-27T12:52:45Z</time></trkpt><trkpt lat="45.93694394778119" lon="7.642078183332807"><ele>2137.0</ele><time>2026-03-27T12:52:47Z</time></trkpt><trkpt lat="45.93698088364571" lon="7.642191372020874"><ele>2141.333333333333</ele><time>2026-03-27T12:52:50Z</time></trkpt><trkpt lat="45.93701105020745" lon="7.642286275128948"><ele>2145.6666666666665</ele><time>2026-03-27T12:52:52Z</time></trkpt><trkpt lat="45.93704175902199" lon="7.642381968659293"><ele>2150.0</ele><time>2026-03-27T12:52:54Z</time></trkpt><trkpt lat="45.93707053235401" lon="7.642464918957892"><ele>2150.0</ele><time>2026-03-27T12:52:56Z</time></trkpt><trkpt lat="45.937097252779154" lon="7.642553025571483"><ele>2150.0</ele><time>2026-03-27T12:52:58Z</time></trkpt><trkpt lat="45.93712988512455" lon="7.64265160504871"><ele>2150.0</ele><time>2026-03-27T12:53:00Z</time></trkpt><trkpt lat="45.93716621440919" lon="7.642773965933011"><ele>2150.0</ele><time>2026-03-27T12:53:03Z</time></trkpt><trkpt lat="45.93719847126589" lon="7.642868771289041"><ele>2150.0</ele><time>2026-03-27T12:53:05Z</time></trkpt><trkpt lat="45.93722857873891" lon="7.642962406887053"><ele>2150.0</ele><time>2026-03-27T12:53:07Z</time></trkpt><trkpt lat="45.937265056326666" lon="7.643078322432985"><ele>2154.0</ele><time>2026-03-27T12:53:10Z</time></trkpt><trkpt lat="45.93730062890295" lon="7.643176213478887"><ele>2158.0</ele><time>2026-03-27T12:53:12Z</time></trkpt><trkpt lat="45.93732766622417" lon="7.64326484826162"><ele>2162.0</ele><time>2026-03-27T12:53:14Z</time></trkpt><trkpt lat="45.937362678824286" lon="7.643379047417279"><ele>2166.0</ele><time>2026-03-27T12:53:17Z</time></trkpt><trkpt lat="45.9373919372111" lon="7.643474779077843"><ele>2170.0</ele><time>2026-03-27T12:53:19Z</time></trkpt><trkpt lat="45.937428199355594" lon="7.643591689670945"><ele>2174.0</ele><time>2026-03-27T12:53:22Z</time></trkpt><trkpt lat="45.93745698635854" lon="7.643674591442233"><ele>2178.1666666666665</ele><time>2026-03-27T12:53:24Z</time></trkpt><trkpt lat="45.937486018158694" lon="7.643766035215407"><ele>2182.333333333333</ele><time>2026-03-27T12:53:26Z</time></trkpt><trkpt lat="45.93752047261778" lon="7.643879489483002"><ele>2186.5</ele><time>2026-03-27T12:53:29Z</time></trkpt><trkpt lat="45.93754978280972" lon="7.6439675224840355"><ele>2190.6666666666665</ele><time>2026-03-27T12:53:31Z</time></trkpt><trkpt lat="45.93757980351401" lon="7.644049540643103"><ele>2194.8333333333335</ele><time>2026-03-27T12:53:33Z</time></trkpt><trkpt lat="45.93761824383817" lon="7.644164654862786"><ele>2199.0</ele><time>2026-03-27T12:53:36Z</time></trkpt><trkpt lat="45.937651599823745" lon="7.64426655168992"><ele>2202.6666666666665</ele><time>2026-03-27T12:53:38Z</time></trkpt><trkpt lat="45.93769133289734" lon="7.6443892397487785"><ele>2206.3333333333335</ele><time>2026-03-27T12:53:41Z</time></trkpt><trkpt lat="45.93771847125928" lon="7.644476873359671"><ele>2210.0</ele><time>2026-03-27T12:53:43Z</time></trkpt><trkpt lat="45.937746750087584" lon="7.644563686065979"><ele>2213.666666666667</ele><time>2026-03-27T12:53:45Z</time></trkpt><trkpt lat="45.93778356920387" lon="7.644687692812727"><ele>2217.3333333333335</ele><time>2026-03-27T12:53:48Z</time></trkpt><trkpt lat="45.937811420527794" lon="7.644774162601055"><ele>2221.0</ele><time>2026-03-27T12:53:50Z</time></trkpt><trkpt lat="45.937837887519336" lon="7.644858532358639"><ele>2224.714285714286</ele><time>2026-03-27T12:53:52Z</time></trkpt><trkpt lat="45.937864683809025" lon="7.644948358087521"><ele>2228.4285714285716</ele><time>2026-03-27T12:53:54Z</time></trkpt><trkpt lat="45.937894751119074" lon="7.645043071091228"><ele>2232.142857142857</ele><time>2026-03-27T12:53:56Z</time></trkpt><trkpt lat="45.937922801197644" lon="7.645137920523537"><ele>2235.857142857143</ele><time>2026-03-27T12:53:58Z</time></trkpt><trkpt lat="45.937949362725206" lon="7.6452266965719655"><ele>2239.5714285714284</ele><time>2026-03-27T12:54:00Z</time></trkpt><trkpt lat="45.93798025033554" lon="7.645315198177782"><ele>2243.285714285714</ele><time>2026-03-27T12:54:02Z</time></trkpt><trkpt lat="45.93801370117394" lon="7.645426715953972"><ele>2247.0</ele><time>2026-03-27T12:54:04Z</time></trkpt><trkpt lat="45.938044457521165" lon="7.64551885296145"><ele>2249.8571428571427</ele><time>2026-03-27T12:54:06Z</time></trkpt><trkpt lat="45.9380720766432" lon="7.645613175515238"><ele>2252.714285714286</ele><time>2026-03-27T12:54:08Z</time></trkpt><trkpt lat="45.93810425984905" lon="7.645711499667795"><ele>2255.5714285714284</ele><time>2026-03-27T12:54:10Z</time></trkpt><trkpt lat="45.938135260948606" lon="7.645810730258534"><ele>2258.4285714285716</ele><time>2026-03-27T12:54:12Z</time></trkpt><trkpt lat="45.93816497404559" lon="7.645902748585012"><ele>2261.285714285714</ele><time>2026-03-27T12:54:14Z</time></trkpt><trkpt lat="45.93819198135261" lon="7.645995213653618"><ele>2264.142857142857</ele><time>2026-03-27T12:54:16Z</time></trkpt><trkpt lat="45.93823104838838" lon="7.646105608920516"><ele>2267.0</ele><time>2026-03-27T12:54:18Z</time></trkpt><trkpt lat="45.93825924106583" lon="7.6461989901599825"><ele>2268.5</ele><time>2026-03-27T12:54:20Z</time></trkpt><trkpt lat="45.93829121559925" lon="7.646298642747859"><ele>2270.0</ele><time>2026-03-27T12:54:22Z</time></trkpt><trkpt lat="45.9383278561104" lon="7.646405648028726"><ele>2271.5</ele><time>2026-03-27T12:54:24Z</time></trkpt><trkpt lat="45.93835692650253" lon="7.646498806819788"><ele>2273.0</ele><time>2026-03-27T12:54:26Z</time></trkpt><trkpt lat="45.93838754756937" lon="7.6465951658199875"><ele>2274.5</ele><time>2026-03-27T12:54:28Z</time></trkpt><trkpt lat="45.93842027199283" lon="7.646694861554959"><ele>2276.0</ele><time>2026-03-27T12:54:30Z</time></trkpt><trkpt lat="45.938451815831336" lon="7.646797239809233"><ele>2278.714285714286</ele><time>2026-03-27T12:54:32Z</time></trkpt><trkpt lat="45.93847873276203" lon="7.646882061421053"><ele>2281.4285714285716</ele><time>2026-03-27T12:54:34Z</time></trkpt><trkpt lat="45.93850838245117" lon="7.646965595236427"><ele>2284.142857142857</ele><time>2026-03-27T12:54:36Z</time></trkpt><trkpt lat="45.938537036464865" lon="7.647060320017932"><ele>2286.857142857143</ele><time>2026-03-27T12:54:38Z</time></trkpt><trkpt lat="45.93856386068296" lon="7.647150698546576"><ele>2289.5714285714284</ele><time>2026-03-27T12:54:40Z</time></trkpt><trkpt lat="45.93859002535762" lon="7.647235706722526"><ele>2292.285714285714</ele><time>2026-03-27T12:54:42Z</time></trkpt><trkpt lat="45.9386187267115" lon="7.647323253814468"><ele>2295.0</ele><time>2026-03-27T12:54:44Z</time></trkpt><trkpt lat="45.93864557788182" lon="7.647407566855558"><ele>2297.8333333333335</ele><time>2026-03-27T12:54:46Z</time></trkpt><trkpt lat="45.93867264967037" lon="7.64749334101696"><ele>2300.6666666666665</ele><time>2026-03-27T12:54:48Z</time></trkpt><trkpt lat="45.93870082990144" lon="7.647578779943076"><ele>2303.5</ele><time>2026-03-27T12:54:50Z</time></trkpt><trkpt lat="45.93872981302377" lon="7.64767003999341"><ele>2306.333333333333</ele><time>2026-03-27T12:54:52Z</time></trkpt><trkpt lat="45.93876987448883" lon="7.647790238577877"><ele>2309.1666666666665</ele><time>2026-03-27T12:54:55Z</time></trkpt><trkpt lat="45.9387987720474" lon="7.647882864982916"><ele>2312.0</ele><time>2026-03-27T12:54:57Z</time></trkpt><trkpt lat="45.93883524528678" lon="7.647998919356343"><ele>2318.6666666666665</ele><time>2026-03-27T12:55:00Z</time></trkpt><trkpt lat="45.93886082731092" lon="7.64808185767045"><ele>2325.333333333333</ele><time>2026-03-27T12:55:02Z</time></trkpt><trkpt lat="45.93890103226009" lon="7.648206309428042"><ele>2332.0</ele><time>2026-03-27T12:55:05Z</time></trkpt><trkpt lat="45.93893835123404" lon="7.648328313342617"><ele>2338.6666666666665</ele><time>2026-03-27T12:55:08Z</time></trkpt><trkpt lat="45.93896292417629" lon="7.648412831689135"><ele>2345.3333333333335</ele><time>2026-03-27T12:55:10Z</time></trkpt><trkpt lat="45.939002668991115" lon="7.648527853235252"><ele>2352.0</ele><time>2026-03-27T12:55:13Z</time></trkpt><trkpt lat="45.939042572144" lon="7.648645558809624"><ele>2356.285714285714</ele><time>2026-03-27T12:55:16Z</time></trkpt><trkpt lat="45.93907072294666" lon="7.648743656645123"><ele>2360.5714285714284</ele><time>2026-03-27T12:55:18Z</time></trkpt><trkpt lat="45.939100878885114" lon="7.648830852457643"><ele>2364.857142857143</ele><time>2026-03-27T12:55:20Z</time></trkpt><trkpt lat="45.93913156889741" lon="7.648923582372818"><ele>2369.142857142857</ele><time>2026-03-27T12:55:22Z</time></trkpt><trkpt lat="45.93916016332964" lon="7.649008423235956"><ele>2373.4285714285716</ele><time>2026-03-27T12:55:24Z</time></trkpt><trkpt lat="45.93919728177885" lon="7.649115914557378"><ele>2377.714285714286</ele><time>2026-03-27T12:55:26Z</time></trkpt><trkpt lat="45.939224708326165" lon="7.6492052669800925"><ele>2382.0</ele><time>2026-03-27T12:55:28Z</time></trkpt><trkpt lat="45.93925658309158" lon="7.6493049236980175"><ele>2382.0</ele><time>2026-03-27T12:55:30Z</time></trkpt><trkpt lat="45.93928509418147" lon="7.649399438565334"><ele>2382.0</ele><time>2026-03-27T12:55:32Z</time></trkpt><trkpt lat="45.93931284037222" lon="7.649496125954125"><ele>2382.0</ele><time>2026-03-27T12:55:34Z</time></trkpt><trkpt lat="45.939346446573" lon="7.649603508885043"><ele>2382.0</ele><time>2026-03-27T12:55:36Z</time></trkpt><trkpt lat="45.93937808018066" lon="7.649696705567637"><ele>2382.0</ele><time>2026-03-27T12:55:38Z</time></trkpt><trkpt lat="45.9394073431257" lon="7.649794214516272"><ele>2382.0</ele><time>2026-03-27T12:55:40Z</time></trkpt><trkpt lat="45.939440128726346" lon="7.649893175234018"><ele>2382.0</ele><time>2026-03-27T12:55:42Z</time></trkpt><trkpt lat="45.939470875034" lon="7.649991535431977"><ele>2382.1428571428573</ele><time>2026-03-27T12:55:44Z</time></trkpt><trkpt lat="45.939504117780515" lon="7.650087295020673"><ele>2382.285714285714</ele><time>2026-03-27T12:55:46Z</time></trkpt><trkpt lat="45.939535476052384" lon="7.650188934317973"><ele>2382.4285714285716</ele><time>2026-03-27T12:55:48Z</time></trkpt><trkpt lat="45.939566495373946" lon="7.650287096285898"><ele>2382.5714285714284</ele><time>2026-03-27T12:55:50Z</time></trkpt><trkpt lat="45.9395957101528" lon="7.650384993097494"><ele>2382.714285714286</ele><time>2026-03-27T12:55:52Z</time></trkpt><trkpt lat="45.93963141050722" lon="7.650484014409041"><ele>2382.857142857143</ele><time>2026-03-27T12:55:54Z</time></trkpt><trkpt lat="45.939648060868606" lon="7.650579136340054"><ele>2383.0</ele><time>2026-03-27T12:55:56Z</time></trkpt><trkpt lat="45.93968522894092" lon="7.650675254018931"><ele>2385.8333333333335</ele><time>2026-03-27T12:55:58Z</time></trkpt><trkpt lat="45.93973996692468" lon="7.650811545868199"><ele>2388.666666666667</ele><time>2026-03-27T12:56:01Z</time></trkpt><trkpt lat="45.939764914351265" lon="7.6509234872028715"><ele>2391.5</ele><time>2026-03-27T12:56:03Z</time></trkpt><trkpt lat="45.9397973234343" lon="7.651021350846186"><ele>2394.3333333333335</ele><time>2026-03-27T12:56:05Z</time></trkpt><trkpt lat="45.939826003583555" lon="7.651122042593626"><ele>2397.1666666666665</ele><time>2026-03-27T12:56:07Z</time></trkpt><trkpt lat="45.93985993941004" lon="7.651219888739615"><ele>2400.0</ele><time>2026-03-27T12:56:09Z</time></trkpt><trkpt lat="45.93988850388839" lon="7.651319590087089"><ele>2402.3333333333335</ele><time>2026-03-27T12:56:11Z</time></trkpt><trkpt lat="45.93992875360758" lon="7.651417077395183"><ele>2404.6666666666665</ele><time>2026-03-27T12:56:13Z</time></trkpt><trkpt lat="45.93997724025265" lon="7.651509907240666"><ele>2407.0</ele><time>2026-03-27T12:56:15Z</time></trkpt><trkpt lat="45.93998096378622" lon="7.651621907289184"><ele>2409.333333333333</ele><time>2026-03-27T12:56:17Z</time></trkpt><trkpt lat="45.94001680196516" lon="7.651723467959481"><ele>2411.6666666666665</ele><time>2026-03-27T12:56:19Z</time></trkpt><trkpt lat="45.940055535831505" lon="7.651829036743792"><ele>2414.0</ele><time>2026-03-27T12:56:21Z</time></trkpt><trkpt lat="45.94007355498052" lon="7.6519195989697675"><ele>2420.285714285714</ele><time>2026-03-27T12:56:23Z</time></trkpt><trkpt lat="45.94010728040613" lon="7.652010585921035"><ele>2426.5714285714284</ele><time>2026-03-27T12:56:25Z</time></trkpt><trkpt lat="45.94014127708614" lon="7.652088978000114"><ele>2432.857142857143</ele><time>2026-03-27T12:56:27Z</time></trkpt><trkpt lat="45.94017701579568" lon="7.652174556860262"><ele>2439.142857142857</ele><time>2026-03-27T12:56:29Z</time></trkpt><trkpt lat="45.94021037031156" lon="7.652271117656747"><ele>2445.4285714285716</ele><time>2026-03-27T12:56:31Z</time></trkpt><trkpt lat="45.940236472667074" lon="7.652384448602639"><ele>2451.714285714286</ele><time>2026-03-27T12:56:34Z</time></trkpt><trkpt lat="45.94026403759108" lon="7.652466598984821"><ele>2458.0</ele><time>2026-03-27T12:56:36Z</time></trkpt><trkpt lat="45.94029775092569" lon="7.652588687784916"><ele>2458.0</ele><time>2026-03-27T12:56:39Z</time></trkpt><trkpt lat="45.94032754781656" lon="7.652670192567223"><ele>2458.0</ele><time>2026-03-27T12:56:41Z</time></trkpt><trkpt lat="45.940363863165935" lon="7.652786986789329"><ele>2458.0</ele><time>2026-03-27T12:56:44Z</time></trkpt><trkpt lat="45.94040101518774" lon="7.6529038401186975"><ele>2458.0</ele><time>2026-03-27T12:56:47Z</time></trkpt><trkpt lat="45.9404367196704" lon="7.653015505258704"><ele>2458.0</ele><time>2026-03-27T12:56:50Z</time></trkpt><trkpt lat="45.940465153032854" lon="7.653098143481018"><ele>2458.0</ele><time>2026-03-27T12:56:52Z</time></trkpt><trkpt lat="45.9405006920977" lon="7.653213037633109"><ele>2464.666666666667</ele><time>2026-03-27T12:56:55Z</time></trkpt><trkpt lat="45.94053384246642" lon="7.653328127090608"><ele>2471.3333333333335</ele><time>2026-03-27T12:56:58Z</time></trkpt><trkpt lat="45.940570358022946" lon="7.653441390577928"><ele>2478.0</ele><time>2026-03-27T12:57:01Z</time></trkpt><trkpt lat="45.940605737570934" lon="7.653554072540568"><ele>2484.6666666666665</ele><time>2026-03-27T12:57:04Z</time></trkpt><trkpt lat="45.94063052247008" lon="7.653645371812546"><ele>2491.333333333333</ele><time>2026-03-27T12:57:06Z</time></trkpt><trkpt lat="45.940669029457304" lon="7.65376681372578"><ele>2498.0</ele><time>2026-03-27T12:57:09Z</time></trkpt><trkpt lat="45.94070886852887" lon="7.653879193870593"><ele>2504.1666666666665</ele><time>2026-03-27T12:57:12Z</time></trkpt><trkpt lat="45.94073579875427" lon="7.653988214219628"><ele>2510.333333333333</ele><time>2026-03-27T12:57:14Z</time></trkpt><trkpt lat="45.94076758428488" lon="7.6540798279574265"><ele>2516.5</ele><time>2026-03-27T12:57:16Z</time></trkpt><trkpt lat="45.94080138274514" lon="7.654177923843213"><ele>2522.6666666666665</ele><time>2026-03-27T12:57:18Z</time></trkpt><trkpt lat="45.940832788922364" lon="7.654266519263135"><ele>2528.8333333333335</ele><time>2026-03-27T12:57:20Z</time></trkpt><trkpt lat="45.94084523023015" lon="7.6543648088777"><ele>2535.0</ele><time>2026-03-27T12:57:23Z</time></trkpt><trkpt lat="45.940911885293495" lon="7.6544467526927065"><ele>2536.6666666666665</ele><time>2026-03-27T12:57:30Z</time></trkpt><trkpt lat="45.94099793942766" lon="7.6545029558118225"><ele>2538.3333333333335</ele><time>2026-03-27T12:57:48Z</time></trkpt><trkpt lat="45.94107596792597" lon="7.65454164095578"><ele>2540.0</ele><time>2026-03-27T12:57:57.023Z</time></trkpt><trkpt lat="45.941121693787366" lon="7.6546139714522585"><ele>2541.666666666667</ele><time>2026-03-27T12:58:05Z</time></trkpt><trkpt lat="45.94117484648006" lon="7.654680948466296"><ele>2543.3333333333335</ele><time>2026-03-27T12:58:06Z</time></trkpt><trkpt lat="45.94113140294852" lon="7.654762007198629"><ele>2545.0</ele><time>2026-03-27T12:58:07Z</time></trkpt><trkpt lat="45.94119111463651" lon="7.654912244201385"><ele>2545.0</ele><time>2026-03-27T12:58:08Z</time></trkpt><trkpt lat="45.94112934087156" lon="7.65501164083752"><ele>2545.0</ele><time>2026-03-27T12:58:25.999Z</time></trkpt><trkpt lat="45.94118184560037" lon="7.655139379017071"><ele>2545.0</ele><time>2026-03-27T12:58:48.999Z</time></trkpt><trkpt lat="45.94124571026934" lon="7.655162500626963"><ele>2545.0</ele><time>2026-03-27T12:58:57.999Z</time></trkpt><trkpt lat="45.94129270018498" lon="7.655241130799287"><ele>2545.0</ele><time>2026-03-27T12:59:03.999Z</time></trkpt><trkpt lat="45.94133886319698" lon="7.655318923816704"><ele>2545.0</ele><time>2026-03-27T12:59:09.999Z</time></trkpt><trkpt lat="45.941385906667186" lon="7.655394880675061"><ele>2545.1428571428573</ele><time>2026-03-27T12:59:16.999Z</time></trkpt><trkpt lat="45.941424863815364" lon="7.655474063928776"><ele>2545.285714285714</ele><time>2026-03-27T12:59:22.999Z</time></trkpt><trkpt lat="45.94147252656183" lon="7.655540177585719"><ele>2545.4285714285716</ele><time>2026-03-27T12:59:27.999Z</time></trkpt><trkpt lat="45.941516825463026" lon="7.655623688303159"><ele>2545.5714285714284</ele><time>2026-03-27T12:59:34.999Z</time></trkpt><trkpt lat="45.94156570900569" lon="7.655693741237014"><ele>2545.714285714286</ele><time>2026-03-27T12:59:40.999Z</time></trkpt><trkpt lat="45.941610593106404" lon="7.655765994520357"><ele>2545.8571428571427</ele><time>2026-03-27T12:59:47.999Z</time></trkpt><trkpt lat="45.94167964300908" lon="7.655738464663062"><ele>2546.0</ele><time>2026-03-27T12:59:54.999Z</time></trkpt><trkpt lat="45.94172760074058" lon="7.655812788671972"><ele>2546.0</ele><time>2026-03-27T13:00:02.999Z</time></trkpt><trkpt lat="45.941666600738635" lon="7.655751848836493"><ele>2546.0</ele><time>2026-03-27T13:06:17Z</time></trkpt><trkpt lat="45.94160963101127" lon="7.655701118983122"><ele>2546.0</ele><time>2026-03-27T13:06:21.001Z</time></trkpt><trkpt lat="45.9415390738273" lon="7.655683193289058"><ele>2546.0</ele><time>2026-03-27T13:06:27.001Z</time></trkpt><trkpt lat="45.94155822091841" lon="7.655801127702782"><ele>2546.0</ele><time>2026-03-27T13:07:10.016Z</time></trkpt><trkpt lat="45.9419627066927" lon="7.655789905125397"><ele>2534.0</ele><time>2026-03-27T13:12:10.022Z</time></trkpt><trkpt lat="45.941911771649195" lon="7.655858457521566"><ele>2534.0</ele><time>2026-03-27T13:12:29.999Z</time></trkpt><trkpt lat="45.94185429797475" lon="7.655820305646775"><ele>2534.0</ele><time>2026-03-27T13:12:43Z</time></trkpt><trkpt lat="45.94178498015812" lon="7.655900317081556"><ele>2534.0</ele><time>2026-03-27T13:12:45Z</time></trkpt><trkpt lat="45.941686562617775" lon="7.6559190094941965"><ele>2546.0</ele><time>2026-03-27T13:13:08Z</time></trkpt><trkpt lat="45.941716746599134" lon="7.655838432874243"><ele>2534.0</ele><time>2026-03-27T13:14:00.001Z</time></trkpt></trkseg></trk></gpx>